Provisional Data: Bowman Creek near Noxen, PA


Please select a monitoring station.
Please select start date.
Please select start date.

Toggle Unit: C/F Toggle Unit: C/F
Sample Time Temperature (C) Temperature (F) Specific Conductivity (mS/cm) pH   Turbidity (NTU+) DO (mg/L)
3/23/2021 12:00:00 AM 5.06 41.108 0.033 6.78 17.76 12.57
3/23/2021 12:15:00 AM 4.98 40.964 0.033 6.75 20.68 12.6
3/23/2021 12:30:00 AM 4.9 40.82 0.033 6.77 21.25 12.62
3/23/2021 12:45:00 AM 4.82 40.676 0.033 6.78 20.76 12.66
3/23/2021 1:00:00 AM 4.75 40.55 0.033 6.77 20.87 12.68
3/23/2021 1:15:00 AM 4.68 40.424 0.032 6.72 20.13 12.71
3/23/2021 1:30:00 AM 4.62 40.316 0.033 6.77 19.48 12.72
3/23/2021 1:45:00 AM 4.55 40.19 0.033 6.77 20.77 12.75
3/23/2021 2:00:00 AM 4.49 40.082 0.033 6.77 20.86 12.78
3/23/2021 2:15:00 AM 4.43 39.974 0.033 6.77 21.99 12.8
3/23/2021 2:30:00 AM 4.37 39.866 0.033 6.76 18.94 12.81
3/23/2021 2:45:00 AM 4.31 39.758 0.033 6.73 21.09 12.83
3/23/2021 3:00:00 AM 4.26 39.668 0.033 6.76 19.11 12.85
3/23/2021 3:15:00 AM 4.21 39.578 0.033 6.77 20.93 12.87
3/23/2021 3:30:00 AM 4.16 39.488 0.033 6.77 17.76 12.88
3/23/2021 3:45:00 AM 4.11 39.398 0.032 6.71 18.11 12.91
3/23/2021 4:00:00 AM 4.06 39.308 0.033 6.76 20.2 12.92
3/23/2021 4:15:00 AM 4.02 39.236 0.033 6.76 20.38 12.94
3/23/2021 4:30:00 AM 3.97 39.146 0.033 6.76 20.99 12.95
3/23/2021 4:45:00 AM 3.93 39.074 0.031 6.74 20.22 12.96
3/23/2021 5:00:00 AM 3.88 38.984 0.032 6.75 22.94 12.99
3/23/2021 5:15:00 AM 3.84 38.912 0.033 6.76 19.41 13
3/23/2021 5:30:00 AM 3.8 38.84 0.033 6.76 20.45 13.02
3/23/2021 5:45:00 AM 3.76 38.768 0.033 6.76 20.16 13.03
3/23/2021 6:00:00 AM 3.71 38.678 0.033 6.74 18.64 13.05
3/23/2021 6:15:00 AM 3.67 38.606 0.033 6.76 20.58 13.06
3/23/2021 6:30:00 AM 3.63 38.534 0.033 6.76 19 13.07
3/23/2021 6:45:00 AM 3.59 38.462 0.033 6.76 20.19 13.09
3/23/2021 7:00:00 AM 3.54 38.372 0.033 6.76 19.92 13.11
3/23/2021 7:15:00 AM 3.5 38.3 0.033 6.76 19.8 13.13
3/23/2021 7:30:00 AM 3.46 38.228 0.032 6.72 22.49 13.16
3/23/2021 7:45:00 AM 3.43 38.174 0.032 6.71 23.31 13.19
3/23/2021 8:00:00 AM 3.41 38.138 0.033 6.77 21.2 13.23
3/23/2021 8:15:00 AM 3.39 38.102 0.032 6.73 17.54 13.26
3/23/2021 8:30:00 AM 3.38 38.084 0.033 6.78 20.55 13.29
3/23/2021 8:45:00 AM 3.38 38.084 0.033 6.79 17.39 13.32
3/23/2021 9:00:00 AM 3.39 38.102 0.033 6.64 20.02 13.33
3/23/2021 9:15:00 AM 3.42 38.156 0.033 6.8 17.44 13.35
3/23/2021 9:30:00 AM 3.47 38.246 0.032 6.77 19.61 13.35
3/23/2021 9:45:00 AM 3.54 38.372 0.033 6.81 19.84 13.35
3/23/2021 10:00:00 AM 3.63 38.534 0.033 6.82 19.19 13.34
3/23/2021 10:15:00 AM 3.74 38.732 0.033 6.82 17.22 13.32
3/23/2021 10:30:00 AM 3.87 38.966 0.033 6.83 19.05 13.3
3/23/2021 10:45:00 AM 4.02 39.236 0.033 6.84 19.72 13.26
3/23/2021 11:00:00 AM 4.2 39.56 0.033 6.85 19.88 13.22
3/23/2021 11:15:00 AM 4.38 39.884 0.033 6.85 19.53 13.17
3/23/2021 11:30:00 AM 4.57 40.226 0.033 6.86 16.55 13.13
3/23/2021 11:45:00 AM 4.77 40.586 0.033 6.86 19.52 13.08
3/23/2021 12:00:00 PM 4.96 40.928 0.033 6.87 17.87 13.03
3/23/2021 12:15:00 PM 5.15 41.27 0.033 6.87 19.69 12.97
3/23/2021 12:30:00 PM 5.36 41.648 0.033 6.88 19.25 12.92
3/23/2021 12:45:00 PM 5.54 41.972 0.033 6.87 19.85 12.85
3/23/2021 1:00:00 PM 5.72 42.296 0.033 6.88 19.62 12.8
3/23/2021 1:15:00 PM 5.88 42.584 0.033 6.89 19.69 12.75
3/23/2021 1:30:00 PM 6.01 42.818 0.033 6.89 18.82 12.69
3/23/2021 1:45:00 PM 6.17 43.106 0.033 6.89 19.59 12.64
3/23/2021 2:00:00 PM 6.31 43.358 0.033 6.9 19.15 12.59
3/23/2021 2:15:00 PM 6.41 43.538 0.033 6.89 19.05 12.54
3/23/2021 2:30:00 PM 6.55 43.79 0.033 6.9 19.38 12.5
3/23/2021 2:45:00 PM 6.67 44.006 0.033 6.9 19.75 12.45
3/23/2021 3:00:00 PM 6.8 44.24 0.033 6.9 17.87 12.39
3/23/2021 3:15:00 PM 6.87 44.366 0.034 6.9 20.22 12.34
3/23/2021 3:30:00 PM 6.93 44.474 0.035 6.9 19.25 12.3
3/23/2021 3:45:00 PM 7 44.6 0.035 6.91 16.41 12.26
3/23/2021 4:00:00 PM 7.1 44.78 0.034 6.91 19.07 12.22
3/23/2021 4:15:00 PM 7.16 44.888 0.034 6.91 19.38 12.19
3/23/2021 4:30:00 PM 7.19 44.942 0.034 6.77 20.07 12.16
3/23/2021 4:45:00 PM 7.24 45.032 0.033 6.85 19.45 12.13
3/23/2021 5:00:00 PM 7.3 45.14 0.033 6.91 18.66 12.1
3/23/2021 5:15:00 PM 7.33 45.194 0.033 6.91 16.54 12.07
3/23/2021 5:30:00 PM 7.34 45.212 0.033 6.91 19.75 12.05
3/23/2021 5:45:00 PM 7.34 45.212 0.033 6.9 20.1 12.03
3/23/2021 6:00:00 PM 7.33 45.194 0.033 6.89 20.33 12
3/23/2021 6:15:00 PM 7.32 45.176 0.033 6.89 19.96 11.98
3/23/2021 6:30:00 PM 7.28 45.104 0.033 6.76 20.28 11.96
3/23/2021 6:45:00 PM 7.25 45.05 0.033 6.87 19.88 11.96
3/23/2021 7:00:00 PM 7.21 44.978 0.033 6.81 19.95 11.94
3/23/2021 7:15:00 PM 7.16 44.888 0.033 6.85 20.15 11.93
3/23/2021 7:30:00 PM 7.1 44.78 0.033 6.84 19.22 11.93
3/23/2021 7:45:00 PM 7.04 44.672 0.033 6.83 20.11 11.93
3/23/2021 8:00:00 PM 6.97 44.546 0.033 6.82 17.85 11.94
3/23/2021 8:15:00 PM 6.91 44.438 0.033 6.81 20.88 11.95
3/23/2021 8:30:00 PM 6.84 44.312 0.033 6.81 19.97 11.97
3/23/2021 8:45:00 PM 6.77 44.186 0.033 6.81 21.23 11.99
3/23/2021 9:00:00 PM 6.71 44.078 0.033 6.8 19.84 12.01
3/23/2021 9:15:00 PM 6.64 43.952 0.033 6.8 21.24 12.03
3/23/2021 9:30:00 PM 6.57 43.826 0.033 6.8 19.54 12.05
3/23/2021 9:45:00 PM 6.51 43.718 0.033 6.79 19.59 12.08
3/23/2021 10:00:00 PM 6.44 43.592 0.033 6.79 20.53 12.1
3/23/2021 10:15:00 PM 6.37 43.466 0.033 6.78 21.36 12.12
3/23/2021 10:30:00 PM 6.31 43.358 0.033 6.78 19.89 12.14
3/23/2021 10:45:00 PM 6.25 43.25 0.033 6.78 18.47 12.16
3/23/2021 11:00:00 PM 6.19 43.142 0.032 6.69 21.11 12.18
3/23/2021 11:15:00 PM 6.13 43.034 0.032 6.78 21.53 12.2
3/23/2021 11:30:00 PM 6.08 42.944 0.032 6.77 27.19 12.22
3/23/2021 11:45:00 PM 6.03 42.854 0.032 6.77 28.3 12.23
3/24/2021 12:00:00 AM 5.97 42.746 0.032 6.77 21.32 12.25
3/24/2021 12:15:00 AM 5.92 42.656 0.032 6.77 20.66 12.26
3/24/2021 12:30:00 AM 5.87 42.566 0.032 6.77 21.58 12.28
3/24/2021 12:45:00 AM 5.82 42.476 0.032 6.77 21.18 12.3
3/24/2021 1:00:00 AM 5.77 42.386 0.032 6.77 20.98 12.31
3/24/2021 1:15:00 AM 5.72 42.296 0.032 6.77 21.56 12.33
3/24/2021 1:30:00 AM 5.69 42.242 0.032 6.77 19.26 12.34
3/24/2021 1:45:00 AM 5.65 42.17 0.032 6.77 22.2 12.36
3/24/2021 2:00:00 AM 5.63 42.134 0.032 6.76 21.24 12.36
3/24/2021 2:15:00 AM 5.6 42.08 0.032 6.76 21.4 12.38
3/24/2021 2:30:00 AM 5.59 42.062 0.032 6.76 21.51 12.38
3/24/2021 2:45:00 AM 5.57 42.026 0.032 6.76 22.16 12.39
3/24/2021 3:00:00 AM 5.56 42.008 0.032 6.77 21.4 12.39
3/24/2021 3:15:00 AM 5.54 41.972 0.032 6.76 21.85 12.4
3/24/2021 3:30:00 AM 5.51 41.918 0.032 6.76 21.48 12.4
3/24/2021 3:45:00 AM 5.49 41.882 0.032 6.76 20.77 12.41
3/24/2021 4:00:00 AM 5.47 41.846 0.032 6.72 21.03 12.41
3/24/2021 4:15:00 AM 5.45 41.81 0.032 6.76 21.83 12.42
3/24/2021 4:30:00 AM 5.44 41.792 0.032 6.76 21.46 12.43
3/24/2021 4:45:00 AM 5.42 41.756 0.032 6.76 22.46 12.42
3/24/2021 5:00:00 AM 5.41 41.738 0.032 6.76 21.1 12.44
3/24/2021 5:15:00 AM 5.39 41.702 0.032 6.76 21.09 12.44
3/24/2021 5:30:00 AM 5.38 41.684 0.032 6.76 19.89 12.44
3/24/2021 5:45:00 AM 5.37 41.666 0.032 6.76 21.69 12.45
3/24/2021 6:00:00 AM 5.37 41.666 0.032 6.76 21.41 12.45
3/24/2021 6:15:00 AM 5.36 41.648 0.032 6.76 21.93 12.45
3/24/2021 6:30:00 AM 5.36 41.648 0.032 6.75 21.05 12.45
3/24/2021 6:45:00 AM 5.36 41.648 0.032 6.76 21.51 12.46
3/24/2021 7:00:00 AM 5.36 41.648 0.032 6.76 21.38 12.45
3/24/2021 7:15:00 AM 5.36 41.648 0.032 6.75 22.05 12.45
3/24/2021 7:30:00 AM 5.36 41.648 0.032 6.76 20.77 12.45
3/24/2021 7:45:00 AM 5.36 41.648 0.032 6.76 19.23 12.47
3/24/2021 8:00:00 AM 5.36 41.648 0.032 6.76 20.34 12.47
3/24/2021 8:15:00 AM 5.37 41.666 0.032 6.76 21.04 12.47
3/24/2021 8:30:00 AM 5.37 41.666 0.032 6.76 20.51 12.49
3/24/2021 8:45:00 AM 5.38 41.684 0.032 6.77 20.66 12.49
3/24/2021 9:00:00 AM 5.38 41.684 0.032 6.77 20.63 12.5
3/24/2021 9:15:00 AM 5.39 41.702 0.032 6.77 20.75 12.51
3/24/2021 9:30:00 AM 5.4 41.72 0.032 6.78 19.64 12.51
3/24/2021 9:45:00 AM 5.42 41.756 0.032 6.78 21.54 12.52
3/24/2021 10:00:00 AM 5.44 41.792 0.032 6.68 21.24 12.52
3/24/2021 10:15:00 AM 5.46 41.828 0.032 6.79 20.95 12.53
3/24/2021 10:30:00 AM 5.48 41.864 0.032 6.8 21.4 12.54
3/24/2021 10:45:00 AM 5.51 41.918 0.032 6.8 21.16 12.54
3/24/2021 11:00:00 AM 5.54 41.972 0.032 6.8 21.17 12.54
3/24/2021 11:15:00 AM 5.57 42.026 0.032 6.81 21.6 12.54
3/24/2021 11:30:00 AM 5.59 42.062 0.032 6.81 21.64 12.53
3/24/2021 11:45:00 AM 5.62 42.116 0.033 6.82 20.21 12.52
3/24/2021 12:00:00 PM 5.65 42.17 0.033 6.81 23.24 12.51
3/24/2021 12:15:00 PM 5.68 42.224 0.033 6.84 22.29 12.5
3/24/2021 12:30:00 PM 5.72 42.296 0.033 6.84 22.93 12.48
3/24/2021 12:45:00 PM 5.75 42.35 0.034 6.85 22.57 12.48
3/24/2021 1:00:00 PM 5.79 42.422 0.034 6.85 24.1 12.46
3/24/2021 1:15:00 PM 5.86 42.548 0.034 6.86 24.1 12.45
3/24/2021 1:30:00 PM 5.91 42.638 0.034 6.87 25.49 12.43
3/24/2021 1:45:00 PM 5.97 42.746 0.034 6.88 26.31 12.4
3/24/2021 2:00:00 PM 6.04 42.872 0.035 6.89 28.61 12.36
3/24/2021 2:15:00 PM 6.12 43.016 0.036 6.9 33.36 12.33
3/24/2021 2:30:00 PM 6.2 43.16 0.037 6.92 41.14 12.29
3/24/2021 2:45:00 PM 6.3 43.34 0.039 6.94 43.92 12.24
3/24/2021 3:00:00 PM 6.41 43.538 0.04 6.96 70.88 12.19
3/24/2021 3:15:00 PM 6.52 43.736 0.041 6.96 73.18 12.15
3/24/2021 3:30:00 PM 6.58 43.844 0.039 6.93 81.01 12.14
3/24/2021 3:45:00 PM 6.58 43.844 0.037 6.9 89.02 12.13
3/24/2021 4:00:00 PM 6.55 43.79 0.035 6.68 127.49 12.14
3/24/2021 4:15:00 PM 6.5 43.7 0.033 6.82 112.25 12.16
3/24/2021 4:30:00 PM 6.45 43.61 0.032 6.78 134.68 12.17
3/24/2021 4:45:00 PM 6.41 43.538 0.03 6.74 142.61 12.19
3/24/2021 5:00:00 PM 6.36 43.448 0.03 6.7 151.62 12.2
3/24/2021 5:15:00 PM 6.32 43.376 0.029 6.66 185.04 12.21
3/24/2021 5:30:00 PM 6.27 43.286 0.029 6.64 154.19 12.22
3/24/2021 5:45:00 PM 6.22 43.196 0.028 6.61 134.67 12.24
3/24/2021 6:00:00 PM 6.18 43.124 0.028 6.59 154.79 12.25
3/24/2021 6:15:00 PM 6.14 43.052 0.028 6.56 170.78 12.27
3/24/2021 6:30:00 PM 6.1 42.98 0.027 6.55 166.15 12.28
3/24/2021 6:45:00 PM 6.07 42.926 0.027 6.54 113.03 12.29
3/24/2021 7:00:00 PM 6.03 42.854 0.027 6.53 112.01 12.31
3/24/2021 7:15:00 PM 6 42.8 0.026 6.53 114.86 12.31
3/24/2021 7:30:00 PM 5.96 42.728 0.026 6.51 131.47 12.32
3/24/2021 7:45:00 PM 5.93 42.674 0.026 6.51 101.45 12.33
3/24/2021 8:00:00 PM 5.9 42.62 0.026 6.5 149.76 12.33
3/24/2021 8:15:00 PM 5.87 42.566 0.026 6.5 122.79 12.35
3/24/2021 8:30:00 PM 5.85 42.53 0.026 6.49 136.45 12.35
3/24/2021 8:45:00 PM 5.82 42.476 0.026 6.49 114.06 12.36
3/24/2021 9:00:00 PM 5.79 42.422 0.026 6.49 116.21 12.37
3/24/2021 9:15:00 PM 5.77 42.386 0.026 6.5 142.83 12.37
3/24/2021 9:30:00 PM 5.74 42.332 0.026 6.49 115.4 12.38
3/24/2021 9:45:00 PM 5.72 42.296 0.026 6.49 102.82 12.38
3/24/2021 10:00:00 PM 5.7 42.26 0.026 6.49 96.47 12.4
3/24/2021 10:15:00 PM 5.68 42.224 0.026 6.48 74.37 12.4
3/24/2021 10:30:00 PM 5.66 42.188 0.026 6.47 110.55 12.41
3/24/2021 10:45:00 PM 5.65 42.17 0.026 6.48 79.33 12.41
3/24/2021 11:00:00 PM 5.63 42.134 0.026 6.28 79.09 12.41
3/24/2021 11:15:00 PM 5.62 42.116 0.026 6.46 69.74 12.41
3/24/2021 11:30:00 PM 5.61 42.098 0.026 6.46 98.79 12.42
3/24/2021 11:45:00 PM 5.6 42.08 0.026 6.46 85.99 12.42
3/25/2021 12:00:00 AM 5.6 42.08 0.026 6.46 66.71 12.42
3/25/2021 12:15:00 AM 5.59 42.062 0.026 6.46 74.79 12.43
3/25/2021 12:30:00 AM 5.59 42.062 0.026 6.45 80.15 12.43
3/25/2021 12:45:00 AM 5.58 42.044 0.025 6.45 92.52 12.43
3/25/2021 1:00:00 AM 5.58 42.044 0.025 6.45 93.11 12.43
3/25/2021 1:15:00 AM 5.58 42.044 0.025 6.45 63.63 12.43
3/25/2021 1:30:00 AM 5.58 42.044 0.025 6.44 77.09 12.43
3/25/2021 1:45:00 AM 5.58 42.044 0.025 6.44 57.09 12.43
3/25/2021 2:00:00 AM 5.58 42.044 0.025 6.45 54.66 12.43
3/25/2021 2:15:00 AM 5.57 42.026 0.025 6.44 72.26 12.43
3/25/2021 2:30:00 AM 5.57 42.026 0.025 6.42 75.63 12.43
3/25/2021 2:45:00 AM 5.57 42.026 0.025 6.44 60.81 12.42
3/25/2021 3:00:00 AM 5.57 42.026 0.025 6.44 51.18 12.42
3/25/2021 3:15:00 AM 5.57 42.026 0.025 6.43 81.25 12.42
3/25/2021 3:30:00 AM 5.57 42.026 0.025 6.43 61.02 12.42
3/25/2021 3:45:00 AM 5.57 42.026 0.025 6.44 63.79 12.42
3/25/2021 4:00:00 AM 5.57 42.026 0.025 6.44 67.34 12.41
3/25/2021 4:15:00 AM 5.57 42.026 0.025 6.44 54.34 12.41
3/25/2021 4:30:00 AM 5.57 42.026 0.025 6.44 53.63 12.41
3/25/2021 4:45:00 AM 5.57 42.026 0.025 6.44 44.15 12.41
3/25/2021 5:00:00 AM 5.57 42.026 0.025 6.45 58 12.41
3/25/2021 5:15:00 AM 5.58 42.044 0.025 6.45 64.28 12.41
3/25/2021 5:30:00 AM 5.57 42.026 0.025 6.45 58.69 12.41
3/25/2021 5:45:00 AM 5.58 42.044 0.025 6.45 43.66 12.42
3/25/2021 6:00:00 AM 5.58 42.044 0.025 6.46 51.66 12.42
3/25/2021 6:15:00 AM 5.58 42.044 0.025 6.46 59.19 12.42
3/25/2021 6:30:00 AM 5.58 42.044 0.025 6.45 53.25 12.42
3/25/2021 6:45:00 AM 5.58 42.044 0.025 6.45 72.01 12.42
3/25/2021 7:00:00 AM 5.58 42.044 0.025 6.46 41.63 12.42
3/25/2021 7:15:00 AM 5.58 42.044 0.025 6.46 42.39 12.42
3/25/2021 7:30:00 AM 5.59 42.062 0.025 6.46 38.51 12.42
3/25/2021 7:45:00 AM 5.6 42.08 0.025 6.46 49.74 12.42
3/25/2021 8:00:00 AM 5.61 42.098 0.025 6.47 45.54 12.42
3/25/2021 8:15:00 AM 5.63 42.134 0.025 6.47 38.81 12.42
3/25/2021 8:30:00 AM 5.65 42.17 0.025 6.47 58.54 12.42
3/25/2021 8:45:00 AM 5.69 42.242 0.025 6.49 35.59 12.42
3/25/2021 9:00:00 AM 5.72 42.296 0.025 6.49 43.94 12.42
3/25/2021 9:15:00 AM 5.77 42.386 0.025 6.5 39.48 12.41
3/25/2021 9:30:00 AM 5.82 42.476 0.025 6.51 36.5 12.41
3/25/2021 9:45:00 AM 5.87 42.566 0.025 6.51 37.64 12.4
3/25/2021 10:00:00 AM 5.93 42.674 0.025 6.52 45.87 12.38
3/25/2021 10:15:00 AM 6 42.8 0.025 6.52 52.4 12.38
3/25/2021 10:30:00 AM 6.09 42.962 0.025 6.38 36.44 12.35
3/25/2021 10:45:00 AM 6.23 43.214 0.025 6.51 39.53 12.32
3/25/2021 11:00:00 AM 6.35 43.43 0.025 6.55 44.42 12.3
3/25/2021 11:15:00 AM 6.49 43.682 0.025 6.56 37.41 12.27
3/25/2021 11:30:00 AM 6.64 43.952 0.025 6.56 32.24 12.23
3/25/2021 11:45:00 AM 6.83 44.294 0.025 6.56 58.96 12.17
3/25/2021 12:00:00 PM 7.02 44.636 0.025 6.56 31.62 12.13
3/25/2021 12:15:00 PM 7.18 44.924 0.025 6.58 43.51 12.08
3/25/2021 12:30:00 PM 7.33 45.194 0.026 6.58 34.35 12.04
3/25/2021 12:45:00 PM 7.46 45.428 0.026 6.59 33.65 12
3/25/2021 1:00:00 PM 7.61 45.698 0.026 6.59 38.08 11.97
3/25/2021 1:15:00 PM 7.76 45.968 0.026 6.58 28.99 11.92
3/25/2021 1:30:00 PM 7.91 46.238 0.026 6.6 31.09 11.88
3/25/2021 1:45:00 PM 8.05 46.49 0.026 6.6 64.2 11.83
3/25/2021 2:00:00 PM 8.2 46.76 0.026 6.61 38.32 11.78
3/25/2021 2:15:00 PM 8.33 46.994 0.026 6.54 31.48 11.73
3/25/2021 2:30:00 PM 8.44 47.192 0.026 6.62 29.14 11.69
3/25/2021 2:45:00 PM 8.58 47.444 0.026 6.61 30.23 11.64
3/25/2021 3:00:00 PM 8.69 47.642 0.026 6.62 33.47 11.6
3/25/2021 3:15:00 PM 8.8 47.84 0.026 6.62 38.18 11.56
3/25/2021 3:30:00 PM 8.89 48.002 0.026 6.62 31.09 11.53
3/25/2021 3:45:00 PM 8.95 48.11 0.026 6.62 38.57 11.5
3/25/2021 4:00:00 PM 9 48.2 0.026 6.62 31.22 11.47
3/25/2021 4:15:00 PM 9.02 48.236 0.026 6.62 34.3 11.45
3/25/2021 4:30:00 PM 9.05 48.29 0.026 6.63 34.95 11.43
3/25/2021 4:45:00 PM 9.06 48.308 0.026 6.63 40.51 11.42
3/25/2021 5:00:00 PM 9.06 48.308 0.026 6.62 53.35 11.42
3/25/2021 5:15:00 PM 9.05 48.29 0.026 6.63 31.25 11.41
3/25/2021 5:30:00 PM 9.03 48.254 0.026 6.62 33 11.4
3/25/2021 5:45:00 PM 9 48.2 0.026 6.62 30.5 11.41
3/25/2021 6:00:00 PM 8.95 48.11 0.026 6.62 29.13 11.41
3/25/2021 6:15:00 PM 8.9 48.02 0.026 6.61 38.1 11.41
3/25/2021 6:30:00 PM 8.84 47.912 0.026 6.61 34.44 11.42
3/25/2021 6:45:00 PM 8.79 47.822 0.026 6.5 36.65 11.43
3/25/2021 7:00:00 PM 8.73 47.714 0.026 6.6 35.7 11.43
3/25/2021 7:15:00 PM 8.68 47.624 0.026 6.55 38.45 11.43
3/25/2021 7:30:00 PM 8.62 47.516 0.026 6.59 34.22 11.44
3/25/2021 7:45:00 PM 8.58 47.444 0.026 6.58 31.85 11.44
3/25/2021 8:00:00 PM 8.53 47.354 0.026 6.58 38.33 11.45
3/25/2021 8:15:00 PM 8.49 47.282 0.026 6.58 29.88 11.46
3/25/2021 8:30:00 PM 8.45 47.21 0.026 6.58 27.44 11.47
3/25/2021 8:45:00 PM 8.41 47.138 0.026 6.58 35.47 11.48
3/25/2021 9:00:00 PM 8.39 47.102 0.026 6.58 34.08 11.49
3/25/2021 9:15:00 PM 8.38 47.084 0.026 6.59 29.2 11.5
3/25/2021 9:30:00 PM 8.36 47.048 0.026 6.59 38.2 11.51
3/25/2021 9:45:00 PM 8.34 47.012 0.026 6.6 32.82 11.51
3/25/2021 10:00:00 PM 8.31 46.958 0.026 6.6 35.25 11.52
3/25/2021 10:15:00 PM 8.29 46.922 0.027 6.6 28.37 11.53
3/25/2021 10:30:00 PM 8.25 46.85 0.027 6.59 31.07 11.53
3/25/2021 10:45:00 PM 8.22 46.796 0.027 6.6 28.17 11.53
3/25/2021 11:00:00 PM 8.2 46.76 0.027 6.6 39.18 11.54
3/25/2021 11:15:00 PM 8.17 46.706 0.027 6.59 30.1 11.54
3/25/2021 11:30:00 PM 8.16 46.688 0.027 6.59 35.17 11.54
3/25/2021 11:45:00 PM 8.15 46.67 0.027 6.6 30.76 11.55
3/26/2021 12:00:00 AM 8.13 46.634 0.027 6.6 26.69 11.55
3/26/2021 12:15:00 AM 8.12 46.616 0.027 6.61 31.04 11.55
3/26/2021 12:30:00 AM 8.11 46.598 0.027 6.6 36.34 11.55
3/26/2021 12:45:00 AM 8.09 46.562 0.027 6.61 28.95 11.55
3/26/2021 1:00:00 AM 8.08 46.544 0.027 6.61 28.56 11.56
3/26/2021 1:15:00 AM 8.07 46.526 0.027 6.62 29.51 11.56
3/26/2021 1:30:00 AM 8.05 46.49 0.027 6.62 26.88 11.57
3/26/2021 1:45:00 AM 8.04 46.472 0.027 6.59 26.75 11.56
3/26/2021 2:00:00 AM 8.03 46.454 0.027 6.62 29.19 11.56
3/26/2021 2:15:00 AM 8.02 46.436 0.027 6.62 39.65 11.56
3/26/2021 2:30:00 AM 8 46.4 0.027 6.62 35.79 11.57
3/26/2021 2:45:00 AM 7.98 46.364 0.027 6.62 26.17 11.56
3/26/2021 3:00:00 AM 7.96 46.328 0.027 6.62 34.52 11.57
3/26/2021 3:15:00 AM 7.95 46.31 0.027 6.61 29.56 11.57
3/26/2021 3:30:00 AM 7.93 46.274 0.027 6.61 35.42 11.58
3/26/2021 3:45:00 AM 7.92 46.256 0.027 6.61 33.95 11.57
3/26/2021 4:00:00 AM 7.91 46.238 0.028 6.62 28.83 11.57
3/26/2021 4:15:00 AM 7.9 46.22 0.028 6.61 26.1 11.57
3/26/2021 4:30:00 AM 7.9 46.22 0.028 6.62 35.32 11.57
3/26/2021 4:45:00 AM 7.9 46.22 0.028 6.62 28.44 11.57
3/26/2021 5:00:00 AM 7.9 46.22 0.028 6.62 23.11 11.56
3/26/2021 5:15:00 AM 7.89 46.202 0.028 6.63 26.57 11.56
3/26/2021 5:30:00 AM 7.88 46.184 0.028 6.63 25.63 11.56
3/26/2021 5:45:00 AM 7.88 46.184 0.028 6.63 32.25 11.56
3/26/2021 6:00:00 AM 7.88 46.184 0.028 6.64 28.26 11.55
3/26/2021 6:15:00 AM 7.86 46.148 0.028 6.63 28.75 11.56
3/26/2021 6:30:00 AM 7.86 46.148 0.028 6.64 27.5 11.55
3/26/2021 6:45:00 AM 7.87 46.166 0.028 6.64 36.6 11.55
3/26/2021 7:00:00 AM 7.88 46.184 0.028 6.64 25.62 11.56
3/26/2021 7:15:00 AM 7.89 46.202 0.028 6.65 37.83 11.55
3/26/2021 7:30:00 AM 7.91 46.238 0.028 6.65 31.81 11.53
3/26/2021 7:45:00 AM 7.92 46.256 0.028 6.65 38.15 11.54
3/26/2021 8:00:00 AM 7.93 46.274 0.028 6.66 33.24 11.55
3/26/2021 8:15:00 AM 7.94 46.292 0.028 6.66 25.42 11.55
3/26/2021 8:30:00 AM 7.97 46.346 0.028 6.67 28.78 11.54
3/26/2021 8:45:00 AM 7.99 46.382 0.028 6.67 26.76 11.54
3/26/2021 9:00:00 AM 8.03 46.454 0.028 6.67 28.98 11.53
3/26/2021 9:15:00 AM 8.09 46.562 0.028 6.68 29.39 11.52
3/26/2021 9:30:00 AM 8.16 46.688 0.028 6.68 31.96 11.52
3/26/2021 9:45:00 AM 8.25 46.85 0.028 6.69 26.43 11.51
3/26/2021 10:00:00 AM 8.35 47.03 0.028 6.7 26.6 11.5
3/26/2021 10:15:00 AM 8.47 47.246 0.028 6.7 25.17 11.48
3/26/2021 10:30:00 AM 8.64 47.552 0.028 6.71 30.34 11.45
3/26/2021 10:45:00 AM 8.82 47.876 0.028 6.72 30.15 11.41
3/26/2021 11:00:00 AM 8.97 48.146 0.028 6.72 33.15 11.37
3/26/2021 11:15:00 AM 9.08 48.344 0.028 6.72 31.44 11.34
3/26/2021 11:30:00 AM 9.16 48.488 0.028 6.73 30.01 11.31
3/26/2021 11:45:00 AM 9.25 48.65 0.028 6.72 28.16 11.29
3/26/2021 12:00:00 PM 9.35 48.83 0.028 6.73 67.97 11.26
3/26/2021 12:15:00 PM 9.47 49.046 0.028 6.74 26.15 11.24
3/26/2021 12:30:00 PM 9.66 49.388 0.028 6.74 40.89 11.22
3/26/2021 12:45:00 PM 9.81 49.658 0.028 6.7 39.7 11.17
3/26/2021 1:00:00 PM 9.98 49.964 0.028 6.74 31.14 11.13
3/26/2021 1:15:00 PM 10.1 50.18 0.028 6.74 39.97 11.1
3/26/2021 1:30:00 PM 10.2 50.36 0.028 6.75 42.42 11.08
3/26/2021 1:45:00 PM 10.27 50.486 0.028 6.68 34.16 11.05
3/26/2021 2:00:00 PM 10.28 50.504 0.028 6.75 30.41 11.03
3/26/2021 2:15:00 PM 10.38 50.684 0.028 6.75 27.79 11.02
3/26/2021 2:30:00 PM 10.52 50.936 0.028 6.75 25.34 11
3/26/2021 2:45:00 PM 10.66 51.188 0.028 6.75 29.64 10.98
3/26/2021 3:00:00 PM 10.81 51.458 0.028 6.75 27.56 10.94
3/26/2021 3:15:00 PM 10.86 51.548 0.028 6.75 24.96 10.91
3/26/2021 3:30:00 PM 10.78 51.404 0.028 6.75 27.03 10.9
3/26/2021 3:45:00 PM 10.74 51.332 0.028 6.64 27.89 10.9
3/26/2021 4:00:00 PM 10.7 51.26 0.028 6.74 23.49 10.91
3/26/2021 4:15:00 PM 10.71 51.278 0.028 6.75 24.59 10.91
3/26/2021 4:30:00 PM 10.72 51.296 0.028 6.75 35.2 10.9
3/26/2021 4:45:00 PM 10.71 51.278 0.028 6.75 35.24 10.9
3/26/2021 5:00:00 PM 10.67 51.206 0.028 6.74 33.63 10.91
3/26/2021 5:15:00 PM 10.6 51.08 0.028 6.74 22.31 10.92
3/26/2021 5:30:00 PM 10.55 50.99 0.028 6.74 26.39 10.93
3/26/2021 5:45:00 PM 10.47 50.846 0.028 6.74 27.54 10.95
3/26/2021 6:00:00 PM 10.39 50.702 0.028 6.74 26.14 10.97
3/26/2021 6:15:00 PM 10.28 50.504 0.028 6.74 27.23 11
3/26/2021 6:30:00 PM 10.14 50.252 0.028 6.73 25.82 11.02
3/26/2021 6:45:00 PM 10.02 50.036 0.028 6.72 31.06 11.04
3/26/2021 7:00:00 PM 9.91 49.838 0.029 6.72 36.1 11.07
3/26/2021 7:15:00 PM 9.79 49.622 0.029 6.72 80.86 11.09
3/26/2021 7:30:00 PM 9.7 49.46 0.029 6.71 21.86 11.11
3/26/2021 7:45:00 PM 9.6 49.28 0.029 6.7 23.78 11.13
3/26/2021 8:00:00 PM 9.51 49.118 0.029 6.71 25.18 11.15
3/26/2021 8:15:00 PM 9.43 48.974 0.029 6.71 27.66 11.17
3/26/2021 8:30:00 PM 9.35 48.83 0.029 6.7 30.34 11.2
3/26/2021 8:45:00 PM 9.28 48.704 0.029 6.7 33.46 11.22
3/26/2021 9:00:00 PM 9.21 48.578 0.029 6.7 28.16 11.24
3/26/2021 9:15:00 PM 9.15 48.47 0.029 6.71 40.61 11.26
3/26/2021 9:30:00 PM 9.09 48.362 0.029 6.71 32.01 11.28
3/26/2021 9:45:00 PM 9.03 48.254 0.029 6.7 80.8 11.3
3/26/2021 10:00:00 PM 8.97 48.146 0.029 6.7 25.68 11.32
3/26/2021 10:15:00 PM 8.91 48.038 0.029 6.62 23.98 11.34
3/26/2021 10:30:00 PM 8.86 47.948 0.029 6.7 23.56 11.35
3/26/2021 10:45:00 PM 8.81 47.858 0.029 6.7 26.75 11.37
3/26/2021 11:00:00 PM 8.75 47.75 0.029 6.7 24.28 11.38
3/26/2021 11:15:00 PM 8.7 47.66 0.029 6.69 20.34 11.4
3/26/2021 11:30:00 PM 8.64 47.552 0.029 6.7 32.08 11.42
3/26/2021 11:45:00 PM 8.59 47.462 0.029 6.7 23.83 11.43
3/27/2021 12:00:00 AM 8.52 47.336 0.029 6.7 24.49 11.46
3/27/2021 12:15:00 AM 8.46 47.228 0.029 6.7 24.53 11.48
3/27/2021 12:30:00 AM 8.39 47.102 0.029 6.7 20.53 11.5
3/27/2021 12:45:00 AM 8.32 46.976 0.029 6.71 29.74 11.51
3/27/2021 1:00:00 AM 8.25 46.85 0.029 6.7 35.93 11.54
3/27/2021 1:15:00 AM 8.18 46.724 0.029 6.7 17.16 11.56
3/27/2021 1:30:00 AM 8.11 46.598 0.029 6.7 24.33 11.58
3/27/2021 1:45:00 AM 8.05 46.49 0.029 6.7 37.45 11.59
3/27/2021 2:00:00 AM 7.98 46.364 0.029 6.7 22.18 11.62
3/27/2021 2:15:00 AM 7.93 46.274 0.029 6.7 27.01 11.64
3/27/2021 2:30:00 AM 7.88 46.184 0.029 6.7 28.03 11.65
3/27/2021 2:45:00 AM 7.83 46.094 0.03 6.69 18.95 11.67
3/27/2021 3:00:00 AM 7.78 46.004 0.03 6.7 23.73 11.67
3/27/2021 3:15:00 AM 7.74 45.932 0.03 6.7 41.81 11.7
3/27/2021 3:30:00 AM 7.7 45.86 0.03 6.7 21.35 11.71
3/27/2021 3:45:00 AM 7.66 45.788 0.03 6.68 40.91 11.72
3/27/2021 4:00:00 AM 7.62 45.716 0.03 6.7 25.76 11.73
3/27/2021 4:15:00 AM 7.58 45.644 0.03 6.71 37.05 11.75
3/27/2021 4:30:00 AM 7.55 45.59 0.03 6.7 20.05 11.76
3/27/2021 4:45:00 AM 7.52 45.536 0.03 6.71 26.24 11.77
3/27/2021 5:00:00 AM 7.49 45.482 0.03 6.7 21.26 11.77
3/27/2021 5:15:00 AM 7.46 45.428 0.03 6.7 22.82 11.78
3/27/2021 5:30:00 AM 7.43 45.374 0.03 6.7 22.33 11.8
3/27/2021 5:45:00 AM 7.4 45.32 0.03 6.7 20.12 11.81
3/27/2021 6:00:00 AM 7.37 45.266 0.03 6.7 21.12 11.81
3/27/2021 6:15:00 AM 7.35 45.23 0.03 6.65 33.26 11.82
3/27/2021 6:30:00 AM 7.31 45.158 0.03 6.71 36.83 11.83
3/27/2021 6:45:00 AM 7.28 45.104 0.03 6.7 22.78 11.84
3/27/2021 7:00:00 AM 7.25 45.05 0.03 6.71 22.48 11.85
3/27/2021 7:15:00 AM 7.22 44.996 0.03 6.71 20.22 11.86
3/27/2021 7:30:00 AM 7.2 44.96 0.03 6.71 20.17 11.88
3/27/2021 7:45:00 AM 7.17 44.906 0.03 6.71 20.29 11.9
3/27/2021 8:00:00 AM 7.14 44.852 0.03 6.72 19.95 11.92
3/27/2021 8:15:00 AM 7.13 44.834 0.03 6.72 26.92 11.95
3/27/2021 8:30:00 AM 7.14 44.852 0.03 6.73 19.63 11.97
3/27/2021 8:45:00 AM 7.14 44.852 0.03 6.65 20.01 11.98
3/27/2021 9:00:00 AM 7.17 44.906 0.03 6.74 30.66 12
3/27/2021 9:15:00 AM 7.22 44.996 0.03 6.75 22.21 12.01
3/27/2021 9:30:00 AM 7.26 45.068 0.03 6.76 24.04 12.01
3/27/2021 9:45:00 AM 7.3 45.14 0.03 6.76 20.82 12.01
3/27/2021 10:00:00 AM 7.36 45.248 0.03 6.77 17.96 12
3/27/2021 10:15:00 AM 7.43 45.374 0.03 6.77 21.31 11.99
3/27/2021 10:30:00 AM 7.54 45.572 0.03 6.78 18.78 11.96
3/27/2021 10:45:00 AM 7.64 45.752 0.03 6.78 22.5 11.94
3/27/2021 11:00:00 AM 7.72 45.896 0.03 6.78 20.25 11.91
3/27/2021 11:15:00 AM 7.92 46.256 0.03 6.79 27.41 11.88
3/27/2021 11:30:00 AM 8.06 46.508 0.03 6.79 23.84 11.85
3/27/2021 11:45:00 AM 8.13 46.634 0.03 6.79 24.64 11.84
3/27/2021 12:00:00 PM 8.24 46.832 0.03 6.8 21.69 11.81
3/27/2021 12:15:00 PM 8.36 47.048 0.03 6.8 20.05 11.78
3/27/2021 12:30:00 PM 8.5 47.3 0.03 6.8 21.36 11.76
3/27/2021 12:45:00 PM 8.46 47.228 0.03 6.8 21.85 11.73
3/27/2021 1:00:00 PM 8.64 47.552 0.03 6.8 30.55 11.69
3/27/2021 1:15:00 PM 8.86 47.948 0.031 6.81 18.56 11.64
3/27/2021 1:30:00 PM 8.9 48.02 0.031 6.81 23.52 11.63
3/27/2021 1:45:00 PM 8.96 48.128 0.031 6.81 18.94 11.62
3/27/2021 2:00:00 PM 9.13 48.434 0.031 6.81 36.23 11.56
3/27/2021 2:15:00 PM 9.32 48.776 0.031 6.82 20.19 11.51
3/27/2021 2:30:00 PM 9.48 49.064 0.031 6.82 20.88 11.46
3/27/2021 2:45:00 PM 9.63 49.334 0.031 6.82 26.96 11.41
3/27/2021 3:00:00 PM 9.75 49.55 0.031 6.82 25.81 11.37
3/27/2021 3:15:00 PM 9.86 49.748 0.031 6.83 47.86 11.33
3/27/2021 3:30:00 PM 9.93 49.874 0.031 6.83 28.22 11.29
3/27/2021 3:45:00 PM 9.95 49.91 0.031 6.83 30.59 11.27
3/27/2021 4:00:00 PM 9.97 49.946 0.031 6.83 21.45 11.25
3/27/2021 4:15:00 PM 9.99 49.982 0.031 6.83 22.47 11.23
3/27/2021 4:30:00 PM 10.01 50.018 0.031 6.83 25.74 11.22
3/27/2021 4:45:00 PM 10.03 50.054 0.031 6.84 22.41 11.2
3/27/2021 5:00:00 PM 10.05 50.09 0.031 6.83 24.17 11.18
3/27/2021 5:15:00 PM 10.05 50.09 0.031 6.83 20.41 11.18
3/27/2021 5:30:00 PM 10.03 50.054 0.031 6.83 21.64 11.17
3/27/2021 5:45:00 PM 10.01 50.018 0.031 6.83 21.46 11.16
3/27/2021 6:00:00 PM 9.98 49.964 0.031 6.83 30.11 11.17
3/27/2021 6:15:00 PM 9.93 49.874 0.031 6.82 19.88 11.17
3/27/2021 6:30:00 PM 9.87 49.766 0.031 6.81 22.73 11.17
3/27/2021 6:45:00 PM 9.82 49.676 0.031 6.81 21.45 11.17
3/27/2021 7:00:00 PM 9.75 49.55 0.031 6.8 22.58 11.17
3/27/2021 7:15:00 PM 9.68 49.424 0.031 6.79 20.84 11.17
3/27/2021 7:30:00 PM 9.61 49.298 0.031 6.78 31.36 11.17
3/27/2021 7:45:00 PM 9.53 49.154 0.031 6.77 25.13 11.18
3/27/2021 8:00:00 PM 9.44 48.992 0.031 6.77 24.4 11.19
3/27/2021 8:15:00 PM 9.36 48.848 0.031 6.76 19.73 11.2
3/27/2021 8:30:00 PM 9.27 48.686 0.031 6.76 20.49 11.22
3/27/2021 8:45:00 PM 9.19 48.542 0.031 6.76 21.12 11.24
3/27/2021 9:00:00 PM 9.11 48.398 0.032 6.76 30.63 11.26
3/27/2021 9:15:00 PM 9.03 48.254 0.032 6.75 23.81 11.28
3/27/2021 9:30:00 PM 8.96 48.128 0.032 6.76 27.07 11.29
3/27/2021 9:45:00 PM 8.88 47.984 0.032 6.76 22.47 11.32
3/27/2021 10:00:00 PM 8.81 47.858 0.032 6.76 22.34 11.34
3/27/2021 10:15:00 PM 8.74 47.732 0.032 6.76 30.07 11.36
3/27/2021 10:30:00 PM 8.68 47.624 0.032 6.76 32.37 11.38
3/27/2021 10:45:00 PM 8.61 47.498 0.032 6.76 19.46 11.4
3/27/2021 11:00:00 PM 8.54 47.372 0.032 6.76 23.72 11.41
3/27/2021 11:15:00 PM 8.48 47.264 0.032 6.76 23.84 11.43
3/27/2021 11:30:00 PM 8.42 47.156 0.032 6.75 19.63 11.45
3/27/2021 11:45:00 PM 8.36 47.048 0.032 6.76 22.53 11.46
3/28/2021 12:00:00 AM 8.3 46.94 0.032 6.76 29.78 11.48
3/28/2021 12:15:00 AM 8.25 46.85 0.032 6.75 26.93 11.49
3/28/2021 12:30:00 AM 8.19 46.742 0.032 6.75 18.67 11.51
3/28/2021 12:45:00 AM 8.14 46.652 0.032 6.75 21.73 11.52
3/28/2021 1:00:00 AM 8.09 46.562 0.032 6.75 26.39 11.54
3/28/2021 1:15:00 AM 8.04 46.472 0.032 6.75 32.67 11.54
3/28/2021 1:30:00 AM 7.99 46.382 0.032 6.75 100.03 11.56
3/28/2021 1:45:00 AM 7.94 46.292 0.032 6.76 21.29 11.58
3/28/2021 2:00:00 AM 7.89 46.202 0.032 6.75 22.06 11.58
3/28/2021 2:15:00 AM 7.84 46.112 0.032 6.75 24.67 11.6
3/28/2021 2:30:00 AM 7.79 46.022 0.032 6.75 21.18 11.61
3/28/2021 2:45:00 AM 7.75 45.95 0.032 6.75 30.17 11.61
3/28/2021 3:00:00 AM 7.7 45.86 0.032 6.75 19.8 11.63
3/28/2021 3:15:00 AM 7.66 45.788 0.032 6.76 73.58 11.64
3/28/2021 3:30:00 AM 7.61 45.698 0.032 6.76 51.91 11.64
3/28/2021 3:45:00 AM 7.57 45.626 0.032 6.75 51.63 11.65
3/28/2021 4:00:00 AM 7.53 45.554 0.032 6.76 20.25 11.66
3/28/2021 4:15:00 AM 7.49 45.482 0.032 6.76 20.29 11.68
3/28/2021 4:30:00 AM 7.46 45.428 0.032 6.76 22.05 11.69
3/28/2021 4:45:00 AM 7.44 45.392 0.032 6.76 23.98 11.69
3/28/2021 5:00:00 AM 7.42 45.356 0.032 6.76 22.12 11.7
3/28/2021 5:15:00 AM 7.41 45.338 0.032 6.76 20.09 11.7
3/28/2021 5:30:00 AM 7.41 45.338 0.032 6.76 37.53 11.7
3/28/2021 5:45:00 AM 7.4 45.32 0.033 6.76 32.34 11.7
3/28/2021 6:00:00 AM 7.39 45.302 0.033 6.76 31.32 11.71
3/28/2021 6:15:00 AM 7.38 45.284 0.033 6.76 30.91 11.71
3/28/2021 6:30:00 AM 7.37 45.266 0.033 6.77 23.52 11.71
3/28/2021 6:45:00 AM 7.37 45.266 0.033 6.77 24.74 11.71
3/28/2021 7:00:00 AM 7.36 45.248 0.033 6.77 18.89 11.71
3/28/2021 7:15:00 AM 7.37 45.266 0.033 6.77 30.24 11.7
3/28/2021 7:30:00 AM 7.37 45.266 0.033 6.77 19.2 11.7
3/28/2021 7:45:00 AM 7.38 45.284 0.033 6.78 35.49 11.71
3/28/2021 8:00:00 AM 7.39 45.302 0.033 6.78 24.09 11.71
3/28/2021 8:15:00 AM 7.4 45.32 0.033 6.79 40.27 11.7
3/28/2021 8:30:00 AM 7.41 45.338 0.033 6.79 24 11.71
3/28/2021 8:45:00 AM 7.42 45.356 0.033 6.79 23.14 11.72
3/28/2021 9:00:00 AM 7.43 45.374 0.033 6.8 19.95 11.73
3/28/2021 9:15:00 AM 7.44 45.392 0.033 6.8 20.3 11.73
3/28/2021 9:30:00 AM 7.46 45.428 0.033 6.8 27.97 11.74
3/28/2021 9:45:00 AM 7.48 45.464 0.033 6.81 28.81 11.73
3/28/2021 10:00:00 AM 7.5 45.5 0.033 6.81 29.84 11.72
3/28/2021 10:15:00 AM 7.53 45.554 0.033 6.82 50.52 11.72
3/28/2021 10:30:00 AM 7.56 45.608 0.033 6.82 29.71 11.72
3/28/2021 10:45:00 AM 7.58 45.644 0.033 6.83 42.16 11.72
3/28/2021 11:00:00 AM 7.6 45.68 0.033 6.83 22.2 11.71
3/28/2021 11:15:00 AM 7.63 45.734 0.033 6.84 20.06 11.7
3/28/2021 11:30:00 AM 7.68 45.824 0.034 6.85 19.88 11.69
3/28/2021 11:45:00 AM 7.73 45.914 0.034 6.86 20.28 11.68
3/28/2021 12:00:00 PM 7.79 46.022 0.035 6.87 19.4 11.68
3/28/2021 12:15:00 PM 7.84 46.112 0.035 6.88 19.5 11.65
3/28/2021 12:30:00 PM 7.89 46.202 0.035 6.89 19.28 11.63
3/28/2021 12:45:00 PM 7.94 46.292 0.035 6.9 18.29 11.62
3/28/2021 1:00:00 PM 8.01 46.418 0.036 6.91 18.77 11.62
3/28/2021 1:15:00 PM 8.05 46.49 0.036 6.91 18.1 11.59
3/28/2021 1:30:00 PM 8.13 46.634 0.036 6.92 18.76 11.59
3/28/2021 1:45:00 PM 8.2 46.76 0.036 6.87 18.62 11.57
3/28/2021 2:00:00 PM 8.23 46.814 0.036 6.92 17.97 11.54
3/28/2021 2:15:00 PM 8.27 46.886 0.036 6.93 17.5 11.5
3/28/2021 2:30:00 PM 8.31 46.958 0.036 6.92 19.02 11.48
3/28/2021 2:45:00 PM 8.35 47.03 0.036 6.93 18.25 11.46
3/28/2021 3:00:00 PM 8.38 47.084 0.036 6.92 19.1 11.44
3/28/2021 3:15:00 PM 8.41 47.138 0.036 6.92 19.03 11.42
3/28/2021 3:30:00 PM 8.44 47.192 0.036 6.92 17.84 11.39
3/28/2021 3:45:00 PM 8.47 47.246 0.036 6.91 18.67 11.37
3/28/2021 4:00:00 PM 8.48 47.264 0.036 6.91 19.18 11.36
3/28/2021 4:15:00 PM 8.48 47.264 0.035 6.9 19.86 11.34
3/28/2021 4:30:00 PM 8.49 47.282 0.035 6.9 18.82 11.34
3/28/2021 4:45:00 PM 8.51 47.318 0.035 6.9 19.44 11.33
3/28/2021 5:00:00 PM 8.52 47.336 0.035 6.89 18.87 11.33
3/28/2021 5:15:00 PM 8.57 47.426 0.035 6.89 20.3 11.34
3/28/2021 5:30:00 PM 8.59 47.462 0.035 6.89 21.09 11.34
3/28/2021 5:45:00 PM 8.59 47.462 0.034 6.89 24.73 11.34
3/28/2021 6:00:00 PM 8.57 47.426 0.034 6.89 21.7 11.33
3/28/2021 6:15:00 PM 8.55 47.39 0.034 6.88 21.28 11.33
3/28/2021 6:30:00 PM 8.54 47.372 0.035 6.88 21.13 11.32
3/28/2021 6:45:00 PM 8.54 47.372 0.035 6.88 18.17 11.32
3/28/2021 7:00:00 PM 8.53 47.354 0.035 6.88 22.27 11.32
3/28/2021 7:15:00 PM 8.51 47.318 0.035 6.88 20.17 11.31
3/28/2021 7:30:00 PM 8.49 47.282 0.035 6.87 22.21 11.31
3/28/2021 7:45:00 PM 8.47 47.246 0.035 6.88 20.35 11.31
3/28/2021 8:00:00 PM 8.44 47.192 0.035 6.87 19.14 11.31
3/28/2021 8:15:00 PM 8.4 47.12 0.035 6.87 22.4 11.32
3/28/2021 8:30:00 PM 8.35 47.03 0.035 6.86 21.79 11.33
3/28/2021 8:45:00 PM 8.3 46.94 0.035 6.86 21.44 11.35
3/28/2021 9:00:00 PM 8.26 46.868 0.035 6.86 20.18 11.36
3/28/2021 9:15:00 PM 8.21 46.778 0.035 6.85 24.55 11.38
3/28/2021 9:30:00 PM 8.17 46.706 0.035 6.86 20.66 11.4
3/28/2021 9:45:00 PM 8.11 46.598 0.035 6.85 21.03 11.42
3/28/2021 10:00:00 PM 8.06 46.508 0.034 6.85 19.43 11.43
3/28/2021 10:15:00 PM 8.01 46.418 0.034 6.83 20.67 11.45
3/28/2021 10:30:00 PM 7.95 46.31 0.034 6.84 20.39 11.46
3/28/2021 10:45:00 PM 7.89 46.202 0.034 6.83 22.92 11.49
3/28/2021 11:00:00 PM 7.82 46.076 0.034 6.83 21.94 11.5
3/28/2021 11:15:00 PM 7.76 45.968 0.034 6.83 23.02 11.52
3/28/2021 11:30:00 PM 7.71 45.878 0.034 6.83 23.52 11.55
3/28/2021 11:45:00 PM 7.66 45.788 0.034 6.83 23.46 11.56
3/29/2021 12:00:00 AM 7.62 45.716 0.033 6.82 23.63 11.58
3/29/2021 12:15:00 AM 7.56 45.608 0.033 6.82 21.36 11.6
3/29/2021 12:30:00 AM 7.49 45.482 0.033 6.82 22.51 11.61
3/29/2021 12:45:00 AM 7.43 45.374 0.033 6.82 21.75 11.64
3/29/2021 1:00:00 AM 7.36 45.248 0.033 6.81 21.01 11.66
3/29/2021 1:15:00 AM 7.3 45.14 0.033 6.81 20.49 11.68
3/29/2021 1:30:00 AM 7.25 45.05 0.033 6.81 20.94 11.7
3/29/2021 1:45:00 AM 7.18 44.924 0.033 6.81 20.75 11.71
3/29/2021 2:00:00 AM 7.11 44.798 0.033 6.81 20.24 11.74
3/29/2021 2:15:00 AM 7.03 44.654 0.033 6.81 20.89 11.76
3/29/2021 2:30:00 AM 6.95 44.51 0.033 6.81 19.51 11.79
3/29/2021 2:45:00 AM 6.87 44.366 0.033 6.69 19.32 11.81
3/29/2021 3:00:00 AM 6.82 44.276 0.033 6.8 19.31 11.84
3/29/2021 3:15:00 AM 6.77 44.186 0.033 6.8 20.2 11.86
3/29/2021 3:30:00 AM 6.7 44.06 0.033 6.8 19.5 11.88
3/29/2021 3:45:00 AM 6.64 43.952 0.033 6.8 19.19 11.9
3/29/2021 4:00:00 AM 6.58 43.844 0.033 6.8 19.62 11.93
3/29/2021 4:15:00 AM 6.53 43.754 0.033 6.8 18.97 11.95
3/29/2021 4:30:00 AM 6.47 43.646 0.033 6.8 19.42 11.97
3/29/2021 4:45:00 AM 6.42 43.556 0.033 6.7 17.84 11.98
3/29/2021 5:00:00 AM 6.36 43.448 0.033 6.8 19.16 12
3/29/2021 5:15:00 AM 6.31 43.358 0.033 6.8 19.75 12.02
3/29/2021 5:30:00 AM 6.26 43.268 0.033 6.79 18.08 12.05
3/29/2021 5:45:00 AM 6.2 43.16 0.033 6.79 18.83 12.06
3/29/2021 6:00:00 AM 6.14 43.052 0.033 6.79 19.25 12.08
3/29/2021 6:15:00 AM 6.09 42.962 0.033 6.79 18.47 12.11
3/29/2021 6:30:00 AM 6.03 42.854 0.033 6.79 18.65 12.13
3/29/2021 6:45:00 AM 5.98 42.764 0.033 6.79 20.73 12.15
3/29/2021 7:00:00 AM 5.93 42.674 0.033 6.79 15.92 12.18
3/29/2021 7:15:00 AM 5.88 42.584 0.033 6.79 19.42 12.2
3/29/2021 7:30:00 AM 5.84 42.512 0.033 6.79 18.51 12.23
3/29/2021 7:45:00 AM 5.81 42.458 0.033 6.79 19.47 12.26
3/29/2021 8:00:00 AM 5.78 42.404 0.033 6.79 18.93 12.28
3/29/2021 8:15:00 AM 5.75 42.35 0.033 6.8 18.73 12.31
3/29/2021 8:30:00 AM 5.73 42.314 0.033 6.8 17.2 12.33
3/29/2021 8:45:00 AM 5.72 42.296 0.033 6.8 17.74 12.36
3/29/2021 9:00:00 AM 5.71 42.278 0.033 6.8 17.53 12.37
3/29/2021 9:15:00 AM 5.7 42.26 0.033 6.81 17.47 12.38
3/29/2021 9:30:00 AM 5.68 42.224 0.033 6.81 17.56 12.4
3/29/2021 9:45:00 AM 5.66 42.188 0.033 6.81 17.51 12.41
3/29/2021 10:00:00 AM 5.65 42.17 0.033 6.81 17.15 12.43
3/29/2021 10:15:00 AM 5.65 42.17 0.033 6.81 15.92 12.45
3/29/2021 10:30:00 AM 5.67 42.206 0.033 6.82 16.81 12.47
3/29/2021 10:45:00 AM 5.7 42.26 0.033 6.82 18.52 12.48
3/29/2021 11:00:00 AM 5.73 42.314 0.033 6.82 17.37 12.48
3/29/2021 11:15:00 AM 5.75 42.35 0.033 6.83 16.49 12.49
3/29/2021 11:30:00 AM 5.8 42.44 0.033 6.82 16.98 12.48
3/29/2021 11:45:00 AM 5.86 42.548 0.033 6.83 17.53 12.47
3/29/2021 12:00:00 PM 5.93 42.674 0.033 6.83 16.31 12.46
3/29/2021 12:15:00 PM 6.12 43.016 0.033 6.84 16.09 12.43
3/29/2021 12:30:00 PM 6.27 43.286 0.033 6.83 16.9 12.39
3/29/2021 12:45:00 PM 6.32 43.376 0.033 6.84 16.9 12.37
3/29/2021 1:00:00 PM 6.54 43.772 0.033 6.84 17.21 12.32
3/29/2021 1:15:00 PM 6.76 44.168 0.033 6.84 17.97 12.27
3/29/2021 1:30:00 PM 6.93 44.474 0.033 6.85 17.05 12.23
3/29/2021 1:45:00 PM 7.03 44.654 0.033 6.85 16.89 12.19
3/29/2021 2:00:00 PM 7.19 44.942 0.033 6.85 18.16 12.15
3/29/2021 2:15:00 PM 7.34 45.212 0.033 6.85 16.84 12.1
3/29/2021 2:30:00 PM 7.5 45.5 0.033 6.86 16.05 12.05
3/29/2021 2:45:00 PM 7.62 45.716 0.033 6.85 19.29 12.02
3/29/2021 3:00:00 PM 7.73 45.914 0.033 6.86 15.69 11.97
3/29/2021 3:15:00 PM 7.82 46.076 0.033 6.86 17.5 11.94
3/29/2021 3:30:00 PM 7.91 46.238 0.033 6.86 17.46 11.9
3/29/2021 3:45:00 PM 7.96 46.328 0.033 6.86 17.25 11.88
3/29/2021 4:00:00 PM 8.01 46.418 0.033 6.86 17.87 11.86
3/29/2021 4:15:00 PM 8.05 46.49 0.033 6.86 17.12 11.83
3/29/2021 4:30:00 PM 8.06 46.508 0.033 6.87 15.48 11.81
3/29/2021 4:45:00 PM 8.06 46.508 0.033 6.86 16.17 11.79
3/29/2021 5:00:00 PM 8.06 46.508 0.033 6.86 17.7 11.78
3/29/2021 5:15:00 PM 8.05 46.49 0.033 6.86 16.88 11.78
3/29/2021 5:30:00 PM 8.04 46.472 0.033 6.86 17.86 11.77
3/29/2021 5:45:00 PM 8 46.4 0.033 6.86 16.58 11.75
3/29/2021 6:00:00 PM 7.97 46.346 0.033 6.86 17.9 11.75
3/29/2021 6:15:00 PM 7.93 46.274 0.033 6.85 17.47 11.75
3/29/2021 6:30:00 PM 7.87 46.166 0.033 6.85 17.96 11.76
3/29/2021 6:45:00 PM 7.8 46.04 0.033 6.84 17.9 11.75
3/29/2021 7:00:00 PM 7.72 45.896 0.033 6.84 18.16 11.77
3/29/2021 7:15:00 PM 7.64 45.752 0.033 6.83 18.39 11.77
3/29/2021 7:30:00 PM 7.56 45.608 0.033 6.82 19.5 11.78
3/29/2021 7:45:00 PM 7.47 45.446 0.033 6.82 17.31 11.81
3/29/2021 8:00:00 PM 7.37 45.266 0.033 6.81 17.55 11.82
3/29/2021 8:15:00 PM 7.27 45.086 0.033 6.8 17.18 11.85
3/29/2021 8:30:00 PM 7.17 44.906 0.033 6.8 17.06 11.88
3/29/2021 8:45:00 PM 7.08 44.744 0.033 6.79 18.43 11.9
3/29/2021 9:00:00 PM 6.98 44.564 0.033 6.8 18.16 11.93
3/29/2021 9:15:00 PM 6.89 44.402 0.033 6.79 18.14 11.96
3/29/2021 9:30:00 PM 6.8 44.24 0.033 6.79 18.45 11.99
3/29/2021 9:45:00 PM 6.7 44.06 0.033 6.79 17.63 12.02
3/29/2021 10:00:00 PM 6.61 43.898 0.033 6.79 19.86 12.05
3/29/2021 10:15:00 PM 6.52 43.736 0.033 6.78 18.75 12.08
3/29/2021 10:30:00 PM 6.43 43.574 0.033 6.78 18.06 12.11
3/29/2021 10:45:00 PM 6.34 43.412 0.033 6.78 17.71 12.14
3/29/2021 11:00:00 PM 6.26 43.268 0.033 6.61 18.33 12.17
3/29/2021 11:15:00 PM 6.17 43.106 0.033 6.78 17.07 12.2
3/29/2021 11:30:00 PM 6.09 42.962 0.033 6.77 18.46 12.23
3/29/2021 11:45:00 PM 6.01 42.818 0.033 6.78 18.26 12.25
3/30/2021 12:00:00 AM 5.93 42.674 0.033 6.78 18.02 12.28
3/30/2021 12:15:00 AM 5.86 42.548 0.033 6.78 18.49 12.3
3/30/2021 12:30:00 AM 5.79 42.422 0.033 6.78 17.39 12.32
3/30/2021 12:45:00 AM 5.73 42.314 0.033 6.78 16.2 12.35
3/30/2021 1:00:00 AM 5.66 42.188 0.033 6.77 18.51 12.37
3/30/2021 1:15:00 AM 5.6 42.08 0.033 6.78 17.76 12.39
3/30/2021 1:30:00 AM 5.54 41.972 0.033 6.78 19.42 12.41
3/30/2021 1:45:00 AM 5.48 41.864 0.033 6.77 18.61 12.43
3/30/2021 2:00:00 AM 5.43 41.774 0.033 6.78 18.8 12.44
3/30/2021 2:15:00 AM 5.37 41.666 0.033 6.77 19.02 12.47
3/30/2021 2:30:00 AM 5.32 41.576 0.033 6.78 17.8 12.49
3/30/2021 2:45:00 AM 5.27 41.486 0.033 6.77 19.08 12.5
3/30/2021 3:00:00 AM 5.22 41.396 0.033 6.78 17.05 12.52
3/30/2021 3:15:00 AM 5.18 41.324 0.033 6.77 16.39 12.54
3/30/2021 3:30:00 AM 5.13 41.234 0.033 6.77 18.33 12.55
3/30/2021 3:45:00 AM 5.08 41.144 0.033 6.77 17.44 12.57
3/30/2021 4:00:00 AM 5.04 41.072 0.033 6.77 18.18 12.58
3/30/2021 4:15:00 AM 5 41 0.033 6.77 17.81 12.6
3/30/2021 4:30:00 AM 4.95 40.91 0.033 6.77 18.47 12.62
3/30/2021 4:45:00 AM 4.91 40.838 0.033 6.77 17.45 12.63
3/30/2021 5:00:00 AM 4.86 40.748 0.033 6.77 19.11 12.65
3/30/2021 5:15:00 AM 4.82 40.676 0.033 6.77 18.66 12.67
3/30/2021 5:30:00 AM 4.78 40.604 0.033 6.77 18.83 12.68
3/30/2021 5:45:00 AM 4.73 40.514 0.034 6.77 16.99 12.7
3/30/2021 6:00:00 AM 4.69 40.442 0.033 6.77 20.46 12.71
3/30/2021 6:15:00 AM 4.65 40.37 0.034 6.77 18.65 12.73
3/30/2021 6:30:00 AM 4.61 40.298 0.034 6.77 17.16 12.74
3/30/2021 6:45:00 AM 4.56 40.208 0.034 6.77 16.73 12.77
3/30/2021 7:00:00 AM 4.53 40.154 0.034 6.78 16.89 12.78
3/30/2021 7:15:00 AM 4.49 40.082 0.034 6.78 16.99 12.81
3/30/2021 7:30:00 AM 4.46 40.028 0.034 6.78 17.02 12.84
3/30/2021 7:45:00 AM 4.43 39.974 0.034 6.79 16.72 12.86
3/30/2021 8:00:00 AM 4.4 39.92 0.034 6.79 20.42 12.89
3/30/2021 8:15:00 AM 4.39 39.902 0.034 6.8 19.05 12.92
3/30/2021 8:30:00 AM 4.39 39.902 0.034 6.8 18.54 12.94
3/30/2021 8:45:00 AM 4.4 39.92 0.034 6.8 19.62 12.95
3/30/2021 9:00:00 AM 4.43 39.974 0.034 6.81 18.52 12.96
3/30/2021 9:15:00 AM 4.47 40.046 0.034 6.82 18.71 12.97
3/30/2021 9:30:00 AM 4.54 40.172 0.034 6.82 18.66 12.96
3/30/2021 9:45:00 AM 4.62 40.316 0.034 6.83 16.99 12.95
3/30/2021 10:00:00 AM 4.73 40.514 0.034 6.83 17.73 12.93
3/30/2021 10:15:00 AM 4.86 40.748 0.032 6.66 14.63 12.9
3/30/2021 10:30:00 AM 5.01 41.018 0.034 6.85 17.1 12.87
3/30/2021 10:45:00 AM 5.19 41.342 0.034 6.85 18.71 12.83
3/30/2021 11:00:00 AM 5.38 41.684 0.034 6.86 16.74 12.79
3/30/2021 11:15:00 AM 5.58 42.044 0.034 6.86 19.79 12.73
3/30/2021 11:30:00 AM 5.79 42.422 0.034 6.86 17.61 12.67
3/30/2021 11:45:00 AM 6 42.8 0.034 6.87 16.55 12.62
3/30/2021 12:00:00 PM 6.2 43.16 0.034 6.87 19.92 12.56
3/30/2021 12:15:00 PM 6.4 43.52 0.034 6.87 18.44 12.5
3/30/2021 12:30:00 PM 6.6 43.88 0.034 6.87 17.78 12.45
3/30/2021 12:45:00 PM 6.79 44.222 0.034 6.88 17.25 12.39
3/30/2021 1:00:00 PM 6.98 44.564 0.034 6.88 17.48 12.33
3/30/2021 1:15:00 PM 7.17 44.906 0.034 6.88 17.58 12.27
3/30/2021 1:30:00 PM 7.35 45.23 0.034 6.88 18.25 12.21
3/30/2021 1:45:00 PM 7.54 45.572 0.034 6.89 17.76 12.15
3/30/2021 2:00:00 PM 7.71 45.878 0.034 6.89 16.48 12.1
3/30/2021 2:15:00 PM 7.87 46.166 0.034 6.9 15.72 12.04
3/30/2021 2:30:00 PM 8.04 46.472 0.034 6.9 15.88 11.98
3/30/2021 2:45:00 PM 8.19 46.742 0.034 6.9 15.79 11.93
3/30/2021 3:00:00 PM 8.34 47.012 0.034 6.88 15.7 11.88
3/30/2021 3:15:00 PM 8.47 47.246 0.034 6.83 15.58 11.83
3/30/2021 3:30:00 PM 8.6 47.48 0.034 6.87 19.08 11.77
3/30/2021 3:45:00 PM 8.7 47.66 0.034 6.9 15.21 11.73
3/30/2021 4:00:00 PM 8.8 47.84 0.034 6.9 16.11 11.69
3/30/2021 4:15:00 PM 8.88 47.984 0.034 6.9 16.88 11.65
3/30/2021 4:30:00 PM 8.94 48.092 0.034 6.9 17.4 11.61
3/30/2021 4:45:00 PM 9 48.2 0.034 6.91 17.73 11.58
3/30/2021 5:00:00 PM 9.04 48.272 0.034 6.91 16.24 11.55
3/30/2021 5:15:00 PM 9.07 48.326 0.034 6.91 18.67 11.53
3/30/2021 5:30:00 PM 9.06 48.308 0.034 6.9 17.28 11.5
3/30/2021 5:45:00 PM 9.05 48.29 0.034 6.91 17.32 11.48
3/30/2021 6:00:00 PM 9.05 48.29 0.034 6.9 15.52 11.48
3/30/2021 6:15:00 PM 9.04 48.272 0.034 6.9 16.78 11.45
3/30/2021 6:30:00 PM 8.99 48.182 0.034 6.9 18.02 11.44
3/30/2021 6:45:00 PM 8.95 48.11 0.034 6.89 17.17 11.44
3/30/2021 7:00:00 PM 8.91 48.038 0.034 6.88 17.38 11.43
3/30/2021 7:15:00 PM 8.86 47.948 0.034 6.87 16.97 11.41
3/30/2021 7:30:00 PM 8.79 47.822 0.034 6.87 17.01 11.41
3/30/2021 7:45:00 PM 8.72 47.696 0.034 6.86 16.52 11.42
3/30/2021 8:00:00 PM 8.64 47.552 0.034 6.86 17.32 11.43
3/30/2021 8:15:00 PM 8.56 47.408 0.034 6.85 15.94 11.44
3/30/2021 8:30:00 PM 8.48 47.264 0.034 6.85 16.92 11.46
3/30/2021 8:45:00 PM 8.41 47.138 0.034 6.84 17.19 11.48
3/30/2021 9:00:00 PM 8.34 47.012 0.034 6.84 17.66 11.49
3/30/2021 9:15:00 PM 8.27 46.886 0.034 6.84 15.94 11.52
3/30/2021 9:30:00 PM 8.2 46.76 0.034 6.84 16.54 11.53
3/30/2021 9:45:00 PM 8.13 46.634 0.034 6.84 19.59 11.56
3/30/2021 10:00:00 PM 8.07 46.526 0.034 6.84 17.8 11.58
3/30/2021 10:15:00 PM 8 46.4 0.034 6.83 17.27 11.59
3/30/2021 10:30:00 PM 7.94 46.292 0.034 6.84 17.61 11.63
3/30/2021 10:45:00 PM 7.88 46.184 0.034 6.83 17.35 11.64
3/30/2021 11:00:00 PM 7.82 46.076 0.034 6.83 17.01 11.66
3/30/2021 11:15:00 PM 7.76 45.968 0.034 6.83 17.97 11.68
3/30/2021 11:30:00 PM 7.7 45.86 0.034 6.83 17.72 11.69
3/30/2021 11:45:00 PM 7.65 45.77 0.034 6.83 17.65 11.72
3/31/2021 12:00:00 AM 7.6 45.68 0.034 6.83 17.65 11.72
3/31/2021 12:15:00 AM 7.56 45.608 0.034 6.83 18.21 11.74
3/31/2021 12:30:00 AM 7.51 45.518 0.034 6.83 17.4 11.75
3/31/2021 12:45:00 AM 7.47 45.446 0.034 6.8 17.27 11.76
3/31/2021 1:00:00 AM 7.42 45.356 0.034 6.83 16.25 11.77
3/31/2021 1:15:00 AM 7.38 45.284 0.034 6.83 16.01 11.79
3/31/2021 1:30:00 AM 7.34 45.212 0.034 6.83 16.59 11.8
3/31/2021 1:45:00 AM 7.3 45.14 0.034 6.83 17.46 11.81
3/31/2021 2:00:00 AM 7.26 45.068 0.034 6.82 19.07 11.82
3/31/2021 2:15:00 AM 7.21 44.978 0.034 6.82 17.42 11.83
3/31/2021 2:30:00 AM 7.17 44.906 0.034 6.82 15.81 11.84
3/31/2021 2:45:00 AM 7.13 44.834 0.034 6.82 18.4 11.86
3/31/2021 3:00:00 AM 7.09 44.762 0.034 6.82 17.51 11.86
3/31/2021 3:15:00 AM 7.06 44.708 0.035 6.82 17.09 11.87
3/31/2021 3:30:00 AM 7.02 44.636 0.035 6.82 20.93 11.88
3/31/2021 3:45:00 AM 6.99 44.582 0.035 6.82 16.86 11.88
3/31/2021 4:00:00 AM 6.97 44.546 0.035 6.82 15.69 11.89
3/31/2021 4:15:00 AM 6.95 44.51 0.035 6.82 17.11 11.9
3/31/2021 4:30:00 AM 6.93 44.474 0.035 6.82 19.18 11.9
3/31/2021 4:45:00 AM 6.91 44.438 0.035 6.82 19.93 11.9
3/31/2021 5:00:00 AM 6.89 44.402 0.035 6.82 17.89 11.91
3/31/2021 5:15:00 AM 6.88 44.384 0.035 6.82 18.55 11.91
3/31/2021 5:30:00 AM 6.86 44.348 0.035 6.82 17.77 11.92
3/31/2021 5:45:00 AM 6.84 44.312 0.035 6.82 18.49 11.92
3/31/2021 6:00:00 AM 6.81 44.258 0.035 6.82 16.91 11.93
3/31/2021 6:15:00 AM 6.79 44.222 0.035 6.82 18.41 11.93
3/31/2021 6:30:00 AM 6.77 44.186 0.035 6.82 18.44 11.94
3/31/2021 6:45:00 AM 6.75 44.15 0.035 6.82 17.58 11.95
3/31/2021 7:00:00 AM 6.74 44.132 0.035 6.82 17.54 11.95
3/31/2021 7:15:00 AM 6.72 44.096 0.035 6.82 18.24 11.97
3/31/2021 7:30:00 AM 6.71 44.078 0.035 6.83 17.01 11.99
3/31/2021 7:45:00 AM 6.71 44.078 0.035 6.83 16.65 12.01
3/31/2021 8:00:00 AM 6.7 44.06 0.035 6.84 15.78 12.03
3/31/2021 8:15:00 AM 6.71 44.078 0.035 6.84 15.94 12.06
3/31/2021 8:30:00 AM 6.72 44.096 0.035 6.85 14.85 12.07
3/31/2021 8:45:00 AM 6.75 44.15 0.035 6.86 14.73 12.09
3/31/2021 9:00:00 AM 6.78 44.204 0.035 6.87 16.56 12.11
3/31/2021 9:15:00 AM 6.82 44.276 0.035 6.87 15.11 12.12
3/31/2021 9:30:00 AM 6.86 44.348 0.035 6.88 14.99 12.12
3/31/2021 9:45:00 AM 6.91 44.438 0.035 6.89 14.37 12.11
3/31/2021 10:00:00 AM 6.98 44.564 0.035 6.89 15.77 12.11
3/31/2021 10:15:00 AM 7.07 44.726 0.035 6.9 17.09 12.09
3/31/2021 10:30:00 AM 7.17 44.906 0.035 6.91 15.81 12.07
3/31/2021 10:45:00 AM 7.25 45.05 0.035 6.91 14.6 12.05
3/31/2021 11:00:00 AM 7.32 45.176 0.035 6.91 14.74 12.03
3/31/2021 11:15:00 AM 7.39 45.302 0.035 6.9 14.33 12
3/31/2021 11:30:00 AM 7.43 45.374 0.035 6.91 15.76 11.98
3/31/2021 11:45:00 AM 7.48 45.464 0.035 6.92 15.15 11.97
3/31/2021 12:00:00 PM 7.53 45.554 0.035 6.92 14.73 11.95
3/31/2021 12:15:00 PM 7.59 45.662 0.035 6.92 15.55 11.93
3/31/2021 12:30:00 PM 7.62 45.716 0.035 6.92 15.3 11.92
3/31/2021 12:45:00 PM 7.66 45.788 0.035 6.92 15.2 11.9
3/31/2021 1:00:00 PM 7.69 45.842 0.035 6.92 14.37 11.89
3/31/2021 1:15:00 PM 7.74 45.932 0.035 6.9 15.41 11.87
3/31/2021 1:30:00 PM 7.82 46.076 0.035 6.93 14.85 11.86
3/31/2021 1:45:00 PM 7.87 46.166 0.035 6.93 14.33 11.84
3/31/2021 2:00:00 PM 7.93 46.274 0.035 6.93 15.37 11.81
3/31/2021 2:15:00 PM 7.98 46.364 0.035 6.93 14.46 11.77
3/31/2021 2:30:00 PM 8.04 46.472 0.035 6.93 14.58 11.74
3/31/2021 2:45:00 PM 8.08 46.544 0.035 6.93 14.11 11.71
3/31/2021 3:00:00 PM 8.1 46.58 0.035 6.92 14.63 11.68
3/31/2021 3:15:00 PM 8.12 46.616 0.035 6.92 14.84 11.67
3/31/2021 3:30:00 PM 8.15 46.67 0.035 6.92 16.03 11.65
3/31/2021 3:45:00 PM 8.17 46.706 0.035 6.9 16.28 11.64
3/31/2021 4:00:00 PM 8.19 46.742 0.035 6.92 14.55 11.63
3/31/2021 4:15:00 PM 8.2 46.76 0.035 6.91 14.56 11.61
3/31/2021 4:30:00 PM 8.2 46.76 0.035 6.91 15.69 11.59
3/31/2021 4:45:00 PM 8.21 46.778 0.035 6.91 15.63 11.58
3/31/2021 5:00:00 PM 8.21 46.778 0.035 6.9 15.21 11.58
3/31/2021 5:15:00 PM 8.21 46.778 0.035 6.9 15.46 11.56
3/31/2021 5:30:00 PM 8.21 46.778 0.035 6.89 15.33 11.55
3/31/2021 5:45:00 PM 8.2 46.76 0.035 6.89 15.44 11.55
3/31/2021 6:00:00 PM 8.19 46.742 0.035 6.89 15.16 11.54
3/31/2021 6:15:00 PM 8.19 46.742 0.035 6.88 15.35 11.53
3/31/2021 6:30:00 PM 8.17 46.706 0.035 6.88 16.1 11.52
3/31/2021 6:45:00 PM 8.15 46.67 0.035 6.87 15.36 11.52
3/31/2021 7:00:00 PM 8.14 46.652 0.035 6.86 15.75 11.51
3/31/2021 7:15:00 PM 8.12 46.616 0.035 6.85 15.94 11.5
3/31/2021 7:30:00 PM 8.11 46.598 0.035 6.85 17.32 11.5
3/31/2021 7:45:00 PM 8.1 46.58 0.035 6.84 15.08 11.49
3/31/2021 8:00:00 PM 8.09 46.562 0.035 6.84 15.18 11.49
3/31/2021 8:15:00 PM 8.08 46.544 0.035 6.83 15.45 11.49
3/31/2021 8:30:00 PM 8.07 46.526 0.036 6.83 16.3 11.48
3/31/2021 8:45:00 PM 8.07 46.526 0.036 6.84 16.12 11.49
3/31/2021 9:00:00 PM 8.05 46.49 0.036 6.85 16.73 11.49
3/31/2021 9:15:00 PM 8.03 46.454 0.036 6.86 17.04 11.5
3/31/2021 9:30:00 PM 8 46.4 0.036 6.86 17.31 11.52
3/31/2021 9:45:00 PM 7.97 46.346 0.036 6.87 16.09 11.53
3/31/2021 10:00:00 PM 7.94 46.292 0.036 6.87 16.17 11.54
3/31/2021 10:15:00 PM 7.9 46.22 0.036 6.88 15.51 11.54
3/31/2021 10:30:00 PM 7.87 46.166 0.036 6.88 17.23 11.57
3/31/2021 10:45:00 PM 7.83 46.094 0.036 6.88 15.47 11.58
3/31/2021 11:00:00 PM 7.79 46.022 0.036 6.88 16.44 11.59
3/31/2021 11:15:00 PM 7.75 45.95 0.036 6.88 16.87 11.6
3/31/2021 11:30:00 PM 7.71 45.878 0.036 6.88 15.75 11.61
3/31/2021 11:45:00 PM 7.67 45.806 0.036 6.88 16.01 11.63
4/1/2021 12:00:00 AM 7.63 45.734 0.036 6.88 15.59 11.64
4/1/2021 12:15:00 AM 7.59 45.662 0.036 6.89 16.39 11.66
4/1/2021 12:30:00 AM 7.55 45.59 0.036 6.88 15.85 11.66
4/1/2021 12:45:00 AM 7.51 45.518 0.036 6.89 15.42 11.67
4/1/2021 1:00:00 AM 7.47 45.446 0.036 6.88 16 11.68
4/1/2021 1:15:00 AM 7.44 45.392 0.036 6.89 15.52 11.7
4/1/2021 1:30:00 AM 7.41 45.338 0.036 6.88 15.43 11.71
4/1/2021 1:45:00 AM 7.38 45.284 0.036 6.88 15.97 11.71
4/1/2021 2:00:00 AM 7.34 45.212 0.036 6.88 17.27 11.72
4/1/2021 2:15:00 AM 7.3 45.14 0.036 6.88 16.63 11.73
4/1/2021 2:30:00 AM 7.26 45.068 0.036 6.88 17.69 11.74
4/1/2021 2:45:00 AM 7.22 44.996 0.036 6.88 16.2 11.76
4/1/2021 3:00:00 AM 7.17 44.906 0.036 6.87 16.88 11.77
4/1/2021 3:15:00 AM 7.12 44.816 0.036 6.88 15.58 11.79
4/1/2021 3:30:00 AM 7.07 44.726 0.036 6.87 15.91 11.79
4/1/2021 3:45:00 AM 7.04 44.672 0.036 6.87 16.42 11.8
4/1/2021 4:00:00 AM 7 44.6 0.036 6.87 16.43 11.81
4/1/2021 4:15:00 AM 6.94 44.492 0.036 6.87 17.16 11.83
4/1/2021 4:30:00 AM 6.86 44.348 0.036 6.87 15.98 11.85
4/1/2021 4:45:00 AM 6.76 44.168 0.036 6.88 18.26 11.87
4/1/2021 5:00:00 AM 6.65 43.97 0.036 6.88 16.78 11.9
4/1/2021 5:15:00 AM 6.57 43.826 0.036 6.88 16.22 11.92
4/1/2021 5:30:00 AM 6.5 43.7 0.036 6.88 16.6 11.95
4/1/2021 5:45:00 AM 6.41 43.538 0.036 6.88 17.25 11.98
4/1/2021 6:00:00 AM 6.32 43.376 0.036 6.88 14.99 12.01
4/1/2021 6:15:00 AM 6.2 43.16 0.036 6.71 16.2 12.03
4/1/2021 6:30:00 AM 6.11 42.998 0.036 6.88 16.42 12.06
4/1/2021 6:45:00 AM 6.01 42.818 0.037 6.88 16.63 12.08
4/1/2021 7:00:00 AM 5.93 42.674 0.037 6.88 16.51 12.12
4/1/2021 7:15:00 AM 5.88 42.584 0.037 6.89 15.67 12.16
4/1/2021 7:30:00 AM 5.82 42.476 0.037 6.88 15.89 12.18
4/1/2021 7:45:00 AM 5.78 42.404 0.037 6.72 17.11 12.22
4/1/2021 8:00:00 AM 5.73 42.314 0.037 6.89 17.68 12.27
4/1/2021 8:15:00 AM 5.69 42.242 0.037 6.9 15.54 12.31
4/1/2021 8:30:00 AM 5.66 42.188 0.038 6.91 16.15 12.35
4/1/2021 8:45:00 AM 5.63 42.134 0.038 6.91 15.88 12.39
4/1/2021 9:00:00 AM 5.6 42.08 0.038 6.92 17.5 12.42
4/1/2021 9:15:00 AM 5.58 42.044 0.038 6.92 18.54 12.45
4/1/2021 9:30:00 AM 5.58 42.044 0.038 6.92 17.12 12.46
4/1/2021 9:45:00 AM 5.57 42.026 0.037 6.93 16.9 12.48
4/1/2021 10:00:00 AM 5.61 42.098 0.037 6.93 17.86 12.49
4/1/2021 10:15:00 AM 5.63 42.134 0.037 6.94 17.41 12.49
4/1/2021 10:30:00 AM 5.68 42.224 0.037 6.94 16.24 12.49
4/1/2021 10:45:00 AM 5.74 42.332 0.037 6.94 16.15 12.49
4/1/2021 11:00:00 AM 5.79 42.422 0.037 6.95 16.83 12.48
4/1/2021 11:15:00 AM 5.85 42.53 0.037 6.95 17.57 12.47
4/1/2021 11:30:00 AM 5.89 42.602 0.037 6.95 16.92 12.46
4/1/2021 11:45:00 AM 5.96 42.728 0.037 6.95 16.33 12.44
4/1/2021 12:00:00 PM 6.1 42.98 0.037 6.95 18.06 12.43
4/1/2021 12:15:00 PM 6.17 43.106 0.037 6.93 17.68 12.4
4/1/2021 12:30:00 PM 6.27 43.286 0.037 6.95 17.79 12.37
4/1/2021 12:45:00 PM 6.54 43.772 0.037 6.96 17.5 12.33
4/1/2021 1:00:00 PM 6.7 44.06 0.037 6.96 16.57 12.25
4/1/2021 1:15:00 PM 6.74 44.132 0.037 6.97 14.88 12.25
4/1/2021 1:30:00 PM 6.77 44.186 0.037 6.96 17.41 12.24
4/1/2021 1:45:00 PM 6.62 43.916 0.037 6.96 16.03 12.25
4/1/2021 2:00:00 PM 6.6 43.88 0.037 6.96 16.39 12.28
4/1/2021 2:15:00 PM 6.61 43.898 0.037 6.97 15.03 12.27
4/1/2021 2:30:00 PM 6.6 43.88 0.037 6.96 16.19 12.25
4/1/2021 2:45:00 PM 6.56 43.808 0.037 6.97 17.6 12.24
4/1/2021 3:00:00 PM 6.63 43.934 0.037 6.97 15.25 12.21
4/1/2021 3:15:00 PM 6.7 44.06 0.037 6.97 17.12 12.2
4/1/2021 3:30:00 PM 6.7 44.06 0.037 6.97 15.5 12.18
4/1/2021 3:45:00 PM 6.81 44.258 0.037 6.97 17.61 12.17
4/1/2021 4:00:00 PM 6.84 44.312 0.037 6.97 18.74 12.15
4/1/2021 4:15:00 PM 6.92 44.456 0.037 6.97 17.64 12.13
4/1/2021 4:30:00 PM 6.89 44.402 0.037 6.97 16.8 12.11
4/1/2021 4:45:00 PM 6.88 44.384 0.037 6.97 15.3 12.11
4/1/2021 5:00:00 PM 6.84 44.312 0.037 6.97 17.12 12.12
4/1/2021 5:15:00 PM 6.78 44.204 0.037 6.97 15.93 12.13
4/1/2021 5:30:00 PM 6.76 44.168 0.037 6.95 16.02 12.13
4/1/2021 5:45:00 PM 6.72 44.096 0.037 6.96 17.43 12.14
4/1/2021 6:00:00 PM 6.62 43.916 0.037 6.95 16.54 12.14
4/1/2021 6:15:00 PM 6.57 43.826 0.037 6.95 17.54 12.15
4/1/2021 6:30:00 PM 6.52 43.736 0.036 6.95 15.64 12.15
4/1/2021 6:45:00 PM 6.45 43.61 0.036 6.94 15.69 12.14
4/1/2021 7:00:00 PM 6.35 43.43 0.036 6.92 18.32 12.14
4/1/2021 7:15:00 PM 6.28 43.304 0.036 6.91 16.05 12.14
4/1/2021 7:30:00 PM 6.23 43.214 0.036 6.9 17.53 12.14
4/1/2021 7:45:00 PM 6.18 43.124 0.036 6.9 15.54 12.13
4/1/2021 8:00:00 PM 6.12 43.016 0.036 6.89 15.89 12.14
4/1/2021 8:15:00 PM 6.05 42.89 0.036 6.88 16.39 12.16
4/1/2021 8:30:00 PM 5.99 42.782 0.036 6.88 18.03 12.17
4/1/2021 8:45:00 PM 5.92 42.656 0.036 6.88 17.05 12.19
4/1/2021 9:00:00 PM 5.84 42.512 0.036 6.87 15.73 12.21
4/1/2021 9:15:00 PM 5.78 42.404 0.036 6.87 17.28 12.24
4/1/2021 9:30:00 PM 5.71 42.278 0.036 6.87 17.88 12.27
4/1/2021 9:45:00 PM 5.63 42.134 0.036 6.87 17.19 12.29
4/1/2021 10:00:00 PM 5.55 41.99 0.036 6.86 17.45 12.32
4/1/2021 10:15:00 PM 5.46 41.828 0.036 6.86 16.21 12.35
4/1/2021 10:30:00 PM 5.36 41.648 0.036 6.86 15.3 12.38
4/1/2021 10:45:00 PM 5.26 41.468 0.036 6.86 18.66 12.42
4/1/2021 11:00:00 PM 5.16 41.288 0.036 6.86 19.11 12.45
4/1/2021 11:15:00 PM 5.06 41.108 0.036 6.86 19 12.49
4/1/2021 11:30:00 PM 4.97 40.946 0.036 6.86 18.26 12.52
4/1/2021 11:45:00 PM 4.89 40.802 0.034 6.81 14.61 12.55
4/2/2021 12:00:00 AM 4.82 40.676 0.036 6.86 17.39 12.58
4/2/2021 12:15:00 AM 4.76 40.568 0.036 6.85 17.75 12.6
4/2/2021 12:30:00 AM 4.7 40.46 0.036 6.85 17.32 12.62
4/2/2021 12:45:00 AM 4.62 40.316 0.036 6.85 15.01 12.65
4/2/2021 1:00:00 AM 4.55 40.19 0.036 6.85 19.47 12.67
4/2/2021 1:15:00 AM 4.48 40.064 0.036 6.84 18.73 12.69
4/2/2021 1:30:00 AM 4.38 39.884 0.036 6.85 14.89 12.72
4/2/2021 1:45:00 AM 4.3 39.74 0.036 6.85 16.27 12.74
4/2/2021 2:00:00 AM 4.24 39.632 0.036 6.85 17.83 12.77
4/2/2021 2:15:00 AM 4.17 39.506 0.036 6.85 18.45 12.8
4/2/2021 2:30:00 AM 4.1 39.38 0.036 6.85 16.63 12.83
4/2/2021 2:45:00 AM 4.03 39.254 0.034 6.8 15.7 12.86
4/2/2021 3:00:00 AM 3.96 39.128 0.036 6.85 15.85 12.88
4/2/2021 3:15:00 AM 3.88 38.984 0.036 6.85 17.69 12.91
4/2/2021 3:30:00 AM 3.81 38.858 0.036 6.85 16.5 12.93
4/2/2021 3:45:00 AM 3.73 38.714 0.036 6.85 20.51 12.96
4/2/2021 4:00:00 AM 3.66 38.588 0.036 6.85 18.42 12.99
4/2/2021 4:15:00 AM 3.59 38.462 0.036 6.85 18.83 13.02
4/2/2021 4:30:00 AM 3.53 38.354 0.036 6.85 17.03 13.04
4/2/2021 4:45:00 AM 3.48 38.264 0.036 6.85 15.96 13.06
4/2/2021 5:00:00 AM 3.44 38.192 0.036 6.85 14.72 13.08
4/2/2021 5:15:00 AM 3.38 38.084 0.036 6.85 17.44 13.11
4/2/2021 5:30:00 AM 3.31 37.958 0.036 6.84 14.36 13.13
4/2/2021 5:45:00 AM 3.26 37.868 0.036 6.85 18.21 13.15
4/2/2021 6:00:00 AM 3.2 37.76 0.036 6.83 17.62 13.17
4/2/2021 6:15:00 AM 3.15 37.67 0.036 6.84 17.34 13.2
4/2/2021 6:30:00 AM 3.1 37.58 0.036 6.84 15.6 13.22
4/2/2021 6:45:00 AM 3.05 37.49 0.036 6.84 18.23 13.24
4/2/2021 7:00:00 AM 3.01 37.418 0.036 6.85 19.86 13.26
4/2/2021 7:15:00 AM 2.98 37.364 0.036 6.85 18.21 13.3
4/2/2021 7:30:00 AM 2.95 37.31 0.036 6.86 18.59 13.33
4/2/2021 7:45:00 AM 2.93 37.274 0.035 6.8 16.29 13.37
4/2/2021 8:00:00 AM 2.91 37.238 0.036 6.87 14.6 13.41
4/2/2021 8:15:00 AM 2.89 37.202 0.036 6.87 17.58 13.44
4/2/2021 8:30:00 AM 2.9 37.22 0.036 6.88 14.6 13.47
4/2/2021 8:45:00 AM 2.91 37.238 0.036 6.88 17.29 13.48
4/2/2021 9:00:00 AM 2.9 37.22 0.036 6.89 17.69 13.5
4/2/2021 9:15:00 AM 2.93 37.274 0.036 6.89 17.41 13.51
4/2/2021 9:30:00 AM 2.96 37.328 0.035 6.84 16.91 13.52
4/2/2021 9:45:00 AM 3.01 37.418 0.036 6.9 18.17 13.51
4/2/2021 10:00:00 AM 3.08 37.544 0.036 6.91 18.29 13.5
4/2/2021 10:15:00 AM 3.14 37.652 0.036 6.9 17.9 13.48
4/2/2021 10:30:00 AM 3.23 37.814 0.036 6.91 16.63 13.47
4/2/2021 10:45:00 AM 3.38 38.084 0.036 6.91 17.43 13.44
4/2/2021 11:00:00 AM 3.54 38.372 0.036 6.91 13.87 13.41
4/2/2021 11:15:00 AM 3.71 38.678 0.036 6.91 14.03 13.36
4/2/2021 11:30:00 AM 3.87 38.966 0.036 6.91 17.52 13.31
4/2/2021 11:45:00 AM 4 39.2 0.036 6.92 17.22 13.26
4/2/2021 12:00:00 PM 4.2 39.56 0.036 6.89 17.38 13.21
4/2/2021 12:15:00 PM 4.37 39.866 0.036 6.92 16.14 13.16
4/2/2021 12:30:00 PM 4.5 40.1 0.036 6.93 17.99 13.11
4/2/2021 12:45:00 PM 4.69 40.442 0.036 6.93 17.49 13.06
4/2/2021 1:00:00 PM 4.86 40.748 0.036 6.93 17.66 13.01
4/2/2021 1:15:00 PM 4.95 40.91 0.036 6.93 17.97 12.96
4/2/2021 1:30:00 PM 5.11 41.198 0.036 6.94 18.1 12.92
4/2/2021 1:45:00 PM 5.18 41.324 0.036 6.94 18.85 12.89
4/2/2021 2:00:00 PM 5.27 41.486 0.036 6.94 20.16 12.85
4/2/2021 2:15:00 PM 5.43 41.774 0.036 6.94 21.99 12.81
4/2/2021 2:30:00 PM 5.57 42.026 0.036 6.94 20.94 12.76
4/2/2021 2:45:00 PM 5.67 42.206 0.036 6.95 19.91 12.72
4/2/2021 3:00:00 PM 5.74 42.332 0.036 6.95 18.4 12.68
4/2/2021 3:15:00 PM 5.8 42.44 0.036 6.95 18.13 12.65
4/2/2021 3:30:00 PM 5.83 42.494 0.036 6.95 15.9 12.63
4/2/2021 3:45:00 PM 5.87 42.566 0.036 6.95 18.67 12.6
4/2/2021 4:00:00 PM 5.87 42.566 0.036 6.95 19.01 12.58
4/2/2021 4:15:00 PM 5.89 42.602 0.036 6.95 22.85 12.56
4/2/2021 4:30:00 PM 5.89 42.602 0.036 6.95 20.15 12.54
4/2/2021 4:45:00 PM 5.86 42.548 0.036 6.96 19.62 12.53
4/2/2021 5:00:00 PM 5.85 42.53 0.037 6.96 20.71 12.51
4/2/2021 5:15:00 PM 5.81 42.458 0.036 6.95 20.28 12.5
4/2/2021 5:30:00 PM 5.77 42.386 0.037 6.95 20.52 12.5
4/2/2021 5:45:00 PM 5.71 42.278 0.037 6.95 14.26 12.51
4/2/2021 6:00:00 PM 5.65 42.17 0.037 6.95 22.27 12.5
4/2/2021 6:15:00 PM 5.59 42.062 0.037 6.95 19.23 12.5
4/2/2021 6:30:00 PM 5.51 41.918 0.037 6.94 19.12 12.5
4/2/2021 6:45:00 PM 5.45 41.81 0.037 6.93 14.74 12.51
4/2/2021 7:00:00 PM 5.39 41.702 0.037 6.93 16.26 12.51
4/2/2021 7:15:00 PM 5.32 41.576 0.037 6.92 18.28 12.52
4/2/2021 7:30:00 PM 5.25 41.45 0.037 6.91 19.18 12.52
4/2/2021 7:45:00 PM 5.16 41.288 0.037 6.91 20.06 12.52
4/2/2021 8:00:00 PM 5.08 41.144 0.037 6.9 19.6 12.54
4/2/2021 8:15:00 PM 5 41 0.037 6.9 18.01 12.58
4/2/2021 8:30:00 PM 4.9 40.82 0.037 6.89 18.82 12.6
4/2/2021 8:45:00 PM 4.83 40.694 0.037 6.89 17.79 12.62
4/2/2021 9:00:00 PM 4.73 40.514 0.037 6.88 18.21 12.66
4/2/2021 9:15:00 PM 4.65 40.37 0.037 6.88 18.16 12.69
4/2/2021 9:30:00 PM 4.56 40.208 0.037 6.88 19.17 12.71
4/2/2021 9:45:00 PM 4.47 40.046 0.037 6.88 17.62 12.75
4/2/2021 10:00:00 PM 4.4 39.92 0.037 6.88 14.32 12.78
4/2/2021 10:15:00 PM 4.32 39.776 0.037 6.87 14.27 12.8
4/2/2021 10:30:00 PM 4.24 39.632 0.037 6.87 16.95 12.84
4/2/2021 10:45:00 PM 4.17 39.506 0.037 6.86 18.05 12.86
4/2/2021 11:00:00 PM 4.09 39.362 0.037 6.87 17.96 12.88
4/2/2021 11:15:00 PM 4.01 39.218 0.037 6.87 19.44 12.91
4/2/2021 11:30:00 PM 3.93 39.074 0.037 6.86 19.4 12.95
4/2/2021 11:45:00 PM 3.86 38.948 0.037 6.86 18.05 12.97
4/3/2021 12:00:00 AM 3.78 38.804 0.037 6.86 17.97 13
4/3/2021 12:15:00 AM 3.71 38.678 0.037 6.86 15.92 13.03
4/3/2021 12:30:00 AM 3.64 38.552 0.037 6.77 18.69 13.05
4/3/2021 12:45:00 AM 3.57 38.426 0.037 6.86 18.35 13.08
4/3/2021 1:00:00 AM 3.5 38.3 0.037 6.85 20.08 13.1
4/3/2021 1:15:00 AM 3.44 38.192 0.035 6.81 17.41 13.13
4/3/2021 1:30:00 AM 3.37 38.066 0.037 6.78 19.44 13.16
4/3/2021 1:45:00 AM 3.3 37.94 0.037 6.85 19.49 13.18
4/3/2021 2:00:00 AM 3.24 37.832 0.037 6.85 19.54 13.2
4/3/2021 2:15:00 AM 3.17 37.706 0.037 6.85 15.31 13.23
4/3/2021 2:30:00 AM 3.12 37.616 0.037 6.85 17.48 13.25
4/3/2021 2:45:00 AM 3.06 37.508 0.037 6.84 14.44 13.27
4/3/2021 3:00:00 AM 3.01 37.418 0.037 6.85 16.55 13.29
4/3/2021 3:15:00 AM 2.95 37.31 0.037 6.85 16.2 13.32
4/3/2021 3:30:00 AM 2.9 37.22 0.037 6.85 16.87 13.33
4/3/2021 3:45:00 AM 2.85 37.13 0.037 6.85 17.13 13.35
4/3/2021 4:00:00 AM 2.8 37.04 0.037 6.85 14.99 13.37
4/3/2021 4:15:00 AM 2.75 36.95 0.037 6.85 14.57 13.39
4/3/2021 4:30:00 AM 2.7 36.86 0.036 6.66 15.2 13.41
4/3/2021 4:45:00 AM 2.66 36.788 0.035 6.83 20.02 13.43
4/3/2021 5:00:00 AM 2.61 36.698 0.037 6.85 13.83 13.44
4/3/2021 5:15:00 AM 2.57 36.626 0.037 6.85 14.36 13.46
4/3/2021 5:30:00 AM 2.54 36.572 0.035 6.8 14.87 13.48
4/3/2021 5:45:00 AM 2.49 36.482 0.037 6.85 15.36 13.49
4/3/2021 6:00:00 AM 2.46 36.428 0.037 6.85 15.38 13.5
4/3/2021 6:15:00 AM 2.42 36.356 0.037 6.85 16.28 13.52
4/3/2021 6:30:00 AM 2.38 36.284 0.037 6.85 15.73 13.54
4/3/2021 6:45:00 AM 2.34 36.212 0.035 6.79 14.4 13.56
4/3/2021 7:00:00 AM 2.31 36.158 0.037 6.85 16.48 13.58
4/3/2021 7:15:00 AM 2.29 36.122 0.037 6.85 15.99 13.62
4/3/2021 7:30:00 AM 2.27 36.086 0.037 6.85 14.93 13.65
4/3/2021 7:45:00 AM 2.26 36.068 0.037 6.81 16.19 13.69
4/3/2021 8:00:00 AM 2.25 36.05 0.037 6.87 15.09 13.72
4/3/2021 8:15:00 AM 2.26 36.068 0.037 6.87 15.72 13.75
4/3/2021 8:30:00 AM 2.28 36.104 0.037 6.88 15.44 13.76
4/3/2021 8:45:00 AM 2.32 36.176 0.037 6.88 17.58 13.77
4/3/2021 9:00:00 AM 2.37 36.266 0.035 6.83 14.61 13.77
4/3/2021 9:15:00 AM 2.43 36.374 0.035 6.85 15.43 13.77
4/3/2021 9:30:00 AM 2.51 36.518 0.037 6.9 17.02 13.76
4/3/2021 9:45:00 AM 2.61 36.698 0.037 6.89 16.19 13.74
4/3/2021 10:00:00 AM 2.71 36.878 0.037 6.91 15.52 13.72
4/3/2021 10:15:00 AM 2.84 37.112 0.037 6.92 14.42 13.69
4/3/2021 10:30:00 AM 3 37.4 0.037 6.92 15.76 13.66
4/3/2021 10:45:00 AM 3.17 37.706 0.037 6.8 15.59 13.61
4/3/2021 11:00:00 AM 3.37 38.066 0.037 6.93 16.14 13.55
4/3/2021 11:15:00 AM 3.59 38.462 0.037 6.8 15.21 13.49
4/3/2021 11:30:00 AM 3.81 38.858 0.037 6.93 13.77 13.43
4/3/2021 11:45:00 AM 4.03 39.254 0.037 6.93 14.91 13.35
4/3/2021 12:00:00 PM 4.25 39.65 0.035 6.89 14.88 13.29
4/3/2021 12:15:00 PM 4.46 40.028 0.037 6.94 14.7 13.22
4/3/2021 12:30:00 PM 4.67 40.406 0.037 6.94 18.28 13.15
4/3/2021 12:45:00 PM 4.88 40.784 0.037 6.95 13.64 13.09
4/3/2021 1:00:00 PM 5.08 41.144 0.037 6.95 16.89 13.03
4/3/2021 1:15:00 PM 5.26 41.468 0.037 6.95 14.23 12.97
4/3/2021 1:30:00 PM 5.45 41.81 0.037 6.93 15.54 12.89
4/3/2021 1:45:00 PM 5.63 42.134 0.037 6.96 14.57 12.83
4/3/2021 2:00:00 PM 5.79 42.422 0.037 6.96 14.74 12.77
4/3/2021 2:15:00 PM 5.93 42.674 0.037 6.96 16.45 12.72
4/3/2021 2:30:00 PM 6.06 42.908 0.037 6.96 15.68 12.66
4/3/2021 2:45:00 PM 6.19 43.142 0.037 6.97 17.56 12.61
4/3/2021 3:00:00 PM 6.3 43.34 0.037 6.97 16.88 12.57
4/3/2021 3:15:00 PM 6.4 43.52 0.037 6.97 15.26 12.52
4/3/2021 3:30:00 PM 6.44 43.592 0.037 6.98 17.4 12.48
4/3/2021 3:45:00 PM 6.44 43.592 0.037 6.98 16.16 12.44
4/3/2021 4:00:00 PM 6.48 43.664 0.037 6.98 14.25 12.42
4/3/2021 4:15:00 PM 6.46 43.628 0.037 6.98 17.96 12.4
4/3/2021 4:30:00 PM 6.51 43.718 0.037 6.98 19.18 12.38
4/3/2021 4:45:00 PM 6.57 43.826 0.037 6.98 15.49 12.36
4/3/2021 5:00:00 PM 6.6 43.88 0.037 6.98 15.57 12.33
4/3/2021 5:15:00 PM 6.62 43.916 0.037 6.98 15.44 12.29
4/3/2021 5:30:00 PM 6.62 43.916 0.037 6.98 16.06 12.27
4/3/2021 5:45:00 PM 6.63 43.934 0.037 6.98 15.55 12.25
4/3/2021 6:00:00 PM 6.62 43.916 0.037 6.97 15.96 12.21
4/3/2021 6:15:00 PM 6.6 43.88 0.037 6.97 16.61 12.21
4/3/2021 6:30:00 PM 6.58 43.844 0.037 6.97 15.86 12.22
4/3/2021 6:45:00 PM 6.55 43.79 0.037 6.97 17.4 12.21
4/3/2021 7:00:00 PM 6.52 43.736 0.037 6.96 17.02 12.2
4/3/2021 7:15:00 PM 6.48 43.664 0.037 6.95 14.66 12.18
4/3/2021 7:30:00 PM 6.43 43.574 0.037 6.95 13.96 12.16
4/3/2021 7:45:00 PM 6.36 43.448 0.037 6.93 17.44 12.15
4/3/2021 8:00:00 PM 6.28 43.304 0.037 6.93 17.73 12.14
4/3/2021 8:15:00 PM 6.19 43.142 0.038 6.92 18.92 12.16
4/3/2021 8:30:00 PM 6.1 42.98 0.037 6.91 17.34 12.18
4/3/2021 8:45:00 PM 6.01 42.818 0.038 6.91 14.47 12.2
4/3/2021 9:00:00 PM 5.93 42.674 0.038 6.9 16.6 12.21
4/3/2021 9:15:00 PM 5.85 42.53 0.038 6.9 17.96 12.25
4/3/2021 9:30:00 PM 5.79 42.422 0.038 6.9 17.28 12.27
4/3/2021 9:45:00 PM 5.73 42.314 0.038 6.89 15.71 12.29
4/3/2021 10:00:00 PM 5.67 42.206 0.038 6.89 16.32 12.31
4/3/2021 10:15:00 PM 5.62 42.116 0.038 6.89 17.74 12.33
4/3/2021 10:30:00 PM 5.57 42.026 0.038 6.89 18.99 12.35
4/3/2021 10:45:00 PM 5.53 41.954 0.038 6.89 15.91 12.37
4/3/2021 11:00:00 PM 5.5 41.9 0.038 6.89 17.47 12.39
4/3/2021 11:15:00 PM 5.46 41.828 0.038 6.9 17.72 12.4
4/3/2021 11:30:00 PM 5.42 41.756 0.038 6.89 18.45 12.43
4/3/2021 11:45:00 PM 5.38 41.684 0.038 6.89 16.36 12.42
4/4/2021 12:00:00 AM 5.35 41.63 0.038 6.89 15.73 12.45
4/4/2021 12:15:00 AM 5.31 41.558 0.038 6.89 16.67 12.45
4/4/2021 12:30:00 AM 5.28 41.504 0.038 6.89 15.92 12.46
4/4/2021 12:45:00 AM 5.26 41.468 0.038 6.75 17.16 12.46
4/4/2021 1:00:00 AM 5.23 41.414 0.038 6.89 16.37 12.48
4/4/2021 1:15:00 AM 5.2 41.36 0.038 6.89 17.64 12.49
4/4/2021 1:30:00 AM 5.17 41.306 0.038 6.88 16.1 12.48
4/4/2021 1:45:00 AM 5.15 41.27 0.038 6.88 19.82 12.49
4/4/2021 2:00:00 AM 5.12 41.216 0.038 6.88 16.1 12.5
4/4/2021 2:15:00 AM 5.1 41.18 0.038 6.88 15.68 12.51
4/4/2021 2:30:00 AM 5.08 41.144 0.038 6.88 17.01 12.51
4/4/2021 2:45:00 AM 5.06 41.108 0.038 6.88 15.71 12.52
4/4/2021 3:00:00 AM 5.04 41.072 0.038 6.88 15.68 12.52
4/4/2021 3:15:00 AM 5.02 41.036 0.038 6.88 16.63 12.52
4/4/2021 3:30:00 AM 5 41 0.038 6.88 16.82 12.52
4/4/2021 3:45:00 AM 4.98 40.964 0.038 6.88 16.44 12.53
4/4/2021 4:00:00 AM 4.97 40.946 0.038 6.88 18.02 12.53
4/4/2021 4:15:00 AM 4.95 40.91 0.038 6.88 18.08 12.53
4/4/2021 4:30:00 AM 4.93 40.874 0.038 6.88 16.13 12.54
4/4/2021 4:45:00 AM 4.92 40.856 0.038 6.88 17.29 12.55
4/4/2021 5:00:00 AM 4.9 40.82 0.038 6.88 16.24 12.54
4/4/2021 5:15:00 AM 4.89 40.802 0.038 6.88 16.37 12.55
4/4/2021 5:30:00 AM 4.88 40.784 0.038 6.88 15.74 12.55
4/4/2021 5:45:00 AM 4.87 40.766 0.038 6.88 19.27 12.56
4/4/2021 6:00:00 AM 4.85 40.73 0.038 6.88 17.03 12.56
4/4/2021 6:15:00 AM 4.83 40.694 0.038 6.88 16.74 12.56
4/4/2021 6:30:00 AM 4.81 40.658 0.038 6.88 16.2 12.57
4/4/2021 6:45:00 AM 4.8 40.64 0.038 6.88 16.27 12.57
4/4/2021 7:00:00 AM 4.79 40.622 0.038 6.89 17.89 12.59
4/4/2021 7:15:00 AM 4.78 40.604 0.038 6.89 16.21 12.6
4/4/2021 7:30:00 AM 4.77 40.586 0.038 6.9 16.5 12.63
4/4/2021 7:45:00 AM 4.77 40.586 0.038 6.9 18.03 12.67
4/4/2021 8:00:00 AM 4.78 40.604 0.038 6.92 16.41 12.7
4/4/2021 8:15:00 AM 4.8 40.64 0.038 6.92 15.58 12.73
4/4/2021 8:30:00 AM 4.84 40.712 0.038 6.94 15.89 12.76
4/4/2021 8:45:00 AM 4.87 40.766 0.038 6.95 16.54 12.77
4/4/2021 9:00:00 AM 4.9 40.82 0.038 6.95 15.75 12.78
4/4/2021 9:15:00 AM 4.95 40.91 0.038 6.96 15.78 12.78
4/4/2021 9:30:00 AM 5.02 41.036 0.038 6.96 16.61 12.77
4/4/2021 9:45:00 AM 5.1 41.18 0.038 6.96 16.48 12.77
4/4/2021 10:00:00 AM 5.19 41.342 0.038 6.97 16.68 12.75
4/4/2021 10:15:00 AM 5.32 41.576 0.038 6.97 16.49 12.7
4/4/2021 10:30:00 AM 5.48 41.864 0.038 6.97 16.37 12.68
4/4/2021 10:45:00 AM 5.66 42.188 0.038 6.98 16.02 12.63
4/4/2021 11:00:00 AM 5.86 42.548 0.038 6.98 20.09 12.59
4/4/2021 11:15:00 AM 6.08 42.944 0.037 6.98 17.25 12.54
4/4/2021 11:30:00 AM 6.31 43.358 0.037 6.99 17.52 12.47
4/4/2021 11:45:00 AM 6.54 43.772 0.037 6.99 16.72 12.41
4/4/2021 12:00:00 PM 6.78 44.204 0.037 6.99 16.26 12.35
4/4/2021 12:15:00 PM 7 44.6 0.037 6.99 19.38 12.3
4/4/2021 12:30:00 PM 7.22 44.996 0.037 7 15.03 12.23
4/4/2021 12:45:00 PM 7.42 45.356 0.037 7 15.2 12.18
4/4/2021 1:00:00 PM 7.63 45.734 0.037 7 16.4 12.13
4/4/2021 1:15:00 PM 7.82 46.076 0.037 7.01 15.61 12.06
4/4/2021 1:30:00 PM 8 46.4 0.037 7.01 15.2 12.01
4/4/2021 1:45:00 PM 8.14 46.652 0.037 7.01 15.28 11.96
4/4/2021 2:00:00 PM 8.29 46.922 0.037 7.01 17.41 11.92
4/4/2021 2:15:00 PM 8.44 47.192 0.037 7.01 15.29 11.87
4/4/2021 2:30:00 PM 8.59 47.462 0.037 7.02 15.7 11.83
4/4/2021 2:45:00 PM 8.7 47.66 0.037 6.98 15.25 11.78
4/4/2021 3:00:00 PM 8.82 47.876 0.037 7.02 15.98 11.75
4/4/2021 3:15:00 PM 8.91 48.038 0.037 7.02 24.7 11.69
4/4/2021 3:30:00 PM 9.02 48.236 0.037 7.02 17.74 11.66
4/4/2021 3:45:00 PM 9.1 48.38 0.037 7.02 17.83 11.62
4/4/2021 4:00:00 PM 9.17 48.506 0.038 7.02 17.98 11.59
4/4/2021 4:15:00 PM 9.22 48.596 0.037 7.02 15.45 11.57
4/4/2021 4:30:00 PM 9.24 48.632 0.038 7.02 16.61 11.53
4/4/2021 4:45:00 PM 9.23 48.614 0.038 7.02 14.18 11.52
4/4/2021 5:00:00 PM 9.22 48.596 0.038 7.02 16.77 11.5
4/4/2021 5:15:00 PM 9.18 48.524 0.038 7.01 16.41 11.49
4/4/2021 5:30:00 PM 9.14 48.452 0.038 7.02 17.25 11.48
4/4/2021 5:45:00 PM 9.09 48.362 0.038 7.01 17.86 11.48
4/4/2021 6:00:00 PM 9.04 48.272 0.038 7.01 15.58 11.47
4/4/2021 6:15:00 PM 8.98 48.164 0.038 7 16.63 11.45
4/4/2021 6:30:00 PM 8.92 48.056 0.038 7 17.55 11.44
4/4/2021 6:45:00 PM 8.86 47.948 0.038 6.99 16.86 11.44
4/4/2021 7:00:00 PM 8.79 47.822 0.038 6.99 18.6 11.43
4/4/2021 7:15:00 PM 8.72 47.696 0.038 6.97 17.86 11.41
4/4/2021 7:30:00 PM 8.64 47.552 0.038 6.96 16.79 11.4
4/4/2021 7:45:00 PM 8.56 47.408 0.038 6.96 15.96 11.4
4/4/2021 8:00:00 PM 8.48 47.264 0.038 6.95 13.61 11.4
4/4/2021 8:15:00 PM 8.39 47.102 0.038 6.94 16.54 11.4
4/4/2021 8:30:00 PM 8.31 46.958 0.038 6.94 16.25 11.42
4/4/2021 8:45:00 PM 8.21 46.778 0.038 6.93 16.94 11.44
4/4/2021 9:00:00 PM 8.13 46.634 0.038 6.93 17.67 11.47
4/4/2021 9:15:00 PM 8.03 46.454 0.038 6.93 16.26 11.5
4/4/2021 9:30:00 PM 7.94 46.292 0.038 6.92 17.17 11.53
4/4/2021 9:45:00 PM 7.84 46.112 0.038 6.92 16.05 11.56
4/4/2021 10:00:00 PM 7.75 45.95 0.038 6.92 19.03 11.58
4/4/2021 10:15:00 PM 7.66 45.788 0.038 6.92 15.83 11.6
4/4/2021 10:30:00 PM 7.57 45.626 0.038 6.91 16.58 11.63
4/4/2021 10:45:00 PM 7.48 45.464 0.038 6.91 17.2 11.66
4/4/2021 11:00:00 PM 7.4 45.32 0.038 6.91 18.02 11.69
4/4/2021 11:15:00 PM 7.32 45.176 0.038 6.91 16.41 11.72
4/4/2021 11:30:00 PM 7.23 45.014 0.038 6.91 13.91 11.74
4/4/2021 11:45:00 PM 7.14 44.852 0.038 6.91 15.06 11.77
4/5/2021 12:00:00 AM 7.04 44.672 0.038 6.9 16.7 11.8
4/5/2021 12:15:00 AM 6.95 44.51 0.038 6.91 20.7 11.83
4/5/2021 12:30:00 AM 6.86 44.348 0.038 6.9 16.45 11.85
4/5/2021 12:45:00 AM 6.76 44.168 0.038 6.9 20.39 11.89
4/5/2021 1:00:00 AM 6.67 44.006 0.038 6.9 17.97 11.92
4/5/2021 1:15:00 AM 6.59 43.862 0.038 6.9 15.51 11.93
4/5/2021 1:30:00 AM 6.5 43.7 0.038 6.9 16.78 11.96
4/5/2021 1:45:00 AM 6.41 43.538 0.038 6.9 17.25 11.99
4/5/2021 2:00:00 AM 6.33 43.394 0.038 6.89 16.07 12.01
4/5/2021 2:15:00 AM 6.25 43.25 0.038 6.89 17.82 12.04
4/5/2021 2:30:00 AM 6.18 43.124 0.038 6.89 17.58 12.06
4/5/2021 2:45:00 AM 6.1 42.98 0.038 6.89 15.94 12.08
4/5/2021 3:00:00 AM 6.03 42.854 0.038 6.81 16.23 12.11
4/5/2021 3:15:00 AM 5.96 42.728 0.038 6.89 16.6 12.12
4/5/2021 3:30:00 AM 5.89 42.602 0.038 6.89 17.12 12.16
4/5/2021 3:45:00 AM 5.82 42.476 0.038 6.89 16.56 12.17
4/5/2021 4:00:00 AM 5.76 42.368 0.038 6.89 16.78 12.19
4/5/2021 4:15:00 AM 5.69 42.242 0.038 6.89 16.49 12.22
4/5/2021 4:30:00 AM 5.64 42.152 0.038 6.89 15.74 12.23
4/5/2021 4:45:00 AM 5.58 42.044 0.038 6.89 16.57 12.25
4/5/2021 5:00:00 AM 5.53 41.954 0.038 6.89 16.12 12.27
4/5/2021 5:15:00 AM 5.49 41.882 0.038 6.89 17.67 12.3
4/5/2021 5:30:00 AM 5.44 41.792 0.038 6.89 16.37 12.31
4/5/2021 5:45:00 AM 5.4 41.72 0.038 6.89 16.9 12.32
4/5/2021 6:00:00 AM 5.35 41.63 0.038 6.89 16.76 12.34
4/5/2021 6:15:00 AM 5.31 41.558 0.038 6.89 15.02 12.35
4/5/2021 6:30:00 AM 5.27 41.486 0.038 6.89 17.67 12.37
4/5/2021 6:45:00 AM 5.24 41.432 0.038 6.89 15.98 12.39
4/5/2021 7:00:00 AM 5.21 41.378 0.038 6.9 16.1 12.43
4/5/2021 7:15:00 AM 5.19 41.342 0.038 6.91 16.02 12.46
4/5/2021 7:30:00 AM 5.18 41.324 0.038 6.92 16.33 12.49
4/5/2021 7:45:00 AM 5.17 41.306 0.038 6.93 17.15 12.54
4/5/2021 8:00:00 AM 5.17 41.306 0.038 6.94 16.05 12.58
4/5/2021 8:15:00 AM 5.18 41.324 0.038 6.94 16.92 12.61
4/5/2021 8:30:00 AM 5.2 41.36 0.038 6.86 15.69 12.63
4/5/2021 8:45:00 AM 5.23 41.414 0.038 6.96 17.58 12.64
4/5/2021 9:00:00 AM 5.27 41.486 0.038 6.97 16.58 12.66
4/5/2021 9:15:00 AM 5.33 41.594 0.038 6.97 15.74 12.66
4/5/2021 9:30:00 AM 5.4 41.72 0.038 6.97 15.77 12.64
4/5/2021 9:45:00 AM 5.49 41.882 0.038 6.98 16.59 12.64
4/5/2021 10:00:00 AM 5.59 42.062 0.038 6.99 15.16 12.63
4/5/2021 10:15:00 AM 5.72 42.296 0.038 6.98 17.15 12.6
4/5/2021 10:30:00 AM 5.88 42.584 0.038 7 15.84 12.57
4/5/2021 10:45:00 AM 6.08 42.944 0.038 7 15.06 12.53
4/5/2021 11:00:00 AM 6.28 43.304 0.038 7 16.6 12.48
4/5/2021 11:15:00 AM 6.5 43.7 0.038 7.01 15.72 12.43
4/5/2021 11:30:00 AM 6.74 44.132 0.038 7.01 16.62 12.36
4/5/2021 11:45:00 AM 6.99 44.582 0.038 7.01 16.15 12.29
4/5/2021 12:00:00 PM 7.24 45.032 0.038 7.01 16.58 12.23
4/5/2021 12:15:00 PM 7.48 45.464 0.038 7.02 16.21 12.16
4/5/2021 12:30:00 PM 7.72 45.896 0.038 7.02 17.16 12.09
4/5/2021 12:45:00 PM 7.95 46.31 0.038 7.02 15.98 12.04
4/5/2021 1:00:00 PM 8.17 46.706 0.038 7.02 16.38 11.97
4/5/2021 1:15:00 PM 8.36 47.048 0.038 7.03 14.85 11.92
4/5/2021 1:30:00 PM 8.54 47.372 0.038 7.03 17.72 11.87
4/5/2021 1:45:00 PM 8.71 47.678 0.038 7.03 15.52 11.82
4/5/2021 2:00:00 PM 8.86 47.948 0.038 7.03 15.95 11.79
4/5/2021 2:15:00 PM 9 48.2 0.038 7.04 14.37 11.73
4/5/2021 2:30:00 PM 9.13 48.434 0.038 7.04 16.44 11.69
4/5/2021 2:45:00 PM 9.24 48.632 0.038 7.05 15.46 11.65
4/5/2021 3:00:00 PM 9.33 48.794 0.038 7.04 16.65 11.61
4/5/2021 3:15:00 PM 9.42 48.956 0.038 7.04 15.45 11.57
4/5/2021 3:30:00 PM 9.5 49.1 0.038 7.04 17.24 11.53
4/5/2021 3:45:00 PM 9.54 49.172 0.038 7.02 15.93 11.5
4/5/2021 4:00:00 PM 9.58 49.244 0.038 7.04 17.73 11.48
4/5/2021 4:15:00 PM 9.59 49.262 0.038 7.05 15.98 11.45
4/5/2021 4:30:00 PM 9.58 49.244 0.038 7.05 15.73 11.44
4/5/2021 4:45:00 PM 9.57 49.226 0.038 7.03 13.52 11.42
4/5/2021 5:00:00 PM 9.48 49.064 0.039 6.65 3.66 11.28
4/5/2021 5:15:00 PM 9.44 48.992 0.039 6.57 3.42 11.27
4/5/2021 5:30:00 PM 9.38 48.884 0.039 6.55 3.71 11.26
4/5/2021 5:45:00 PM 9.33 48.794 0.039 6.53 3.7 11.26
4/5/2021 6:00:00 PM 9.26 48.668 0.039 6.5 3.69 11.25
4/5/2021 6:15:00 PM 9.22 48.596 0.04 6.48 3.87 11.23
4/5/2021 6:30:00 PM 9.16 48.488 0.04 6.47 3.82 11.22
4/5/2021 6:45:00 PM 9.1 48.38 0.04 6.46 3.71 11.2
4/5/2021 7:00:00 PM 9.05 48.29 0.04 6.43 3.68 11.18
4/5/2021 7:15:00 PM 8.99 48.182 0.04 6.41 3.56 11.16
4/5/2021 7:30:00 PM 8.92 48.056 0.04 6.4 3.86 11.15
4/5/2021 7:45:00 PM 8.85 47.93 0.04 6.38 3.65 11.14
4/5/2021 8:00:00 PM 8.78 47.804 0.04 6.37 3.88 11.13
4/5/2021 8:15:00 PM 8.71 47.678 0.04 6.36 4.08 11.14
4/5/2021 8:30:00 PM 8.64 47.552 0.04 6.34 3.86 11.14
4/5/2021 8:45:00 PM 8.55 47.39 0.04 6.33 3.65 11.17
4/5/2021 9:00:00 PM 8.46 47.228 0.04 6.34 3.82 11.18
4/5/2021 9:15:00 PM 8.39 47.102 0.04 6.32 3.97 11.2
4/5/2021 9:30:00 PM 8.3 46.94 0.04 6.32 3.89 11.21
4/5/2021 9:45:00 PM 8.22 46.796 0.04 6.31 3.72 11.24
4/5/2021 10:00:00 PM 8.14 46.652 0.04 6.31 3.95 11.28
4/5/2021 10:15:00 PM 8.05 46.49 0.04 6.32 3.76 11.31
4/5/2021 10:30:00 PM 7.97 46.346 0.04 6.32 3.65 11.32
4/5/2021 10:45:00 PM 7.9 46.22 0.04 6.32 4.05 11.35
4/5/2021 11:00:00 PM 7.82 46.076 0.04 6.3 3.84 11.36
4/5/2021 11:15:00 PM 7.75 45.95 0.04 6.3 4.16 11.37
4/5/2021 11:30:00 PM 7.67 45.806 0.04 6.3 3.96 11.39
4/5/2021 11:45:00 PM 7.6 45.68 0.04 6.3 3.88 11.42
4/6/2021 12:00:00 AM 7.53 45.554 0.04 6.29 4.11 11.44
4/6/2021 12:15:00 AM 7.45 45.41 0.04 6.29 3.94 11.46
4/6/2021 12:30:00 AM 7.37 45.266 0.04 6.28 3.89 11.49
4/6/2021 12:45:00 AM 7.29 45.122 0.04 6.28 3.83 11.51
4/6/2021 1:00:00 AM 7.21 44.978 0.04 6.27 3.94 11.52
4/6/2021 1:15:00 AM 7.13 44.834 0.04 6.28 3.99 11.53
4/6/2021 1:30:00 AM 7.04 44.672 0.04 6.28 3.54 11.56
4/6/2021 1:45:00 AM 6.96 44.528 0.04 6.28 3.53 11.59
4/6/2021 2:00:00 AM 6.87 44.366 0.04 6.27 3.94 11.6
4/6/2021 2:15:00 AM 6.78 44.204 0.04 6.26 3.94 11.65
4/6/2021 2:30:00 AM 6.7 44.06 0.04 6.27 4.07 11.66
4/6/2021 2:45:00 AM 6.62 43.916 0.04 6.26 3.75 11.68
4/6/2021 3:00:00 AM 6.53 43.754 0.04 6.27 3.74 11.69
4/6/2021 3:15:00 AM 6.46 43.628 0.04 6.27 3.64 11.71
4/6/2021 3:30:00 AM 6.38 43.484 0.04 6.28 3.63 11.74
4/6/2021 3:45:00 AM 6.3 43.34 0.04 6.27 3.59 11.77
4/6/2021 4:00:00 AM 6.23 43.214 0.04 6.26 3.82 11.8
4/6/2021 4:15:00 AM 6.16 43.088 0.04 6.27 3.69 11.82
4/6/2021 4:30:00 AM 6.08 42.944 0.04 6.27 3.53 11.84
4/6/2021 4:45:00 AM 6.02 42.836 0.04 6.26 3.5 11.86
4/6/2021 5:00:00 AM 5.95 42.71 0.04 6.27 3.47 11.88
4/6/2021 5:15:00 AM 5.88 42.584 0.04 6.27 3.57 11.89
4/6/2021 5:30:00 AM 5.82 42.476 0.04 6.27 3.68 11.91
4/6/2021 5:45:00 AM 5.76 42.368 0.04 6.27 3.53 11.93
4/6/2021 6:00:00 AM 5.7 42.26 0.04 6.27 3.7 11.95
4/6/2021 6:15:00 AM 5.63 42.134 0.04 6.27 3.71 11.98
4/6/2021 6:30:00 AM 5.58 42.044 0.04 6.27 3.69 12
4/6/2021 6:45:00 AM 5.52 41.936 0.04 6.27 3.85 12.03
4/6/2021 7:00:00 AM 5.46 41.828 0.04 6.28 3.51 12.07
4/6/2021 7:15:00 AM 5.42 41.756 0.04 6.29 3.75 12.12
4/6/2021 7:30:00 AM 5.37 41.666 0.04 6.3 3.43 12.17
4/6/2021 7:45:00 AM 5.34 41.612 0.04 6.29 3.28 12.22
4/6/2021 8:00:00 AM 5.31 41.558 0.04 6.32 3.36 12.27
4/6/2021 8:15:00 AM 5.3 41.54 0.04 6.32 3.47 12.3
4/6/2021 8:30:00 AM 5.3 41.54 0.04 6.32 3.44 12.34
4/6/2021 8:45:00 AM 5.32 41.576 0.04 6.34 3.5 12.36
4/6/2021 9:00:00 AM 5.36 41.648 0.04 6.34 3.5 12.39
4/6/2021 9:15:00 AM 5.41 41.738 0.04 6.35 3.42 12.39
4/6/2021 9:30:00 AM 5.49 41.882 0.04 6.35 3.39 12.4
4/6/2021 9:45:00 AM 5.59 42.062 0.04 6.37 3.61 12.39
4/6/2021 10:00:00 AM 5.71 42.278 0.04 6.37 3.71 12.37
4/6/2021 10:15:00 AM 5.86 42.548 0.04 6.38 3.27 12.33
4/6/2021 10:30:00 AM 6.06 42.908 0.04 6.4 3.56 12.31
4/6/2021 10:45:00 AM 6.28 43.304 0.04 6.39 3.31 12.27
4/6/2021 11:00:00 AM 6.5 43.7 0.04 6.4 3.25 12.21
4/6/2021 11:15:00 AM 6.76 44.168 0.04 6.4 3.25 12.15
4/6/2021 11:30:00 AM 7.01 44.618 0.04 6.41 3.32 12.09
4/6/2021 11:45:00 AM 7.28 45.104 0.04 6.4 3.39 12.04
4/6/2021 12:00:00 PM 7.55 45.59 0.04 6.43 3.03 11.97
4/6/2021 12:15:00 PM 7.81 46.058 0.04 6.4 3.53 11.9
4/6/2021 12:30:00 PM 8.07 46.526 0.04 6.43 3.09 11.85
4/6/2021 12:45:00 PM 8.3 46.94 0.04 6.41 3.4 11.77
4/6/2021 1:00:00 PM 8.52 47.336 0.04 6.4 3.35 11.73
4/6/2021 1:15:00 PM 8.73 47.714 0.04 6.43 3.19 11.68
4/6/2021 1:30:00 PM 8.92 48.056 0.04 6.45 3.44 11.61
4/6/2021 1:45:00 PM 9.08 48.344 0.04 6.46 3.42 11.56
4/6/2021 2:00:00 PM 9.25 48.65 0.04 6.42 3.13 11.53
4/6/2021 2:15:00 PM 9.4 48.92 0.04 6.43 3.42 11.49
4/6/2021 2:30:00 PM 9.56 49.208 0.04 6.42 3.08 11.44
4/6/2021 2:45:00 PM 9.66 49.388 0.04 6.43 3.29 11.4
4/6/2021 3:00:00 PM 9.82 49.676 0.04 6.41 3.12 11.37
4/6/2021 3:15:00 PM 9.96 49.928 0.04 6.43 3.32 11.33
4/6/2021 3:30:00 PM 10.06 50.108 0.04 6.42 3.22 11.28
4/6/2021 3:45:00 PM 10.13 50.234 0.04 6.43 3.19 11.23
4/6/2021 4:00:00 PM 10.18 50.324 0.04 6.43 3.19 11.19
4/6/2021 4:15:00 PM 10.21 50.378 0.04 6.4 3.19 11.16
4/6/2021 4:30:00 PM 10.23 50.414 0.04 6.4 3.26 11.12
4/6/2021 4:45:00 PM 10.23 50.414 0.04 6.41 3.23 11.1
4/6/2021 5:00:00 PM 10.21 50.378 0.04 6.4 3.26 11.08
4/6/2021 5:15:00 PM 10.17 50.306 0.04 6.39 3.1 11.07
4/6/2021 5:30:00 PM 10.12 50.216 0.04 6.4 3.27 11.06
4/6/2021 5:45:00 PM 10.05 50.09 0.04 6.37 3.24 11.05
4/6/2021 6:00:00 PM 10 50 0.04 6.37 3.54 11.03
4/6/2021 6:15:00 PM 9.94 49.892 0.04 6.35 3.01 11.02
4/6/2021 6:30:00 PM 9.88 49.784 0.04 6.38 3.33 11
4/6/2021 6:45:00 PM 9.82 49.676 0.041 6.35 3.33 10.99
4/6/2021 7:00:00 PM 9.77 49.586 0.041 6.34 3.35 10.96
4/6/2021 7:15:00 PM 9.71 49.478 0.041 6.34 3.47 10.93
4/6/2021 7:30:00 PM 9.66 49.388 0.041 6.33 3.63 10.91
4/6/2021 7:45:00 PM 9.59 49.262 0.041 6.31 3.38 10.89
4/6/2021 8:00:00 PM 9.52 49.136 0.041 6.29 3.4 10.88
4/6/2021 8:15:00 PM 9.45 49.01 0.041 6.27 3.56 10.88
4/6/2021 8:30:00 PM 9.37 48.866 0.041 6.27 3.68 10.89
4/6/2021 8:45:00 PM 9.29 48.722 0.041 6.28 3.71 10.9
4/6/2021 9:00:00 PM 9.21 48.578 0.041 6.25 3.68 10.92
4/6/2021 9:15:00 PM 9.14 48.452 0.041 6.25 3.65 10.94
4/6/2021 9:30:00 PM 9.06 48.308 0.041 6.25 3.39 10.95
4/6/2021 9:45:00 PM 8.99 48.182 0.041 6.25 3.69 10.97
4/6/2021 10:00:00 PM 8.9 48.02 0.041 6.26 3.5 10.99
4/6/2021 10:15:00 PM 8.81 47.858 0.041 6.24 3.64 11.03
4/6/2021 10:30:00 PM 8.72 47.696 0.041 6.24 3.59 11.06
4/6/2021 10:45:00 PM 8.63 47.534 0.041 6.24 3.52 11.08
4/6/2021 11:00:00 PM 8.56 47.408 0.041 6.25 3.45 11.1
4/6/2021 11:15:00 PM 8.48 47.264 0.041 6.25 3.74 11.12
4/6/2021 11:30:00 PM 8.42 47.156 0.041 6.26 3.47 11.13
4/6/2021 11:45:00 PM 8.35 47.03 0.041 6.24 3.6 11.15
4/7/2021 12:00:00 AM 8.29 46.922 0.041 6.23 3.59 11.18
4/7/2021 12:15:00 AM 8.24 46.832 0.041 6.25 3.83 11.2
4/7/2021 12:30:00 AM 8.18 46.724 0.041 6.25 3.72 11.21
4/7/2021 12:45:00 AM 8.13 46.634 0.041 6.25 3.73 11.23
4/7/2021 1:00:00 AM 8.08 46.544 0.041 6.25 3.63 11.25
4/7/2021 1:15:00 AM 8.03 46.454 0.041 6.24 3.5 11.26
4/7/2021 1:30:00 AM 7.98 46.364 0.041 6.25 3.41 11.28
4/7/2021 1:45:00 AM 7.93 46.274 0.041 6.25 3.44 11.29
4/7/2021 2:00:00 AM 7.88 46.184 0.041 6.25 3.55 11.31
4/7/2021 2:15:00 AM 7.83 46.094 0.041 6.24 3.38 11.31
4/7/2021 2:30:00 AM 7.79 46.022 0.041 6.25 3.37 11.33
4/7/2021 2:45:00 AM 7.75 45.95 0.041 6.24 3.51 11.33
4/7/2021 3:00:00 AM 7.72 45.896 0.042 6.25 3.45 11.35
4/7/2021 3:15:00 AM 7.68 45.824 0.042 6.24 3.48 11.35
4/7/2021 3:30:00 AM 7.63 45.734 0.042 6.26 3.48 11.37
4/7/2021 3:45:00 AM 7.6 45.68 0.041 6.24 3.31 11.38
4/7/2021 4:00:00 AM 7.56 45.608 0.042 6.25 3.4 11.4
4/7/2021 4:15:00 AM 7.53 45.554 0.041 6.24 3.36 11.4
4/7/2021 4:30:00 AM 7.5 45.5 0.041 6.24 3.34 11.41
4/7/2021 4:45:00 AM 7.47 45.446 0.042 6.24 3.34 11.42
4/7/2021 5:00:00 AM 7.45 45.41 0.041 6.25 3.33 11.43
4/7/2021 5:15:00 AM 7.42 45.356 0.041 6.25 3.26 11.44
4/7/2021 5:30:00 AM 7.4 45.32 0.041 6.25 3.53 11.46
4/7/2021 5:45:00 AM 7.37 45.266 0.041 6.25 3.32 11.47
4/7/2021 6:00:00 AM 7.35 45.23 0.041 6.25 3.37 11.47
4/7/2021 6:15:00 AM 7.32 45.176 0.041 6.26 3.59 11.48
4/7/2021 6:30:00 AM 7.3 45.14 0.041 6.25 3.4 11.48
4/7/2021 6:45:00 AM 7.28 45.104 0.041 6.27 3.45 11.5
4/7/2021 7:00:00 AM 7.26 45.068 0.041 6.27 3.45 11.51
4/7/2021 7:15:00 AM 7.24 45.032 0.041 6.26 3.17 11.51
4/7/2021 7:30:00 AM 7.23 45.014 0.041 6.26 3.41 11.53
4/7/2021 7:45:00 AM 7.21 44.978 0.041 6.26 3.24 11.54
4/7/2021 8:00:00 AM 7.2 44.96 0.041 6.27 3.53 11.56
4/7/2021 8:15:00 AM 7.19 44.942 0.041 6.27 3.33 11.59
4/7/2021 8:30:00 AM 7.19 44.942 0.041 6.28 3.08 11.66
4/7/2021 8:45:00 AM 7.19 44.942 0.041 6.31 3.22 11.68
4/7/2021 9:00:00 AM 7.2 44.96 0.041 6.31 3.29 11.73
4/7/2021 9:15:00 AM 7.25 45.05 0.041 6.32 3.26 11.79
4/7/2021 9:30:00 AM 7.34 45.212 0.041 6.34 3.43 11.83
4/7/2021 9:45:00 AM 7.39 45.302 0.041 6.35 3.48 11.85
4/7/2021 10:00:00 AM 7.44 45.392 0.041 6.36 3.21 11.84
4/7/2021 10:15:00 AM 7.56 45.608 0.041 6.38 3.28 11.85
4/7/2021 10:30:00 AM 7.63 45.734 0.041 6.38 3.25 11.84
4/7/2021 10:45:00 AM 7.8 46.04 0.041 6.4 3.39 11.81
4/7/2021 11:00:00 AM 7.99 46.382 0.041 6.41 3.23 11.8
4/7/2021 11:15:00 AM 8.19 46.742 0.041 6.41 3.32 11.76
4/7/2021 11:30:00 AM 8.4 47.12 0.041 6.4 3.34 11.7
4/7/2021 11:45:00 AM 8.55 47.39 0.041 6.42 3.37 11.66
4/7/2021 12:00:00 PM 8.68 47.624 0.041 6.43 3.11 11.62
4/7/2021 12:15:00 PM 8.88 47.984 0.041 6.43 3.09 11.56
4/7/2021 12:30:00 PM 9.22 48.596 0.041 6.43 3.15 11.5
4/7/2021 12:45:00 PM 9.49 49.082 0.041 6.44 3.44 11.44
4/7/2021 1:00:00 PM 9.64 49.352 0.041 6.43 3.41 11.37
4/7/2021 1:15:00 PM 9.59 49.262 0.041 6.41 3.17 11.35
4/7/2021 1:30:00 PM 9.71 49.478 0.041 6.43 3.51 11.34
4/7/2021 1:45:00 PM 10.02 50.036 0.041 6.44 3.34 11.32
4/7/2021 2:00:00 PM 10.28 50.504 0.041 6.44 3.01 11.25
4/7/2021 2:15:00 PM 10.43 50.774 0.041 6.44 3.42 11.22
4/7/2021 2:30:00 PM 10.61 51.098 0.041 6.42 3.3 11.18
4/7/2021 2:45:00 PM 10.77 51.386 0.041 6.42 3.3 11.13
4/7/2021 3:00:00 PM 10.98 51.764 0.041 6.44 3.16 11.06
4/7/2021 3:15:00 PM 11.18 52.124 0.041 6.43 3.15 11.01
4/7/2021 3:30:00 PM 11.31 52.358 0.041 6.43 3.23 10.95
4/7/2021 3:45:00 PM 11.41 52.538 0.041 6.42 3.17 10.92
4/7/2021 4:00:00 PM 11.51 52.718 0.041 6.42 3.33 10.87
4/7/2021 4:15:00 PM 11.58 52.844 0.041 6.41 3.26 10.83
4/7/2021 4:30:00 PM 11.6 52.88 0.041 6.41 3.19 10.81
4/7/2021 4:45:00 PM 11.6 52.88 0.041 6.42 3.43 10.79
4/7/2021 5:00:00 PM 11.56 52.808 0.041 6.4 3.05 10.76
4/7/2021 5:15:00 PM 11.52 52.736 0.041 6.41 3.36 10.76
4/7/2021 5:30:00 PM 11.45 52.61 0.041 6.41 3 10.75
4/7/2021 5:45:00 PM 11.38 52.484 0.041 6.41 3.48 10.75
4/7/2021 6:00:00 PM 11.32 52.376 0.041 6.39 3.25 10.74
4/7/2021 6:15:00 PM 11.27 52.286 0.041 6.4 3.14 10.73
4/7/2021 6:30:00 PM 11.21 52.178 0.042 6.37 3.19 10.71
4/7/2021 6:45:00 PM 11.15 52.07 0.041 6.38 3.23 10.68
4/7/2021 7:00:00 PM 11.08 51.944 0.041 6.37 3.44 10.65
4/7/2021 7:15:00 PM 11.01 51.818 0.042 6.35 3.32 10.62
4/7/2021 7:30:00 PM 10.93 51.674 0.042 6.32 3.29 10.58
4/7/2021 7:45:00 PM 10.86 51.548 0.042 6.32 3.22 10.56
4/7/2021 8:00:00 PM 10.77 51.386 0.042 6.29 3.5 10.56
4/7/2021 8:15:00 PM 10.69 51.242 0.042 6.29 3.11 10.56
4/7/2021 8:30:00 PM 10.6 51.08 0.042 6.28 3.05 10.56
4/7/2021 8:45:00 PM 10.51 50.918 0.042 6.26 3.3 10.57
4/7/2021 9:00:00 PM 10.41 50.738 0.042 6.25 3.51 10.59
4/7/2021 9:15:00 PM 10.31 50.558 0.042 6.24 3.3 10.6
4/7/2021 9:30:00 PM 10.22 50.396 0.042 6.28 3.69 10.62
4/7/2021 9:45:00 PM 10.13 50.234 0.042 6.25 3.64 10.65
4/7/2021 10:00:00 PM 10.03 50.054 0.042 6.23 3.09 10.68
4/7/2021 10:15:00 PM 9.94 49.892 0.042 6.25 3.24 10.71
4/7/2021 10:30:00 PM 9.85 49.73 0.042 6.28 3.28 10.74
4/7/2021 10:45:00 PM 9.76 49.568 0.042 6.25 3.39 10.75
4/7/2021 11:00:00 PM 9.67 49.406 0.042 6.26 3.41 10.77
4/7/2021 11:15:00 PM 9.58 49.244 0.042 6.26 3.32 10.79
4/7/2021 11:30:00 PM 9.48 49.064 0.042 6.26 3.32 10.82
4/7/2021 11:45:00 PM 9.39 48.902 0.042 6.24 3.47 10.85
4/8/2021 12:00:00 AM 9.3 48.74 0.042 6.27 3.48 10.88
4/8/2021 12:15:00 AM 9.21 48.578 0.042 6.26 3.41 10.91
4/8/2021 12:30:00 AM 9.12 48.416 0.042 6.25 3.46 10.93
4/8/2021 12:45:00 AM 9.03 48.254 0.042 6.25 3.26 10.94
4/8/2021 1:00:00 AM 8.95 48.11 0.042 6.26 3.26 10.96
4/8/2021 1:15:00 AM 8.87 47.966 0.042 6.25 3.4 10.99
4/8/2021 1:30:00 AM 8.79 47.822 0.042 6.26 3.29 11.02
4/8/2021 1:45:00 AM 8.7 47.66 0.042 6.26 3.31 11.05
4/8/2021 2:00:00 AM 8.62 47.516 0.042 6.26 3.23 11.07
4/8/2021 2:15:00 AM 8.54 47.372 0.042 6.26 3.48 11.09
4/8/2021 2:30:00 AM 8.46 47.228 0.042 6.25 3.26 11.1
4/8/2021 2:45:00 AM 8.38 47.084 0.042 6.26 3.52 11.12
4/8/2021 3:00:00 AM 8.31 46.958 0.042 6.25 3.09 11.14
4/8/2021 3:15:00 AM 8.23 46.814 0.042 6.26 3.28 11.17
4/8/2021 3:30:00 AM 8.16 46.688 0.042 6.25 3.11 11.19
4/8/2021 3:45:00 AM 8.09 46.562 0.042 6.26 3.32 11.23
4/8/2021 4:00:00 AM 8.02 46.436 0.042 6.27 3.4 11.24
4/8/2021 4:15:00 AM 7.95 46.31 0.042 6.26 3.24 11.27
4/8/2021 4:30:00 AM 7.89 46.202 0.042 6.27 3.41 11.28
4/8/2021 4:45:00 AM 7.82 46.076 0.042 6.27 3.11 11.29
4/8/2021 5:00:00 AM 7.76 45.968 0.042 6.26 3.2 11.31
4/8/2021 5:15:00 AM 7.69 45.842 0.042 6.25 3.11 11.33
4/8/2021 5:30:00 AM 7.63 45.734 0.042 6.27 2.95 11.35
4/8/2021 5:45:00 AM 7.58 45.644 0.042 6.27 3.12 11.37
4/8/2021 6:00:00 AM 7.51 45.518 0.042 6.27 3.22 11.4
4/8/2021 6:15:00 AM 7.45 45.41 0.042 6.26 3.13 11.41
4/8/2021 6:30:00 AM 7.4 45.32 0.042 6.27 3.16 11.44
4/8/2021 6:45:00 AM 7.34 45.212 0.042 6.27 3.12 11.47
4/8/2021 7:00:00 AM 7.29 45.122 0.042 6.27 3.21 11.51
4/8/2021 7:15:00 AM 7.25 45.05 0.042 6.29 3 11.56
4/8/2021 7:30:00 AM 7.2 44.96 0.042 6.31 3.11 11.62
4/8/2021 7:45:00 AM 7.18 44.924 0.042 6.3 3.17 11.68
4/8/2021 8:00:00 AM 7.16 44.888 0.042 6.33 3.25 11.72
4/8/2021 8:15:00 AM 7.16 44.888 0.042 6.32 3.2 11.77
4/8/2021 8:30:00 AM 7.18 44.924 0.042 6.35 3.16 11.81
4/8/2021 8:45:00 AM 7.22 44.996 0.042 6.35 3.27 11.84
4/8/2021 9:00:00 AM 7.27 45.086 0.042 6.35 3.05 11.87
4/8/2021 9:15:00 AM 7.34 45.212 0.042 6.39 3.1 11.87
4/8/2021 9:30:00 AM 7.42 45.356 0.042 6.38 3.35 11.87
4/8/2021 9:45:00 AM 7.52 45.536 0.042 6.39 2.98 11.87
4/8/2021 10:00:00 AM 7.64 45.752 0.042 6.39 2.88 11.86
4/8/2021 10:15:00 AM 7.8 46.04 0.042 6.43 3.05 11.83
4/8/2021 10:30:00 AM 7.99 46.382 0.042 6.42 3.16 11.81
4/8/2021 10:45:00 AM 8.2 46.76 0.042 6.42 3.28 11.78
4/8/2021 11:00:00 AM 8.42 47.156 0.042 6.42 3.16 11.73
4/8/2021 11:15:00 AM 8.66 47.588 0.042 6.44 3.25 11.69
4/8/2021 11:30:00 AM 8.93 48.074 0.042 6.43 3.24 11.62
4/8/2021 11:45:00 AM 9.21 48.578 0.042 6.43 3.25 11.57
4/8/2021 12:00:00 PM 9.5 49.1 0.042 6.45 2.99 11.49
4/8/2021 12:15:00 PM 9.79 49.622 0.042 6.44 2.92 11.43
4/8/2021 12:30:00 PM 10.07 50.126 0.042 6.45 3.1 11.37
4/8/2021 12:45:00 PM 10.34 50.612 0.042 6.44 2.75 11.3
4/8/2021 1:00:00 PM 10.6 51.08 0.042 6.45 2.9 11.25
4/8/2021 1:15:00 PM 10.85 51.53 0.042 6.44 3.08 11.18
4/8/2021 1:30:00 PM 11.07 51.926 0.042 6.45 3.7 11.13
4/8/2021 1:45:00 PM 11.28 52.304 0.042 6.44 2.86 11.09
4/8/2021 2:00:00 PM 11.47 52.646 0.042 6.46 3.09 11.02
4/8/2021 2:15:00 PM 11.64 52.952 0.042 6.45 2.97 10.97
4/8/2021 2:30:00 PM 11.8 53.24 0.042 6.45 2.93 10.94
4/8/2021 2:45:00 PM 11.93 53.474 0.042 6.46 3.1 10.9
4/8/2021 3:00:00 PM 12.05 53.69 0.042 6.45 3.06 10.86
4/8/2021 3:15:00 PM 12.15 53.87 0.042 6.45 3 10.81
4/8/2021 3:30:00 PM 12.23 54.014 0.042 6.44 2.98 10.77
4/8/2021 3:45:00 PM 12.29 54.122 0.042 6.45 3.14 10.74
4/8/2021 4:00:00 PM 12.3 54.14 0.042 6.46 3.15 10.71
4/8/2021 4:15:00 PM 12.35 54.23 0.042 6.44 2.99 10.69
4/8/2021 4:30:00 PM 12.35 54.23 0.042 6.43 2.91 10.67
4/8/2021 4:45:00 PM 12.36 54.248 0.042 6.44 3.05 10.65
4/8/2021 5:00:00 PM 12.36 54.248 0.042 6.45 3.03 10.63
4/8/2021 5:15:00 PM 12.32 54.176 0.042 6.42 2.97 10.61
4/8/2021 5:30:00 PM 12.27 54.086 0.042 6.41 3.05 10.59
4/8/2021 5:45:00 PM 12.21 53.978 0.042 6.41 3.03 10.57
4/8/2021 6:00:00 PM 12.14 53.852 0.042 6.42 3.24 10.55
4/8/2021 6:15:00 PM 12.06 53.708 0.042 6.4 3.2 10.54
4/8/2021 6:30:00 PM 12.01 53.618 0.042 6.39 3.06 10.53
4/8/2021 6:45:00 PM 11.97 53.546 0.042 6.39 3.03 10.49
4/8/2021 7:00:00 PM 11.92 53.456 0.042 6.38 2.88 10.46
4/8/2021 7:15:00 PM 11.87 53.366 0.042 6.38 3.08 10.43
4/8/2021 7:30:00 PM 11.81 53.258 0.042 6.37 3.14 10.39
4/8/2021 7:45:00 PM 11.75 53.15 0.042 6.33 3 10.35
4/8/2021 8:00:00 PM 11.69 53.042 0.043 6.32 2.97 10.32
4/8/2021 8:15:00 PM 11.62 52.916 0.043 6.3 3.07 10.3
4/8/2021 8:30:00 PM 11.55 52.79 0.043 6.29 3.27 10.3
4/8/2021 8:45:00 PM 11.47 52.646 0.043 6.29 3.15 10.31
4/8/2021 9:00:00 PM 11.39 52.502 0.043 6.27 3.29 10.33
4/8/2021 9:15:00 PM 11.3 52.34 0.043 6.28 3.1 10.35
4/8/2021 9:30:00 PM 11.21 52.178 0.043 6.26 3 10.37
4/8/2021 9:45:00 PM 11.12 52.016 0.043 6.26 3.42 10.39
4/8/2021 10:00:00 PM 11.03 51.854 0.043 6.27 3.26 10.41
4/8/2021 10:15:00 PM 10.94 51.692 0.043 6.27 3.38 10.43
4/8/2021 10:30:00 PM 10.87 51.566 0.043 6.28 3.16 10.45
4/8/2021 10:45:00 PM 10.79 51.422 0.043 6.28 3.21 10.47
4/8/2021 11:00:00 PM 10.72 51.296 0.043 6.29 3.4 10.49
4/8/2021 11:15:00 PM 10.65 51.17 0.043 6.28 3.55 10.51
4/8/2021 11:30:00 PM 10.58 51.044 0.043 6.28 3.59 10.54
4/8/2021 11:45:00 PM 10.5 50.9 0.043 6.3 3.31 10.55
4/9/2021 12:00:00 AM 10.43 50.774 0.043 6.31 3.3 10.58
4/9/2021 12:15:00 AM 10.36 50.648 0.043 6.3 3.34 10.59
4/9/2021 12:30:00 AM 10.29 50.522 0.043 6.29 3.1 10.6
4/9/2021 12:45:00 AM 10.21 50.378 0.043 6.29 3.35 10.62
4/9/2021 1:00:00 AM 10.14 50.252 0.043 6.29 3.28 10.65
4/9/2021 1:15:00 AM 10.06 50.108 0.043 6.29 3.37 10.68
4/9/2021 1:30:00 AM 9.99 49.982 0.043 6.29 3.22 10.7
4/9/2021 1:45:00 AM 9.91 49.838 0.043 6.3 3.19 10.72
4/9/2021 2:00:00 AM 9.83 49.694 0.043 6.31 3.35 10.74
4/9/2021 2:15:00 AM 9.75 49.55 0.043 6.29 3.11 10.75
4/9/2021 2:30:00 AM 9.68 49.424 0.043 6.28 3.36 10.77
4/9/2021 2:45:00 AM 9.61 49.298 0.043 6.29 3.38 10.78
4/9/2021 3:00:00 AM 9.54 49.172 0.043 6.29 3.27 10.8
4/9/2021 3:15:00 AM 9.48 49.064 0.043 6.3 3.15 10.83
4/9/2021 3:30:00 AM 9.41 48.938 0.043 6.28 3.12 10.85
4/9/2021 3:45:00 AM 9.35 48.83 0.043 6.29 3.33 10.87
4/9/2021 4:00:00 AM 9.29 48.722 0.043 6.28 3.02 10.88
4/9/2021 4:15:00 AM 9.23 48.614 0.043 6.3 3.11 10.9
4/9/2021 4:30:00 AM 9.18 48.524 0.043 6.31 3.33 10.91
4/9/2021 4:45:00 AM 9.13 48.434 0.043 6.29 3.21 10.93
4/9/2021 5:00:00 AM 9.07 48.326 0.043 6.29 3.1 10.94
4/9/2021 5:15:00 AM 9.02 48.236 0.043 6.3 3.03 10.95
4/9/2021 5:30:00 AM 8.98 48.164 0.043 6.28 3.13 10.96
4/9/2021 5:45:00 AM 8.93 48.074 0.043 6.28 3.3 10.98
4/9/2021 6:00:00 AM 8.88 47.984 0.043 6.3 3.26 11
4/9/2021 6:15:00 AM 8.84 47.912 0.043 6.3 3.19 11.01
4/9/2021 6:30:00 AM 8.78 47.804 0.043 6.31 3.39 11.03
4/9/2021 6:45:00 AM 8.73 47.714 0.043 6.29 3.41 11.06
4/9/2021 7:00:00 AM 8.69 47.642 0.043 6.32 3.09 11.1
4/9/2021 7:15:00 AM 8.65 47.57 0.043 6.3 3.21 11.16
4/9/2021 7:30:00 AM 8.62 47.516 0.043 6.32 3.18 11.24
4/9/2021 7:45:00 AM 8.61 47.498 0.043 6.34 2.98 11.33
4/9/2021 8:00:00 AM 8.62 47.516 0.043 6.35 3.14 11.4
4/9/2021 8:15:00 AM 8.67 47.606 0.043 6.35 3.05 11.46
4/9/2021 8:30:00 AM 8.67 47.606 0.043 6.39 3.18 11.46
4/9/2021 8:45:00 AM 8.7 47.66 0.043 6.42 3.01 11.48
4/9/2021 9:00:00 AM 8.74 47.732 0.043 6.43 3.13 11.51
4/9/2021 9:15:00 AM 8.77 47.786 0.043 6.42 3.11 11.52
4/9/2021 9:30:00 AM 8.82 47.876 0.043 6.44 3.34 11.51
4/9/2021 9:45:00 AM 8.9 48.02 0.043 6.45 3.25 11.51
4/9/2021 10:00:00 AM 9.02 48.236 0.043 6.46 3.16 11.51
4/9/2021 10:15:00 AM 9.07 48.326 0.043 6.47 3.16 11.49
4/9/2021 10:30:00 AM 9.13 48.434 0.043 6.48 3.05 11.45
4/9/2021 10:45:00 AM 9.15 48.47 0.043 6.45 3.08 11.45
4/9/2021 11:00:00 AM 9.17 48.506 0.043 6.44 3.09 11.43
4/9/2021 11:15:00 AM 9.22 48.596 0.043 6.45 3.06 11.42
4/9/2021 11:30:00 AM 9.26 48.668 0.043 6.47 2.91 11.4
4/9/2021 11:45:00 AM 9.32 48.776 0.043 6.47 2.98 11.4
4/9/2021 12:00:00 PM 9.41 48.938 0.043 6.47 3.12 11.4
4/9/2021 12:15:00 PM 9.46 49.028 0.042 6.47 3.1 11.39
4/9/2021 12:30:00 PM 9.52 49.136 0.043 6.47 2.81 11.38
4/9/2021 12:45:00 PM 9.58 49.244 0.043 6.47 3.08 11.37
4/9/2021 1:00:00 PM 9.59 49.262 0.043 6.45 3.04 11.33
4/9/2021 1:15:00 PM 9.61 49.298 0.043 6.47 3.02 11.3
4/9/2021 1:30:00 PM 9.62 49.316 0.043 6.46 2.96 11.28
4/9/2021 1:45:00 PM 9.64 49.352 0.043 6.46 3.04 11.28
4/9/2021 2:00:00 PM 9.71 49.478 0.043 6.47 2.9 11.29
4/9/2021 2:15:00 PM 9.79 49.622 0.043 6.46 3.03 11.3
4/9/2021 2:30:00 PM 9.84 49.712 0.043 6.46 3.14 11.29
4/9/2021 2:45:00 PM 9.87 49.766 0.042 6.48 3.07 11.28
4/9/2021 3:00:00 PM 9.89 49.802 0.043 6.46 3.18 11.25
4/9/2021 3:15:00 PM 9.92 49.856 0.043 6.47 3.05 11.24
4/9/2021 3:30:00 PM 9.95 49.91 0.043 6.46 2.95 11.23
4/9/2021 3:45:00 PM 10 50 0.043 6.47 3.16 11.21
4/9/2021 4:00:00 PM 10.04 50.072 0.043 6.47 3 11.2
4/9/2021 4:15:00 PM 10.06 50.108 0.043 6.47 2.86 11.18
4/9/2021 4:30:00 PM 10.06 50.108 0.043 6.46 2.96 11.15
4/9/2021 4:45:00 PM 10.06 50.108 0.043 6.46 2.96 11.15
4/9/2021 5:00:00 PM 10.07 50.126 0.043 6.46 3.03 11.15
4/9/2021 5:15:00 PM 10.09 50.162 0.043 6.45 2.92 11.14
4/9/2021 5:30:00 PM 10.09 50.162 0.043 6.46 3.02 11.11
4/9/2021 5:45:00 PM 10.07 50.126 0.043 6.43 3.05 11.05
4/9/2021 6:00:00 PM 10.05 50.09 0.043 6.42 2.87 11.04
4/9/2021 6:15:00 PM 10.03 50.054 0.043 6.42 3.06 11.03
4/9/2021 6:30:00 PM 10.02 50.036 0.043 6.41 3.07 11.02
4/9/2021 6:45:00 PM 10 50 0.043 6.4 3.03 10.99
4/9/2021 7:00:00 PM 9.98 49.964 0.043 6.39 3.28 10.95
4/9/2021 7:15:00 PM 9.95 49.91 0.043 6.38 2.86 10.89
4/9/2021 7:30:00 PM 9.93 49.874 0.043 6.38 3.07 10.85
4/9/2021 7:45:00 PM 9.9 49.82 0.043 6.37 2.92 10.82
4/9/2021 8:00:00 PM 9.87 49.766 0.043 6.32 2.85 10.8
4/9/2021 8:15:00 PM 9.85 49.73 0.043 6.33 2.92 10.78
4/9/2021 8:30:00 PM 9.82 49.676 0.044 6.33 3.09 10.77
4/9/2021 8:45:00 PM 9.79 49.622 0.044 6.32 3.03 10.77
4/9/2021 9:00:00 PM 9.76 49.568 0.044 6.3 2.95 10.77
4/9/2021 9:15:00 PM 9.74 49.532 0.044 6.3 3.23 10.77
4/9/2021 9:30:00 PM 9.71 49.478 0.044 6.31 3.04 10.77
4/9/2021 9:45:00 PM 9.69 49.442 0.044 6.3 3 10.77
4/9/2021 10:00:00 PM 9.66 49.388 0.044 6.32 2.99 10.78
4/9/2021 10:15:00 PM 9.64 49.352 0.044 6.3 3.09 10.78
4/9/2021 10:30:00 PM 9.62 49.316 0.044 6.3 3.25 10.79
4/9/2021 10:45:00 PM 9.6 49.28 0.044 6.3 2.97 10.78
4/9/2021 11:00:00 PM 9.58 49.244 0.044 6.31 3.18 10.79
4/9/2021 11:15:00 PM 9.56 49.208 0.044 6.3 3.02 10.8
4/9/2021 11:30:00 PM 9.54 49.172 0.044 6.31 2.88 10.8
4/9/2021 11:45:00 PM 9.52 49.136 0.044 6.31 2.92 10.81
4/10/2021 12:00:00 AM 9.51 49.118 0.044 6.31 2.87 10.82
4/10/2021 12:15:00 AM 9.49 49.082 0.044 6.3 3.06 10.82
4/10/2021 12:30:00 AM 9.47 49.046 0.044 6.31 3.12 10.83
4/10/2021 12:45:00 AM 9.45 49.01 0.044 6.31 3.09 10.84
4/10/2021 1:00:00 AM 9.43 48.974 0.044 6.32 3.19 10.84
4/10/2021 1:15:00 AM 9.41 48.938 0.044 6.3 2.74 10.85
4/10/2021 1:30:00 AM 9.39 48.902 0.044 6.32 2.89 10.86
4/10/2021 1:45:00 AM 9.37 48.866 0.044 6.31 2.94 10.86
4/10/2021 2:00:00 AM 9.35 48.83 0.044 6.32 2.84 10.86
4/10/2021 2:15:00 AM 9.33 48.794 0.044 6.3 3.19 10.87
4/10/2021 2:30:00 AM 9.31 48.758 0.044 6.31 3.18 10.87
4/10/2021 2:45:00 AM 9.3 48.74 0.044 6.31 3.09 10.88
4/10/2021 3:00:00 AM 9.28 48.704 0.044 6.31 2.93 10.88
4/10/2021 3:15:00 AM 9.26 48.668 0.044 6.31 3.13 10.88
4/10/2021 3:30:00 AM 9.24 48.632 0.044 6.31 3.11 10.89
4/10/2021 3:45:00 AM 9.22 48.596 0.044 6.3 3.04 10.89
4/10/2021 4:00:00 AM 9.21 48.578 0.044 6.3 3.12 10.89
4/10/2021 4:15:00 AM 9.19 48.542 0.044 6.3 2.81 10.9
4/10/2021 4:30:00 AM 9.18 48.524 0.044 6.31 2.98 10.9
4/10/2021 4:45:00 AM 9.16 48.488 0.044 6.32 2.86 10.9
4/10/2021 5:00:00 AM 9.15 48.47 0.044 6.31 3.03 10.9
4/10/2021 5:15:00 AM 9.13 48.434 0.044 6.3 3.08 10.9
4/10/2021 5:30:00 AM 9.12 48.416 0.044 6.29 3 10.9
4/10/2021 5:45:00 AM 9.1 48.38 0.044 6.31 3.06 10.91
4/10/2021 6:00:00 AM 9.08 48.344 0.044 6.3 3.05 10.91
4/10/2021 6:15:00 AM 9.07 48.326 0.044 6.3 3.09 10.92
4/10/2021 6:30:00 AM 9.06 48.308 0.044 6.31 3.04 10.92
4/10/2021 6:45:00 AM 9.04 48.272 0.044 6.31 3.05 10.93
4/10/2021 7:00:00 AM 9.03 48.254 0.044 6.29 2.96 10.95
4/10/2021 7:15:00 AM 9.03 48.254 0.044 6.31 2.91 10.98
4/10/2021 7:30:00 AM 9.02 48.236 0.044 6.34 3.02 11.03
4/10/2021 7:45:00 AM 9.02 48.236 0.044 6.33 2.85 11.08
4/10/2021 8:00:00 AM 9.03 48.254 0.044 6.33 2.79 11.13
4/10/2021 8:15:00 AM 9.03 48.254 0.044 6.37 2.83 11.17
4/10/2021 8:30:00 AM 9.05 48.29 0.044 6.39 2.78 11.23
4/10/2021 8:45:00 AM 9.09 48.362 0.044 6.4 2.96 11.3
4/10/2021 9:00:00 AM 9.13 48.434 0.044 6.41 3.02 11.33
4/10/2021 9:15:00 AM 9.16 48.488 0.044 6.42 3.14 11.35
4/10/2021 9:30:00 AM 9.22 48.596 0.044 6.45 3.03 11.37
4/10/2021 9:45:00 AM 9.26 48.668 0.044 6.45 2.94 11.38
4/10/2021 10:00:00 AM 9.3 48.74 0.044 6.45 2.9 11.37
4/10/2021 10:15:00 AM 9.35 48.83 0.043 6.48 2.74 11.38
4/10/2021 10:30:00 AM 9.39 48.902 0.043 6.47 2.8 11.36
4/10/2021 10:45:00 AM 9.45 49.01 0.043 6.49 2.94 11.37
4/10/2021 11:00:00 AM 9.53 49.154 0.043 6.47 2.81 11.35
4/10/2021 11:15:00 AM 9.61 49.298 0.043 6.48 3.03 11.34
4/10/2021 11:30:00 AM 9.7 49.46 0.043 6.5 2.83 11.34
4/10/2021 11:45:00 AM 9.8 49.64 0.043 6.5 2.8 11.33
4/10/2021 12:00:00 PM 9.93 49.874 0.043 6.51 2.82 11.32
4/10/2021 12:15:00 PM 10.11 50.198 0.043 6.52 2.86 11.3
4/10/2021 12:30:00 PM 10.36 50.648 0.043 6.53 2.88 11.26
4/10/2021 12:45:00 PM 10.73 51.314 0.043 6.53 2.79 11.21
4/10/2021 1:00:00 PM 10.84 51.512 0.043 6.51 2.62 11.16
4/10/2021 1:15:00 PM 11.01 51.818 0.043 6.52 3 11.13
4/10/2021 1:30:00 PM 11.2 52.16 0.043 6.54 2.95 11.09
4/10/2021 1:45:00 PM 11.39 52.502 0.043 6.51 2.95 11.04
4/10/2021 2:00:00 PM 11.56 52.808 0.043 6.54 2.89 10.98
4/10/2021 2:15:00 PM 11.74 53.132 0.043 6.51 2.96 10.94
4/10/2021 2:30:00 PM 11.93 53.474 0.043 6.53 2.99 10.9
4/10/2021 2:45:00 PM 12.11 53.798 0.043 6.55 3.1 10.84
4/10/2021 3:00:00 PM 12.29 54.122 0.043 6.54 2.91 10.79
4/10/2021 3:15:00 PM 12.45 54.41 0.043 6.54 2.93 10.76
4/10/2021 3:30:00 PM 12.6 54.68 0.043 6.52 2.84 10.72
4/10/2021 3:45:00 PM 12.7 54.86 0.043 6.53 3 10.67
4/10/2021 4:00:00 PM 12.75 54.95 0.043 6.53 2.71 10.64
4/10/2021 4:15:00 PM 12.81 55.058 0.043 6.53 2.91 10.6
4/10/2021 4:30:00 PM 12.83 55.094 0.043 6.53 3.04 10.58
4/10/2021 4:45:00 PM 12.85 55.13 0.043 6.53 2.75 10.56
4/10/2021 5:00:00 PM 12.84 55.112 0.043 6.54 3.03 10.54
4/10/2021 5:15:00 PM 12.82 55.076 0.043 6.52 2.97 10.52
4/10/2021 5:30:00 PM 12.79 55.022 0.043 6.51 2.71 10.5
4/10/2021 5:45:00 PM 12.77 54.986 0.043 6.51 2.84 10.48
4/10/2021 6:00:00 PM 12.73 54.914 0.043 6.49 2.79 10.46
4/10/2021 6:15:00 PM 12.7 54.86 0.043 6.5 2.75 10.44
4/10/2021 6:30:00 PM 12.65 54.77 0.043 6.49 2.92 10.41
4/10/2021 6:45:00 PM 12.6 54.68 0.043 6.47 2.88 10.37
4/10/2021 7:00:00 PM 12.55 54.59 0.043 6.46 2.8 10.33
4/10/2021 7:15:00 PM 12.5 54.5 0.044 6.42 2.83 10.28
4/10/2021 7:30:00 PM 12.43 54.374 0.044 6.41 2.94 10.21
4/10/2021 7:45:00 PM 12.36 54.248 0.044 6.38 3.01 10.16
4/10/2021 8:00:00 PM 12.29 54.122 0.044 6.36 2.96 10.11
4/10/2021 8:15:00 PM 12.21 53.978 0.044 6.36 3.03 10.08
4/10/2021 8:30:00 PM 12.13 53.834 0.044 6.34 3.05 10.07
4/10/2021 8:45:00 PM 12.06 53.708 0.044 6.32 2.89 10.08
4/10/2021 9:00:00 PM 11.98 53.564 0.044 6.31 3.03 10.08
4/10/2021 9:15:00 PM 11.9 53.42 0.044 6.3 2.98 10.1
4/10/2021 9:30:00 PM 11.82 53.276 0.044 6.31 2.9 10.1
4/10/2021 9:45:00 PM 11.74 53.132 0.044 6.31 2.75 10.12
4/10/2021 10:00:00 PM 11.66 52.988 0.044 6.31 3.02 10.13
4/10/2021 10:15:00 PM 11.58 52.844 0.044 6.31 3.07 10.14
4/10/2021 10:30:00 PM 11.5 52.7 0.045 6.3 3.13 10.16
4/10/2021 10:45:00 PM 11.43 52.574 0.044 6.31 3.06 10.18
4/10/2021 11:00:00 PM 11.36 52.448 0.045 6.32 3.01 10.2
4/10/2021 11:15:00 PM 11.29 52.322 0.045 6.3 2.96 10.22
4/10/2021 11:30:00 PM 11.22 52.196 0.045 6.31 3 10.24
4/10/2021 11:45:00 PM 11.15 52.07 0.045 6.31 2.9 10.26
4/11/2021 12:00:00 AM 11.09 51.962 0.045 6.3 2.71 10.27
4/11/2021 12:15:00 AM 11.03 51.854 0.045 6.31 2.97 10.29
4/11/2021 12:30:00 AM 10.96 51.728 0.045 6.29 2.82 10.29
4/11/2021 12:45:00 AM 10.9 51.62 0.045 6.31 3.1 10.3
4/11/2021 1:00:00 AM 10.84 51.512 0.045 6.31 2.94 10.32
4/11/2021 1:15:00 AM 10.79 51.422 0.045 6.31 2.96 10.34
4/11/2021 1:30:00 AM 10.72 51.296 0.045 6.29 2.98 10.36
4/11/2021 1:45:00 AM 10.66 51.188 0.045 6.28 2.97 10.37
4/11/2021 2:00:00 AM 10.6 51.08 0.045 6.3 3.22 10.38
4/11/2021 2:15:00 AM 10.54 50.972 0.045 6.29 2.76 10.39
4/11/2021 2:30:00 AM 10.47 50.846 0.045 6.31 2.86 10.41
4/11/2021 2:45:00 AM 10.41 50.738 0.045 6.29 2.83 10.42
4/11/2021 3:00:00 AM 10.35 50.63 0.045 6.3 2.85 10.43
4/11/2021 3:15:00 AM 10.3 50.54 0.045 6.3 2.88 10.44
4/11/2021 3:30:00 AM 10.25 50.45 0.045 6.31 2.96 10.44
4/11/2021 3:45:00 AM 10.2 50.36 0.045 6.3 2.82 10.46
4/11/2021 4:00:00 AM 10.16 50.288 0.045 6.28 3.06 10.47
4/11/2021 4:15:00 AM 10.11 50.198 0.045 6.3 2.86 10.48
4/11/2021 4:30:00 AM 10.08 50.144 0.045 6.29 2.99 10.5
4/11/2021 4:45:00 AM 10.04 50.072 0.045 6.3 2.82 10.5
4/11/2021 5:00:00 AM 10 50 0.045 6.3 2.88 10.51
4/11/2021 5:15:00 AM 9.97 49.946 0.045 6.3 2.86 10.52
4/11/2021 5:30:00 AM 9.94 49.892 0.045 6.3 2.9 10.54
4/11/2021 5:45:00 AM 9.91 49.838 0.045 6.29 2.92 10.54
4/11/2021 6:00:00 AM 9.88 49.784 0.045 6.3 2.93 10.54
4/11/2021 6:15:00 AM 9.85 49.73 0.045 6.3 3.02 10.56
4/11/2021 6:30:00 AM 9.82 49.676 0.045 6.29 3.2 10.56
4/11/2021 6:45:00 AM 9.8 49.64 0.044 6.28 2.69 10.57
4/11/2021 7:00:00 AM 9.78 49.604 0.044 6.28 2.78 10.6
4/11/2021 7:15:00 AM 9.76 49.568 0.045 6.29 2.87 10.64
4/11/2021 7:30:00 AM 9.74 49.532 0.045 6.31 2.91 10.66
4/11/2021 7:45:00 AM 9.73 49.514 0.045 6.31 3.02 10.69
4/11/2021 8:00:00 AM 9.72 49.496 0.045 6.31 3 10.73
4/11/2021 8:15:00 AM 9.71 49.478 0.044 6.32 2.85 10.77
4/11/2021 8:30:00 AM 9.7 49.46 0.044 6.33 3.04 10.8
4/11/2021 8:45:00 AM 9.7 49.46 0.044 6.35 3 10.82
4/11/2021 9:00:00 AM 9.69 49.442 0.044 6.35 3.18 10.84
4/11/2021 9:15:00 AM 9.69 49.442 0.044 6.36 3.02 10.85
4/11/2021 9:30:00 AM 9.7 49.46 0.044 6.36 3.01 10.88
4/11/2021 9:45:00 AM 9.71 49.478 0.045 6.38 3.17 10.9
4/11/2021 10:00:00 AM 9.71 49.478 0.045 6.37 3.17 10.93
4/11/2021 10:15:00 AM 9.73 49.514 0.045 6.4 3.42 10.96
4/11/2021 10:30:00 AM 9.75 49.55 0.045 6.4 3.68 10.98
4/11/2021 10:45:00 AM 9.77 49.586 0.046 6.43 3.83 10.99
4/11/2021 11:00:00 AM 9.8 49.64 0.046 6.44 3.94 11
4/11/2021 11:15:00 AM 9.82 49.676 0.047 6.45 4.27 10.97
4/11/2021 11:30:00 AM 9.85 49.73 0.048 6.44 4.19 10.97
4/11/2021 11:45:00 AM 9.89 49.802 0.049 6.49 4.59 11
4/11/2021 12:00:00 PM 9.92 49.856 0.05 6.49 4.49 10.97
4/11/2021 12:15:00 PM 9.97 49.946 0.051 6.51 5.23 10.98
4/11/2021 12:30:00 PM 10.02 50.036 0.051 6.52 5.67 10.99
4/11/2021 12:45:00 PM 10.09 50.162 0.052 6.55 5.79 10.99
4/11/2021 1:00:00 PM 10.15 50.27 0.052 6.56 6.24 10.98
4/11/2021 1:15:00 PM 10.21 50.378 0.053 6.57 6.39 10.96
4/11/2021 1:30:00 PM 10.27 50.486 0.053 6.59 6.88 10.93
4/11/2021 1:45:00 PM 10.31 50.558 0.053 6.59 6.99 10.87
4/11/2021 2:00:00 PM 10.33 50.594 0.052 6.57 7.69 10.84
4/11/2021 2:15:00 PM 10.36 50.648 0.052 6.55 8.28 10.81
4/11/2021 2:30:00 PM 10.4 50.72 0.051 6.56 7.55 10.81
4/11/2021 2:45:00 PM 10.44 50.792 0.051 6.56 7.66 10.81
4/11/2021 3:00:00 PM 10.45 50.81 0.051 6.56 8.1 10.79
4/11/2021 3:15:00 PM 10.47 50.846 0.05 6.54 7.96 10.77
4/11/2021 3:30:00 PM 10.47 50.846 0.049 6.54 7.68 10.75
4/11/2021 3:45:00 PM 10.47 50.846 0.048 6.52 8.24 10.74
4/11/2021 4:00:00 PM 10.46 50.828 0.047 6.5 8.72 10.72
4/11/2021 4:15:00 PM 10.46 50.828 0.047 6.5 9.38 10.71
4/11/2021 4:30:00 PM 10.46 50.828 0.046 6.48 10.51 10.72
4/11/2021 4:45:00 PM 10.46 50.828 0.045 6.47 10.73 10.71
4/11/2021 5:00:00 PM 10.47 50.846 0.045 6.47 10.72 10.7
4/11/2021 5:15:00 PM 10.48 50.864 0.044 6.45 10.26 10.7
4/11/2021 5:30:00 PM 10.48 50.864 0.044 6.44 10.15 10.67
4/11/2021 5:45:00 PM 10.48 50.864 0.043 6.42 11.71 10.64
4/11/2021 6:00:00 PM 10.49 50.882 0.043 6.4 13.14 10.61
4/11/2021 6:15:00 PM 10.48 50.864 0.043 6.38 15.15 10.6
4/11/2021 6:30:00 PM 10.48 50.864 0.042 6.36 16.66 10.6
4/11/2021 6:45:00 PM 10.46 50.828 0.041 6.35 16.71 10.59
4/11/2021 7:00:00 PM 10.44 50.792 0.04 6.32 18.6 10.58
4/11/2021 7:15:00 PM 10.43 50.774 0.039 6.3 24.7 10.58
4/11/2021 7:30:00 PM 10.42 50.756 0.038 6.28 23.12 10.57
4/11/2021 7:45:00 PM 10.4 50.72 0.037 6.26 25.67 10.58
4/11/2021 8:00:00 PM 10.39 50.702 0.036 6.24 31.2 10.58
4/11/2021 8:15:00 PM 10.37 50.666 0.036 6.22 36.57 10.58
4/11/2021 8:30:00 PM 10.34 50.612 0.035 6.2 36.3 10.59
4/11/2021 8:45:00 PM 10.32 50.576 0.034 6.18 35.62 10.6
4/11/2021 9:00:00 PM 10.3 50.54 0.033 6.17 32.56 10.61
4/11/2021 9:15:00 PM 10.27 50.486 0.033 6.16 30.01 10.62
4/11/2021 9:30:00 PM 10.24 50.432 0.033 6.15 32.17 10.63
4/11/2021 9:45:00 PM 10.22 50.396 0.033 6.15 36.47 10.65
4/11/2021 10:00:00 PM 10.2 50.36 0.033 6.16 23.75 10.65
4/11/2021 10:15:00 PM 10.19 50.342 0.034 6.15 36.13 10.66
4/11/2021 10:30:00 PM 10.17 50.306 0.034 6.16 50.74 10.67
4/11/2021 10:45:00 PM 10.14 50.252 0.034 6.17 44.75 10.68
4/11/2021 11:00:00 PM 10.1 50.18 0.033 6.16 28.64 10.7
4/11/2021 11:15:00 PM 10.06 50.108 0.033 6.15 38.39 10.71
4/11/2021 11:30:00 PM 10.02 50.036 0.032 6.14 39.58 10.73
4/11/2021 11:45:00 PM 9.97 49.946 0.032 6.13 34.67 10.74
4/12/2021 12:00:00 AM 9.93 49.874 0.032 6.12 33.9 10.76
4/12/2021 12:15:00 AM 9.89 49.802 0.032 6.12 26.85 10.77
4/12/2021 12:30:00 AM 9.85 49.73 0.031 6.11 58.43 10.78
4/12/2021 12:45:00 AM 9.81 49.658 0.031 6.11 32.44 10.79
4/12/2021 1:00:00 AM 9.78 49.604 0.031 6.1 28.94 10.8
4/12/2021 1:15:00 AM 9.76 49.568 0.031 6.09 27.85 10.81
4/12/2021 1:30:00 AM 9.73 49.514 0.031 6.09 30.73 10.81
4/12/2021 1:45:00 AM 9.7 49.46 0.031 6.09 30.73 10.82
4/12/2021 2:00:00 AM 9.67 49.406 0.031 6.09 31.03 10.82
4/12/2021 2:15:00 AM 9.64 49.352 0.031 6.09 27.92 10.82
4/12/2021 2:30:00 AM 9.62 49.316 0.031 6.09 22.44 10.83
4/12/2021 2:45:00 AM 9.59 49.262 0.031 6.08 30.99 10.83
4/12/2021 3:00:00 AM 9.56 49.208 0.031 6.1 20.85 10.84
4/12/2021 3:15:00 AM 9.54 49.172 0.031 6.09 23.38 10.85
4/12/2021 3:30:00 AM 9.51 49.118 0.031 6.08 19.56 10.85
4/12/2021 3:45:00 AM 9.49 49.082 0.031 6.09 19.25 10.85
4/12/2021 4:00:00 AM 9.46 49.028 0.031 6.09 15.91 10.87
4/12/2021 4:15:00 AM 9.44 48.992 0.031 6.09 19.54 10.88
4/12/2021 4:30:00 AM 9.42 48.956 0.031 6.09 18.68 10.88
4/12/2021 4:45:00 AM 9.4 48.92 0.031 6.09 30.31 10.89
4/12/2021 5:00:00 AM 9.38 48.884 0.031 6.09 14.88 10.89
4/12/2021 5:15:00 AM 9.36 48.848 0.032 6.09 21.45 10.9
4/12/2021 5:30:00 AM 9.34 48.812 0.032 6.1 16.68 10.9
4/12/2021 5:45:00 AM 9.31 48.758 0.032 6.09 15.88 10.91
4/12/2021 6:00:00 AM 9.29 48.722 0.032 6.1 17 10.92
4/12/2021 6:15:00 AM 9.27 48.686 0.032 6.09 16.18 10.92
4/12/2021 6:30:00 AM 9.24 48.632 0.032 6.1 16.04 10.93
4/12/2021 6:45:00 AM 9.21 48.578 0.032 6.1 17.19 10.94
4/12/2021 7:00:00 AM 9.19 48.542 0.032 6.11 16.55 10.95
4/12/2021 7:15:00 AM 9.16 48.488 0.031 6.11 15.29 10.96
4/12/2021 7:30:00 AM 9.13 48.434 0.031 6.1 15.18 10.97
4/12/2021 7:45:00 AM 9.1 48.38 0.031 6.11 15.09 10.99
4/12/2021 8:00:00 AM 9.08 48.344 0.031 6.1 15.38 10.99
4/12/2021 8:15:00 AM 9.05 48.29 0.031 6.1 14.45 11
4/12/2021 8:30:00 AM 9.02 48.236 0.031 6.1 14.19 11.01
4/12/2021 8:45:00 AM 8.99 48.182 0.031 6.11 15.12 11.02
4/12/2021 9:00:00 AM 8.96 48.128 0.031 6.1 14.11 11.04
4/12/2021 9:15:00 AM 8.93 48.074 0.031 6.1 13.86 11.07
4/12/2021 9:30:00 AM 8.91 48.038 0.031 6.11 13.83 11.09
4/12/2021 9:45:00 AM 8.88 47.984 0.031 6.11 13.69 11.12
4/12/2021 10:00:00 AM 8.86 47.948 0.031 6.12 13.42 11.13
4/12/2021 10:15:00 AM 8.84 47.912 0.031 6.12 12.82 11.16
4/12/2021 10:30:00 AM 8.82 47.876 0.031 6.12 13.83 11.17
4/12/2021 10:45:00 AM 8.81 47.858 0.031 6.13 12.47 11.19
4/12/2021 11:00:00 AM 8.8 47.84 0.031 6.13 12.58 11.2
4/12/2021 11:15:00 AM 8.79 47.822 0.031 6.13 12.77 11.22
4/12/2021 11:30:00 AM 8.78 47.804 0.03 6.12 12.46 11.22
4/12/2021 11:45:00 AM 8.76 47.768 0.03 6.13 12.59 11.23
4/12/2021 12:00:00 PM 8.74 47.732 0.03 6.13 11.89 11.23
4/12/2021 12:15:00 PM 8.73 47.714 0.03 6.13 11.8 11.24
4/12/2021 12:30:00 PM 8.74 47.732 0.03 6.14 11.27 11.25
4/12/2021 12:45:00 PM 8.74 47.732 0.03 6.14 11.15 11.25
4/12/2021 1:00:00 PM 8.75 47.75 0.03 6.15 11.8 11.26
4/12/2021 1:15:00 PM 8.77 47.786 0.03 6.14 11.98 11.26
4/12/2021 1:30:00 PM 8.77 47.786 0.03 6.15 10.9 11.26
4/12/2021 1:45:00 PM 8.77 47.786 0.03 6.15 11.65 11.25
4/12/2021 2:00:00 PM 8.76 47.768 0.03 6.13 11.63 11.24
4/12/2021 2:15:00 PM 8.77 47.786 0.03 6.14 10.85 11.24
4/12/2021 2:30:00 PM 8.78 47.804 0.03 6.15 11.23 11.24
4/12/2021 2:45:00 PM 8.79 47.822 0.03 6.14 11.42 11.25
4/12/2021 3:00:00 PM 8.8 47.84 0.03 6.14 11.22 11.24
4/12/2021 3:15:00 PM 8.8 47.84 0.03 6.14 11.1 11.23
4/12/2021 3:30:00 PM 8.81 47.858 0.03 6.14 11.61 11.24
4/12/2021 3:45:00 PM 8.82 47.876 0.03 6.14 11.25 11.23
4/12/2021 4:00:00 PM 8.83 47.894 0.03 6.14 10.89 11.23
4/12/2021 4:15:00 PM 8.83 47.894 0.03 6.14 10.57 11.22
4/12/2021 4:30:00 PM 8.82 47.876 0.03 6.13 11.26 11.2
4/12/2021 4:45:00 PM 8.8 47.84 0.03 6.13 11.22 11.2
4/12/2021 5:00:00 PM 8.77 47.786 0.03 6.12 10.28 11.18
4/12/2021 5:15:00 PM 8.75 47.75 0.03 6.11 10.57 11.19
4/12/2021 5:30:00 PM 8.73 47.714 0.03 6.11 10.37 11.19
4/12/2021 5:45:00 PM 8.71 47.678 0.03 6.11 10.22 11.19
4/12/2021 6:00:00 PM 8.7 47.66 0.03 6.11 10.74 11.19
4/12/2021 6:15:00 PM 8.68 47.624 0.03 6.1 10.84 11.19
4/12/2021 6:30:00 PM 8.66 47.588 0.03 6.1 10.39 11.18
4/12/2021 6:45:00 PM 8.64 47.552 0.03 6.09 10.39 11.18
4/12/2021 7:00:00 PM 8.62 47.516 0.03 6.08 10.62 11.17
4/12/2021 7:15:00 PM 8.6 47.48 0.03 6.08 10.12 11.18
4/12/2021 7:30:00 PM 8.57 47.426 0.03 6.07 10.13 11.18
4/12/2021 7:45:00 PM 8.55 47.39 0.03 6.07 10.3 11.17
4/12/2021 8:00:00 PM 8.52 47.336 0.03 6.06 9.64 11.18
4/12/2021 8:15:00 PM 8.49 47.282 0.03 6.07 9.67 11.19
4/12/2021 8:30:00 PM 8.46 47.228 0.03 6.07 10.3 11.2
4/12/2021 8:45:00 PM 8.44 47.192 0.03 6.06 9.86 11.2
4/12/2021 9:00:00 PM 8.41 47.138 0.03 6.07 9.64 11.2
4/12/2021 9:15:00 PM 8.39 47.102 0.03 6.06 9.27 11.21
4/12/2021 9:30:00 PM 8.36 47.048 0.03 6.06 9.7 11.22
4/12/2021 9:45:00 PM 8.34 47.012 0.03 6.06 9.33 11.22
4/12/2021 10:00:00 PM 8.32 46.976 0.03 6.06 10.29 11.24
4/12/2021 10:15:00 PM 8.3 46.94 0.03 6.05 9.49 11.25
4/12/2021 10:30:00 PM 8.28 46.904 0.03 6.06 9.49 11.25
4/12/2021 10:45:00 PM 8.26 46.868 0.03 6.06 9.66 11.26
4/12/2021 11:00:00 PM 8.24 46.832 0.03 6.05 9.5 11.27
4/12/2021 11:15:00 PM 8.22 46.796 0.03 6.05 9.59 11.27
4/12/2021 11:30:00 PM 8.21 46.778 0.03 6.05 9.04 11.28
4/12/2021 11:45:00 PM 8.19 46.742 0.03 6.05 9.12 11.29
4/13/2021 12:00:00 AM 8.17 46.706 0.03 6.06 9.15 11.29
4/13/2021 12:15:00 AM 8.16 46.688 0.03 6.06 9.01 11.3
4/13/2021 12:30:00 AM 8.14 46.652 0.03 6.06 8.82 11.31
4/13/2021 12:45:00 AM 8.13 46.634 0.03 6.06 8.9 11.31
4/13/2021 1:00:00 AM 8.11 46.598 0.03 6.06 8.58 11.32
4/13/2021 1:15:00 AM 8.1 46.58 0.03 6.06 8.95 11.32
4/13/2021 1:30:00 AM 8.08 46.544 0.03 6.06 8.85 11.32
4/13/2021 1:45:00 AM 8.07 46.526 0.03 6.06 8.42 11.33
4/13/2021 2:00:00 AM 8.05 46.49 0.03 6.07 8.69 11.34
4/13/2021 2:15:00 AM 8.04 46.472 0.03 6.05 8.33 11.34
4/13/2021 2:30:00 AM 8.02 46.436 0.03 6.06 8.72 11.35
4/13/2021 2:45:00 AM 8.01 46.418 0.03 6.06 8.34 11.35
4/13/2021 3:00:00 AM 8 46.4 0.03 6.06 7.92 11.35
4/13/2021 3:15:00 AM 7.98 46.364 0.03 6.06 8.32 11.36
4/13/2021 3:30:00 AM 7.97 46.346 0.03 6.07 7.9 11.36
4/13/2021 3:45:00 AM 7.95 46.31 0.03 6.07 8.07 11.37
4/13/2021 4:00:00 AM 7.93 46.274 0.03 6.08 8.13 11.37
4/13/2021 4:15:00 AM 7.91 46.238 0.03 6.07 8.04 11.38
4/13/2021 4:30:00 AM 7.9 46.22 0.03 6.07 8.51 11.38
4/13/2021 4:45:00 AM 7.88 46.184 0.03 6.07 8.68 11.39
4/13/2021 5:00:00 AM 7.87 46.166 0.03 6.07 8.19 11.39
4/13/2021 5:15:00 AM 7.85 46.13 0.03 6.07 8.35 11.39
4/13/2021 5:30:00 AM 7.83 46.094 0.03 6.08 7.71 11.4
4/13/2021 5:45:00 AM 7.82 46.076 0.031 6.08 8.45 11.4
4/13/2021 6:00:00 AM 7.8 46.04 0.031 6.07 7.48 11.4
4/13/2021 6:15:00 AM 7.78 46.004 0.031 6.07 7.96 11.41
4/13/2021 6:30:00 AM 7.75 45.95 0.031 6.07 7.77 11.42
4/13/2021 6:45:00 AM 7.72 45.896 0.031 6.07 7.75 11.43
4/13/2021 7:00:00 AM 7.69 45.842 0.031 6.07 7.52 11.46
4/13/2021 7:15:00 AM 7.66 45.788 0.031 6.08 7.52 11.49
4/13/2021 7:30:00 AM 7.64 45.752 0.031 6.08 7.55 11.52
4/13/2021 7:45:00 AM 7.62 45.716 0.031 6.09 7.42 11.55
4/13/2021 8:00:00 AM 7.61 45.698 0.031 6.11 7.44 11.58
4/13/2021 8:15:00 AM 7.61 45.698 0.031 6.11 7.58 11.58
4/13/2021 8:30:00 AM 7.63 45.734 0.031 6.11 7.2 11.6
4/13/2021 8:45:00 AM 7.66 45.788 0.031 6.13 7.59 11.61
4/13/2021 9:00:00 AM 7.69 45.842 0.031 6.14 7.6 11.62
4/13/2021 9:15:00 AM 7.74 45.932 0.031 6.15 7.6 11.62
4/13/2021 9:30:00 AM 7.8 46.04 0.031 6.15 6.89 11.62
4/13/2021 9:45:00 AM 7.87 46.166 0.031 6.16 6.78 11.63
4/13/2021 10:00:00 AM 7.98 46.364 0.031 6.17 7.06 11.62
4/13/2021 10:15:00 AM 8.11 46.598 0.031 6.17 6.97 11.61
4/13/2021 10:30:00 AM 8.25 46.85 0.031 6.19 6.94 11.58
4/13/2021 10:45:00 AM 8.41 47.138 0.031 6.18 6.76 11.55
4/13/2021 11:00:00 AM 8.58 47.444 0.031 6.18 6.59 11.53
4/13/2021 11:15:00 AM 8.75 47.75 0.031 6.19 6.84 11.5
4/13/2021 11:30:00 AM 8.93 48.074 0.031 6.19 7.12 11.45
4/13/2021 11:45:00 AM 9.12 48.416 0.031 6.19 6.51 11.4
4/13/2021 12:00:00 PM 9.29 48.722 0.031 6.2 6.69 11.38
4/13/2021 12:15:00 PM 9.47 49.046 0.031 6.2 6.9 11.33
4/13/2021 12:30:00 PM 9.65 49.37 0.031 6.2 6.72 11.28
4/13/2021 12:45:00 PM 9.82 49.676 0.031 6.2 6.71 11.26
4/13/2021 1:00:00 PM 9.99 49.982 0.031 6.2 6.95 11.22
4/13/2021 1:15:00 PM 10.16 50.288 0.031 6.21 7.25 11.17
4/13/2021 1:30:00 PM 10.32 50.576 0.031 6.21 6.87 11.12
4/13/2021 1:45:00 PM 10.49 50.882 0.031 6.21 6.95 11.08
4/13/2021 2:00:00 PM 10.66 51.188 0.031 6.22 7.29 11.04
4/13/2021 2:15:00 PM 10.82 51.476 0.031 6.21 7.04 10.99
4/13/2021 2:30:00 PM 10.96 51.728 0.031 6.22 7.31 10.94
4/13/2021 2:45:00 PM 11.11 51.998 0.031 6.22 7.24 10.9
4/13/2021 3:00:00 PM 11.24 52.232 0.031 6.22 6.79 10.86
4/13/2021 3:15:00 PM 11.35 52.43 0.031 6.21 6.9 10.82
4/13/2021 3:30:00 PM 11.44 52.592 0.031 6.21 7 10.78
4/13/2021 3:45:00 PM 11.52 52.736 0.031 6.21 6.68 10.74
4/13/2021 4:00:00 PM 11.59 52.862 0.031 6.2 7.26 10.71
4/13/2021 4:15:00 PM 11.64 52.952 0.031 6.21 7.02 10.68
4/13/2021 4:30:00 PM 11.69 53.042 0.031 6.21 6.88 10.66
4/13/2021 4:45:00 PM 11.71 53.078 0.031 6.2 6.9 10.64
4/13/2021 5:00:00 PM 11.7 53.06 0.031 6.19 7.33 10.62
4/13/2021 5:15:00 PM 11.68 53.024 0.031 6.21 7.16 10.61
4/13/2021 5:30:00 PM 11.67 53.006 0.031 6.19 7.26 10.6
4/13/2021 5:45:00 PM 11.64 52.952 0.031 6.18 7.02 10.58
4/13/2021 6:00:00 PM 11.59 52.862 0.031 6.18 7.01 10.56
4/13/2021 6:15:00 PM 11.54 52.772 0.031 6.16 7.34 10.56
4/13/2021 6:30:00 PM 11.49 52.682 0.031 6.16 6.97 10.57
4/13/2021 6:45:00 PM 11.42 52.556 0.031 6.15 7.23 10.56
4/13/2021 7:00:00 PM 11.35 52.43 0.031 6.15 6.42 10.56
4/13/2021 7:15:00 PM 11.27 52.286 0.031 6.14 6.63 10.56
4/13/2021 7:30:00 PM 11.17 52.106 0.031 6.12 7.28 10.57
4/13/2021 7:45:00 PM 11.06 51.908 0.031 6.12 6.93 10.57
4/13/2021 8:00:00 PM 10.94 51.692 0.031 6.1 7.13 10.57
4/13/2021 8:15:00 PM 10.82 51.476 0.031 6.09 6.86 10.59
4/13/2021 8:30:00 PM 10.7 51.26 0.031 6.09 6.97 10.62
4/13/2021 8:45:00 PM 10.58 51.044 0.031 6.08 6.82 10.66
4/13/2021 9:00:00 PM 10.47 50.846 0.031 6.08 7.18 10.67
4/13/2021 9:15:00 PM 10.38 50.684 0.031 6.08 7.22 10.69
4/13/2021 9:30:00 PM 10.28 50.504 0.031 6.08 7.22 10.71
4/13/2021 9:45:00 PM 10.17 50.306 0.031 6.07 6.94 10.75
4/13/2021 10:00:00 PM 10.07 50.126 0.031 6.07 7.11 10.77
4/13/2021 10:15:00 PM 9.98 49.964 0.031 6.07 6.85 10.81
4/13/2021 10:30:00 PM 9.88 49.784 0.032 6.06 6.82 10.83
4/13/2021 10:45:00 PM 9.79 49.622 0.032 6.08 7.35 10.85
4/13/2021 11:00:00 PM 9.7 49.46 0.032 6.07 7.16 10.86
4/13/2021 11:15:00 PM 9.62 49.316 0.032 6.08 6.95 10.88
4/13/2021 11:30:00 PM 9.53 49.154 0.032 6.07 7.06 10.91
4/13/2021 11:45:00 PM 9.45 49.01 0.032 6.07 6.81 10.94
4/14/2021 12:00:00 AM 9.36 48.848 0.032 6.07 7.05 10.96
4/14/2021 12:15:00 AM 9.29 48.722 0.032 6.07 7.35 10.98
4/14/2021 12:30:00 AM 9.21 48.578 0.032 6.07 6.9 11
4/14/2021 12:45:00 AM 9.14 48.452 0.032 6.08 6.75 11.01
4/14/2021 1:00:00 AM 9.07 48.326 0.032 6.08 6.55 11.02
4/14/2021 1:15:00 AM 9 48.2 0.032 6.07 6.7 11.04
4/14/2021 1:30:00 AM 8.94 48.092 0.032 6.08 6.32 11.06
4/14/2021 1:45:00 AM 8.88 47.984 0.032 6.08 6.81 11.08
4/14/2021 2:00:00 AM 8.82 47.876 0.032 6.08 6.39 11.11
4/14/2021 2:15:00 AM 8.78 47.804 0.032 6.08 6.32 11.12
4/14/2021 2:30:00 AM 8.73 47.714 0.032 6.09 6.1 11.13
4/14/2021 2:45:00 AM 8.68 47.624 0.032 6.08 5.88 11.15
4/14/2021 3:00:00 AM 8.64 47.552 0.032 6.09 5.99 11.16
4/14/2021 3:15:00 AM 8.6 47.48 0.032 6.09 5.89 11.17
4/14/2021 3:30:00 AM 8.55 47.39 0.032 6.09 5.99 11.18
4/14/2021 3:45:00 AM 8.51 47.318 0.032 6.09 5.95 11.19
4/14/2021 4:00:00 AM 8.48 47.264 0.032 6.09 6.06 11.2
4/14/2021 4:15:00 AM 8.44 47.192 0.032 6.08 5.86 11.2
4/14/2021 4:30:00 AM 8.4 47.12 0.032 6.08 5.65 11.21
4/14/2021 4:45:00 AM 8.36 47.048 0.032 6.08 5.8 11.22
4/14/2021 5:00:00 AM 8.32 46.976 0.032 6.09 6.14 11.23
4/14/2021 5:15:00 AM 8.28 46.904 0.032 6.08 5.98 11.24
4/14/2021 5:30:00 AM 8.24 46.832 0.032 6.09 5.61 11.25
4/14/2021 5:45:00 AM 8.2 46.76 0.032 6.08 5.63 11.27
4/14/2021 6:00:00 AM 8.15 46.67 0.032 6.08 5.53 11.28
4/14/2021 6:15:00 AM 8.11 46.598 0.032 6.09 5.3 11.3
4/14/2021 6:30:00 AM 8.07 46.526 0.032 6.09 5.6 11.32
4/14/2021 6:45:00 AM 8.04 46.472 0.032 6.1 5.55 11.33
4/14/2021 7:00:00 AM 8 46.4 0.033 6.09 5.7 11.37
4/14/2021 7:15:00 AM 7.97 46.346 0.033 6.11 5.91 11.41
4/14/2021 7:30:00 AM 7.95 46.31 0.033 6.11 5.32 11.44
4/14/2021 7:45:00 AM 7.94 46.292 0.033 6.12 5.58 11.48
4/14/2021 8:00:00 AM 7.93 46.274 0.033 6.14 5.41 11.51
4/14/2021 8:15:00 AM 7.94 46.292 0.033 6.15 5.4 11.53
4/14/2021 8:30:00 AM 7.97 46.346 0.033 6.17 5.22 11.55
4/14/2021 8:45:00 AM 8.02 46.436 0.033 6.17 5.44 11.57
4/14/2021 9:00:00 AM 8.08 46.544 0.033 6.18 4.66 11.57
4/14/2021 9:15:00 AM 8.13 46.634 0.033 6.19 5.31 11.57
4/14/2021 9:30:00 AM 8.2 46.76 0.033 6.21 4.96 11.55
4/14/2021 9:45:00 AM 8.27 46.886 0.033 6.2 5.08 11.54
4/14/2021 10:00:00 AM 8.35 47.03 0.033 6.21 4.96 11.52
4/14/2021 10:15:00 AM 8.46 47.228 0.033 6.22 5.14 11.52
4/14/2021 10:30:00 AM 8.55 47.39 0.033 6.22 5.19 11.5
4/14/2021 10:45:00 AM 8.66 47.588 0.033 6.24 5.07 11.49
4/14/2021 11:00:00 AM 8.8 47.84 0.033 6.24 4.78 11.46
4/14/2021 11:15:00 AM 8.93 48.074 0.033 6.24 5.01 11.43
4/14/2021 11:30:00 AM 9.05 48.29 0.032 6.25 5.05 11.39
4/14/2021 11:45:00 AM 9.15 48.47 0.033 6.25 4.93 11.37
4/14/2021 12:00:00 PM 9.26 48.668 0.033 6.25 4.87 11.33
4/14/2021 12:15:00 PM 9.39 48.902 0.033 6.25 4.99 11.3
4/14/2021 12:30:00 PM 9.47 49.046 0.033 6.25 5.17 11.26
4/14/2021 12:45:00 PM 9.58 49.244 0.033 6.27 4.66 11.24
4/14/2021 1:00:00 PM 9.77 49.586 0.033 6.27 4.84 11.21
4/14/2021 1:15:00 PM 10 50 0.033 6.27 4.74 11.18
4/14/2021 1:30:00 PM 10.15 50.27 0.033 6.26 4.64 11.14
4/14/2021 1:45:00 PM 10.28 50.504 0.033 6.27 4.82 11.08
4/14/2021 2:00:00 PM 10.39 50.702 0.033 6.27 4.78 11.05
4/14/2021 2:15:00 PM 10.51 50.918 0.033 6.27 4.9 11.01
4/14/2021 2:30:00 PM 10.64 51.152 0.033 6.27 4.75 10.98
4/14/2021 2:45:00 PM 10.75 51.35 0.033 6.27 4.72 10.95
4/14/2021 3:00:00 PM 10.84 51.512 0.033 6.27 4.83 10.92
4/14/2021 3:15:00 PM 10.84 51.512 0.033 6.27 4.84 10.9
4/14/2021 3:30:00 PM 10.85 51.53 0.033 6.27 4.89 10.89
4/14/2021 3:45:00 PM 10.96 51.728 0.033 6.29 4.74 10.86
4/14/2021 4:00:00 PM 11.04 51.872 0.033 6.28 4.56 10.83
4/14/2021 4:15:00 PM 11.11 51.998 0.033 6.28 4.52 10.82
4/14/2021 4:30:00 PM 11.12 52.016 0.033 6.28 4.42 10.8
4/14/2021 4:45:00 PM 11.14 52.052 0.033 6.27 4.64 10.77
4/14/2021 5:00:00 PM 11.17 52.106 0.033 6.27 4.42 10.75
4/14/2021 5:15:00 PM 11.23 52.214 0.033 6.28 4.71 10.73
4/14/2021 5:30:00 PM 11.24 52.232 0.033 6.26 4.88 10.71
4/14/2021 5:45:00 PM 11.26 52.268 0.033 6.26 4.84 10.68
4/14/2021 6:00:00 PM 11.25 52.25 0.033 6.25 4.73 10.66
4/14/2021 6:15:00 PM 11.28 52.304 0.033 6.25 4.75 10.64
4/14/2021 6:30:00 PM 11.28 52.304 0.033 6.24 5.01 10.61
4/14/2021 6:45:00 PM 11.23 52.214 0.033 6.23 5.02 10.58
4/14/2021 7:00:00 PM 11.16 52.088 0.033 6.23 4.89 10.57
4/14/2021 7:15:00 PM 11.11 51.998 0.033 6.21 4.66 10.56
4/14/2021 7:30:00 PM 11.05 51.89 0.033 6.2 4.47 10.54
4/14/2021 7:45:00 PM 10.98 51.764 0.033 6.19 4.75 10.52
4/14/2021 8:00:00 PM 10.89 51.602 0.033 6.18 4.76 10.52
4/14/2021 8:15:00 PM 10.79 51.422 0.033 6.18 4.72 10.53
4/14/2021 8:30:00 PM 10.69 51.242 0.033 6.15 4.78 10.55
4/14/2021 8:45:00 PM 10.6 51.08 0.033 6.14 5.28 10.56
4/14/2021 9:00:00 PM 10.5 50.9 0.034 6.15 4.81 10.58
4/14/2021 9:15:00 PM 10.41 50.738 0.034 6.14 5.03 10.6
4/14/2021 9:30:00 PM 10.32 50.576 0.034 6.15 4.98 10.62
4/14/2021 9:45:00 PM 10.23 50.414 0.034 6.13 4.48 10.63
4/14/2021 10:00:00 PM 10.15 50.27 0.034 6.13 4.93 10.65
4/14/2021 10:15:00 PM 10.07 50.126 0.034 6.14 4.81 10.68
4/14/2021 10:30:00 PM 9.99 49.982 0.034 6.13 5 10.7
4/14/2021 10:45:00 PM 9.91 49.838 0.034 6.13 4.93 10.72
4/14/2021 11:00:00 PM 9.83 49.694 0.034 6.14 4.81 10.74
4/14/2021 11:15:00 PM 9.75 49.55 0.034 6.13 4.94 10.75
4/14/2021 11:30:00 PM 9.68 49.424 0.034 6.13 4.89 10.76
4/14/2021 11:45:00 PM 9.6 49.28 0.034 6.13 4.85 10.78
4/15/2021 12:00:00 AM 9.54 49.172 0.034 6.12 5.19 10.8
4/15/2021 12:15:00 AM 9.48 49.064 0.034 6.13 4.75 10.83
4/15/2021 12:30:00 AM 9.43 48.974 0.034 6.13 4.54 10.84
4/15/2021 12:45:00 AM 9.38 48.884 0.034 6.14 4.68 10.85
4/15/2021 1:00:00 AM 9.32 48.776 0.034 6.14 4.5 10.87
4/15/2021 1:15:00 AM 9.26 48.668 0.034 6.13 5.79 10.89
4/15/2021 1:30:00 AM 9.2 48.56 0.034 6.14 4.85 10.9
4/15/2021 1:45:00 AM 9.15 48.47 0.034 6.14 4.41 10.91
4/15/2021 2:00:00 AM 9.09 48.362 0.034 6.14 4.48 10.92
4/15/2021 2:15:00 AM 9.02 48.236 0.034 6.14 4.46 10.92
4/15/2021 2:30:00 AM 8.96 48.128 0.034 6.15 4.8 10.95
4/15/2021 2:45:00 AM 8.9 48.02 0.034 6.14 4.43 10.96
4/15/2021 3:00:00 AM 8.83 47.894 0.034 6.15 4.58 10.98
4/15/2021 3:15:00 AM 8.77 47.786 0.034 6.15 4.33 11
4/15/2021 3:30:00 AM 8.7 47.66 0.034 6.15 4.62 11.02
4/15/2021 3:45:00 AM 8.65 47.57 0.034 6.15 4.61 11.03
4/15/2021 4:00:00 AM 8.59 47.462 0.034 6.14 4.51 11.05
4/15/2021 4:15:00 AM 8.54 47.372 0.034 6.15 4.31 11.05
4/15/2021 4:30:00 AM 8.5 47.3 0.034 6.15 4.26 11.06
4/15/2021 4:45:00 AM 8.47 47.246 0.034 6.15 4.37 11.07
4/15/2021 5:00:00 AM 8.44 47.192 0.034 6.16 4.4 11.07
4/15/2021 5:15:00 AM 8.41 47.138 0.034 6.14 4.45 11.08
4/15/2021 5:30:00 AM 8.38 47.084 0.034 6.15 4.16 11.08
4/15/2021 5:45:00 AM 8.35 47.03 0.034 6.16 4.15 11.09
4/15/2021 6:00:00 AM 8.32 46.976 0.034 6.15 4.08 11.1
4/15/2021 6:15:00 AM 8.29 46.922 0.034 6.16 4.27 11.11
4/15/2021 6:30:00 AM 8.25 46.85 0.034 6.15 4.35 11.12
4/15/2021 6:45:00 AM 8.22 46.796 0.034 6.15 4.28 11.14
4/15/2021 7:00:00 AM 8.2 46.76 0.034 6.17 4.52 11.17
4/15/2021 7:15:00 AM 8.17 46.706 0.034 6.16 4.7 11.21
4/15/2021 7:30:00 AM 8.16 46.688 0.034 6.19 4.41 11.26
4/15/2021 7:45:00 AM 8.16 46.688 0.034 6.2 4.16 11.3
4/15/2021 8:00:00 AM 8.18 46.724 0.034 6.21 4.2 11.32
4/15/2021 8:15:00 AM 8.19 46.742 0.034 6.22 4.17 11.35
4/15/2021 8:30:00 AM 8.24 46.832 0.034 6.23 3.99 11.37
4/15/2021 8:45:00 AM 8.28 46.904 0.034 6.25 4.14 11.38
4/15/2021 9:00:00 AM 8.3 46.94 0.034 6.25 4.48 11.36
4/15/2021 9:15:00 AM 8.3 46.94 0.034 6.24 4.45 11.34
4/15/2021 9:30:00 AM 8.33 46.994 0.034 6.25 3.91 11.33
4/15/2021 9:45:00 AM 8.37 47.066 0.034 6.26 4.05 11.34
4/15/2021 10:00:00 AM 8.41 47.138 0.034 6.26 4.28 11.33
4/15/2021 10:15:00 AM 8.43 47.174 0.034 6.26 4.3 11.33
4/15/2021 10:30:00 AM 8.48 47.264 0.034 6.27 4.07 11.34
4/15/2021 10:45:00 AM 8.52 47.336 0.034 6.27 4.41 11.34
4/15/2021 11:00:00 AM 8.55 47.39 0.034 6.27 4.19 11.34
4/15/2021 11:15:00 AM 8.58 47.444 0.034 6.28 4.19 11.33
4/15/2021 11:30:00 AM 8.62 47.516 0.034 6.28 3.93 11.32
4/15/2021 11:45:00 AM 8.64 47.552 0.034 6.28 4.31 11.32
4/15/2021 12:00:00 PM 8.68 47.624 0.034 6.28 3.97 11.31
4/15/2021 12:15:00 PM 8.69 47.642 0.034 6.27 4.27 11.28
4/15/2021 12:30:00 PM 8.68 47.624 0.034 6.26 4.04 11.25
4/15/2021 12:45:00 PM 8.67 47.606 0.034 6.27 4.12 11.23
4/15/2021 1:00:00 PM 8.69 47.642 0.034 6.28 3.88 11.24
4/15/2021 1:15:00 PM 8.7 47.66 0.034 6.27 4.14 11.26
4/15/2021 1:30:00 PM 8.72 47.696 0.034 6.29 4.22 11.26
4/15/2021 1:45:00 PM 8.75 47.75 0.034 6.28 3.9 11.28
4/15/2021 2:00:00 PM 8.82 47.876 0.034 6.29 3.82 11.28
4/15/2021 2:15:00 PM 8.89 48.002 0.034 6.3 3.91 11.27
4/15/2021 2:30:00 PM 9 48.2 0.034 6.31 4.03 11.26
4/15/2021 2:45:00 PM 9.07 48.326 0.034 6.31 4.22 11.25
4/15/2021 3:00:00 PM 9.18 48.524 0.034 6.32 3.87 11.24
4/15/2021 3:15:00 PM 9.22 48.596 0.034 6.31 3.91 11.23
4/15/2021 3:30:00 PM 9.27 48.686 0.034 6.32 3.99 11.19
4/15/2021 3:45:00 PM 9.31 48.758 0.034 6.31 4.07 11.18
4/15/2021 4:00:00 PM 9.34 48.812 0.034 6.31 3.96 11.16
4/15/2021 4:15:00 PM 9.34 48.812 0.034 6.31 4 11.14
4/15/2021 4:30:00 PM 9.32 48.776 0.034 6.3 4 11.1
4/15/2021 4:45:00 PM 9.27 48.686 0.035 6.3 3.82 11.09
4/15/2021 5:00:00 PM 9.25 48.65 0.035 6.28 3.92 11.07
4/15/2021 5:15:00 PM 9.23 48.614 0.035 6.28 3.94 11.06
4/15/2021 5:30:00 PM 9.2 48.56 0.035 6.26 4.02 11.03
4/15/2021 5:45:00 PM 9.14 48.452 0.035 6.26 4.07 11.01
4/15/2021 6:00:00 PM 9.07 48.326 0.035 6.25 3.67 10.99
4/15/2021 6:15:00 PM 9.02 48.236 0.035 6.24 3.62 10.98
4/15/2021 6:30:00 PM 8.98 48.164 0.035 6.24 3.84 10.97
4/15/2021 6:45:00 PM 8.94 48.092 0.035 6.24 3.9 10.98
4/15/2021 7:00:00 PM 8.89 48.002 0.035 6.23 4.13 10.99
4/15/2021 7:15:00 PM 8.84 47.912 0.035 6.21 3.67 11
4/15/2021 7:30:00 PM 8.79 47.822 0.035 6.21 3.84 11.01
4/15/2021 7:45:00 PM 8.74 47.732 0.035 6.22 3.91 11.02
4/15/2021 8:00:00 PM 8.68 47.624 0.035 6.21 4.1 11.03
4/15/2021 8:15:00 PM 8.62 47.516 0.035 6.21 3.87 11.03
4/15/2021 8:30:00 PM 8.56 47.408 0.035 6.2 3.94 11.05
4/15/2021 8:45:00 PM 8.51 47.318 0.035 6.2 3.78 11.06
4/15/2021 9:00:00 PM 8.45 47.21 0.035 6.2 4.22 11.07
4/15/2021 9:15:00 PM 8.38 47.084 0.035 6.19 4.18 11.08
4/15/2021 9:30:00 PM 8.33 46.994 0.035 6.2 3.88 11.09
4/15/2021 9:45:00 PM 8.28 46.904 0.035 6.2 4.05 11.11
4/15/2021 10:00:00 PM 8.22 46.796 0.035 6.19 4.18 11.13
4/15/2021 10:15:00 PM 8.16 46.688 0.035 6.2 4.13 11.14
4/15/2021 10:30:00 PM 8.09 46.562 0.035 6.19 3.97 11.16
4/15/2021 10:45:00 PM 8.02 46.436 0.035 6.19 3.94 11.18
4/15/2021 11:00:00 PM 7.95 46.31 0.035 6.19 3.95 11.19
4/15/2021 11:15:00 PM 7.88 46.184 0.035 6.17 3.64 11.21
4/15/2021 11:30:00 PM 7.8 46.04 0.035 6.18 3.89 11.23
4/15/2021 11:45:00 PM 7.73 45.914 0.035 6.18 3.96 11.24
4/16/2021 12:00:00 AM 7.65 45.77 0.035 6.17 3.75 11.26
4/16/2021 12:15:00 AM 7.58 45.644 0.035 6.17 3.74 11.28
4/16/2021 12:30:00 AM 7.51 45.518 0.035 6.18 3.76 11.31
4/16/2021 12:45:00 AM 7.44 45.392 0.035 6.18 3.96 11.33
4/16/2021 1:00:00 AM 7.38 45.284 0.035 6.18 3.72 11.36
4/16/2021 1:15:00 AM 7.33 45.194 0.035 6.18 3.99 11.37
4/16/2021 1:30:00 AM 7.29 45.122 0.035 6.18 3.86 11.39
4/16/2021 1:45:00 AM 7.25 45.05 0.035 6.19 3.99 11.4
4/16/2021 2:00:00 AM 7.21 44.978 0.035 6.19 3.98 11.41
4/16/2021 2:15:00 AM 7.18 44.924 0.035 6.19 3.84 11.41
4/16/2021 2:30:00 AM 7.14 44.852 0.035 6.19 3.82 11.42
4/16/2021 2:45:00 AM 7.1 44.78 0.035 6.19 3.93 11.43
4/16/2021 3:00:00 AM 7.07 44.726 0.035 6.17 3.67 11.44
4/16/2021 3:15:00 AM 7.04 44.672 0.035 6.18 3.85 11.44
4/16/2021 3:30:00 AM 7 44.6 0.035 6.18 3.8 11.46
4/16/2021 3:45:00 AM 6.98 44.564 0.035 6.19 3.86 11.46
4/16/2021 4:00:00 AM 6.95 44.51 0.035 6.19 3.85 11.47
4/16/2021 4:15:00 AM 6.92 44.456 0.035 6.19 3.87 11.48
4/16/2021 4:30:00 AM 6.9 44.42 0.035 6.19 3.83 11.49
4/16/2021 4:45:00 AM 6.88 44.384 0.035 6.19 3.88 11.49
4/16/2021 5:00:00 AM 6.86 44.348 0.035 6.19 3.74 11.5
4/16/2021 5:15:00 AM 6.83 44.294 0.035 6.19 3.72 11.51
4/16/2021 5:30:00 AM 6.8 44.24 0.035 6.18 3.71 11.51
4/16/2021 5:45:00 AM 6.78 44.204 0.035 6.18 3.59 11.52
4/16/2021 6:00:00 AM 6.76 44.168 0.035 6.18 3.78 11.52
4/16/2021 6:15:00 AM 6.74 44.132 0.035 6.19 3.69 11.54
4/16/2021 6:30:00 AM 6.72 44.096 0.035 6.19 3.69 11.54
4/16/2021 6:45:00 AM 6.7 44.06 0.035 6.19 3.67 11.55
4/16/2021 7:00:00 AM 6.67 44.006 0.035 6.21 3.66 11.58
4/16/2021 7:15:00 AM 6.66 43.988 0.035 6.21 3.68 11.62
4/16/2021 7:30:00 AM 6.65 43.97 0.035 6.21 3.69 11.67
4/16/2021 7:45:00 AM 6.65 43.97 0.035 6.23 3.7 11.7
4/16/2021 8:00:00 AM 6.64 43.952 0.035 6.23 3.7 11.73
4/16/2021 8:15:00 AM 6.64 43.952 0.035 6.24 3.53 11.75
4/16/2021 8:30:00 AM 6.64 43.952 0.035 6.39 3.78 11.76
4/16/2021 8:45:00 AM 6.66 43.988 0.035 6.28 3.71 11.79
4/16/2021 9:00:00 AM 6.68 44.024 0.035 6.27 3.51 11.8
4/16/2021 9:15:00 AM 6.69 44.042 0.035 6.29 3.75 11.82
4/16/2021 9:30:00 AM 6.71 44.078 0.035 6.29 3.55 11.82
4/16/2021 9:45:00 AM 6.75 44.15 0.035 6.29 3.82 11.82
4/16/2021 10:00:00 AM 6.78 44.204